<?xml version="1.0" encoding="UTF-8" standalone="no" ?>
<gpx xmlns="http://www.topografix.com/GPX/1/1" xmlns:xsi="http://www.w3.org/2001/XMLSchema-instance" xsi:schemaLocation="http://www.topografix.com/GPX/1/1 http://www.topografix.com/GPX/1/1/gpx.xsd" version="1.1" creator="VisuGPX - https://www.visugpx.com">
  <metadata>
    <name>17-NOV-13_Rando Heyrieux</name>
    <desc><![CDATA[randonnée autour d'Heyrieux - Organisé par l'association HCM]]></desc>
  </metadata>
  <trk>
    <name><![CDATA[17-NOV-13 14:16:29_Rando Heyrieux]]></name>
    <trkseg>
      <trkpt lat="45.63141" lon="5.05598">
        <ele>275</ele>
        <time>2013-11-17T08:41:41Z</time>
      </trkpt>
      <trkpt lat="45.63138" lon="5.05593">
        <ele>275</ele>
        <time>2013-11-17T08:41:48Z</time>
      </trkpt>
      <trkpt lat="45.63137" lon="5.05593">
        <ele>275</ele>
        <time>2013-11-17T08:41:50Z</time>
      </trkpt>
      <trkpt lat="45.63134" lon="5.05589">
        <ele>275</ele>
        <time>2013-11-17T08:41:54Z</time>
      </trkpt>
      <trkpt lat="45.63132" lon="5.05578">
        <ele>275</ele>
        <time>2013-11-17T08:42:04Z</time>
      </trkpt>
      <trkpt lat="45.63122" lon="5.05542">
        <ele>275</ele>
        <time>2013-11-17T08:42:22Z</time>
      </trkpt>
      <trkpt lat="45.63119" lon="5.05524">
        <ele>275</ele>
        <time>2013-11-17T08:42:31Z</time>
      </trkpt>
      <trkpt lat="45.63123" lon="5.05517">
        <ele>275</ele>
        <time>2013-11-17T08:42:36Z</time>
      </trkpt>
      <trkpt lat="45.6313" lon="5.05493">
        <ele>274.8671875</ele>
        <time>2013-11-17T08:42:51Z</time>
      </trkpt>
      <trkpt lat="45.63133" lon="5.05489">
        <ele>274.7265625</ele>
        <time>2013-11-17T08:42:54Z</time>
      </trkpt>
      <trkpt lat="45.63136" lon="5.05482">
        <ele>274.44921875</ele>
        <time>2013-11-17T08:42:58Z</time>
      </trkpt>
      <trkpt lat="45.63153" lon="5.05458">
        <ele>273.56640625</ele>
        <time>2013-11-17T08:43:15Z</time>
      </trkpt>
      <trkpt lat="45.6316" lon="5.0544">
        <ele>273</ele>
        <time>2013-11-17T08:43:29Z</time>
      </trkpt>
      <trkpt lat="45.63153" lon="5.0544">
        <ele>273</ele>
        <time>2013-11-17T08:43:35Z</time>
      </trkpt>
      <trkpt lat="45.63136" lon="5.05449">
        <ele>273.27734375</ele>
        <time>2013-11-17T08:43:49Z</time>
      </trkpt>
      <trkpt lat="45.63131" lon="5.05451">
        <ele>273.53125</ele>
        <time>2013-11-17T08:43:53Z</time>
      </trkpt>
      <trkpt lat="45.6313" lon="5.05452">
        <ele>273.59765625</ele>
        <time>2013-11-17T08:43:54Z</time>
      </trkpt>
      <trkpt lat="45.63128" lon="5.05453">
        <ele>273.7265625</ele>
        <time>2013-11-17T08:43:56Z</time>
      </trkpt>
      <trkpt lat="45.63111" lon="5.05476">
        <ele>274.94140625</ele>
        <time>2013-11-17T08:44:14Z</time>
      </trkpt>
      <trkpt lat="45.6311" lon="5.05477">
        <ele>274.96875</ele>
        <time>2013-11-17T08:44:15Z</time>
      </trkpt>
      <trkpt lat="45.63107" lon="5.05479">
        <ele>275</ele>
        <time>2013-11-17T08:44:18Z</time>
      </trkpt>
      <trkpt lat="45.63098" lon="5.05488">
        <ele>275</ele>
        <time>2013-11-17T08:44:30Z</time>
      </trkpt>
      <trkpt lat="45.63078" lon="5.0548">
        <ele>275</ele>
        <time>2013-11-17T08:44:46Z</time>
      </trkpt>
      <trkpt lat="45.63057" lon="5.05473">
        <ele>275</ele>
        <time>2013-11-17T08:45:03Z</time>
      </trkpt>
      <trkpt lat="45.63034" lon="5.05467">
        <ele>274.96484375</ele>
        <time>2013-11-17T08:45:21Z</time>
      </trkpt>
      <trkpt lat="45.63017" lon="5.05461">
        <ele>275.1953125</ele>
        <time>2013-11-17T08:45:36Z</time>
      </trkpt>
      <trkpt lat="45.63002" lon="5.05457">
        <ele>275.44921875</ele>
        <time>2013-11-17T08:45:50Z</time>
      </trkpt>
      <trkpt lat="45.62985" lon="5.05451">
        <ele>275.640625</ele>
        <time>2013-11-17T08:46:06Z</time>
      </trkpt>
      <trkpt lat="45.62968" lon="5.05446">
        <ele>276.07421875</ele>
        <time>2013-11-17T08:46:20Z</time>
      </trkpt>
      <trkpt lat="45.62964" lon="5.05445">
        <ele>276.22265625</ele>
        <time>2013-11-17T08:46:23Z</time>
      </trkpt>
      <trkpt lat="45.6296" lon="5.05444">
        <ele>276.36328125</ele>
        <time>2013-11-17T08:46:26Z</time>
      </trkpt>
      <trkpt lat="45.62955" lon="5.05446">
        <ele>276.5234375</ele>
        <time>2013-11-17T08:46:30Z</time>
      </trkpt>
      <trkpt lat="45.62954" lon="5.05453">
        <ele>276.578125</ele>
        <time>2013-11-17T08:46:36Z</time>
      </trkpt>
      <trkpt lat="45.62951" lon="5.05459">
        <ele>276.68359375</ele>
        <time>2013-11-17T08:46:40Z</time>
      </trkpt>
      <trkpt lat="45.62946" lon="5.05482">
        <ele>276.85546875</ele>
        <time>2013-11-17T08:46:52Z</time>
      </trkpt>
      <trkpt lat="45.62944" lon="5.05489">
        <ele>276.9375</ele>
        <time>2013-11-17T08:46:57Z</time>
      </trkpt>
      <trkpt lat="45.62943" lon="5.05497">
        <ele>276.94921875</ele>
        <time>2013-11-17T08:47:01Z</time>
      </trkpt>
      <trkpt lat="45.62941" lon="5.05525">
        <ele>277.99609375</ele>
        <time>2013-11-17T08:47:17Z</time>
      </trkpt>
      <trkpt lat="45.62937" lon="5.05549">
        <ele>278.16796875</ele>
        <time>2013-11-17T08:47:32Z</time>
      </trkpt>
      <trkpt lat="45.62937" lon="5.05559">
        <ele>278.1875</ele>
        <time>2013-11-17T08:47:38Z</time>
      </trkpt>
      <trkpt lat="45.62935" lon="5.05568">
        <ele>278.23828125</ele>
        <time>2013-11-17T08:47:44Z</time>
      </trkpt>
      <trkpt lat="45.62933" lon="5.05591">
        <ele>278.34375</ele>
        <time>2013-11-17T08:47:58Z</time>
      </trkpt>
      <trkpt lat="45.62933" lon="5.05594">
        <ele>278.33984375</ele>
        <time>2013-11-17T08:48:00Z</time>
      </trkpt>
      <trkpt lat="45.62929" lon="5.05606">
        <ele>278.484375</ele>
        <time>2013-11-17T08:48:14Z</time>
      </trkpt>
      <trkpt lat="45.62928" lon="5.05608">
        <ele>278.5</ele>
        <time>2013-11-17T08:48:15Z</time>
      </trkpt>
      <trkpt lat="45.62926" lon="5.05615">
        <ele>278.5703125</ele>
        <time>2013-11-17T08:48:20Z</time>
      </trkpt>
      <trkpt lat="45.62924" lon="5.0564">
        <ele>278.7890625</ele>
        <time>2013-11-17T08:48:36Z</time>
      </trkpt>
      <trkpt lat="45.62917" lon="5.05675">
        <ele>279.90625</ele>
        <time>2013-11-17T08:48:56Z</time>
      </trkpt>
      <trkpt lat="45.62912" lon="5.05708">
        <ele>280.09765625</ele>
        <time>2013-11-17T08:49:16Z</time>
      </trkpt>
      <trkpt lat="45.62904" lon="5.05734">
        <ele>280.359375</ele>
        <time>2013-11-17T08:49:33Z</time>
      </trkpt>
      <trkpt lat="45.62888" lon="5.05741">
        <ele>280.9375</ele>
        <time>2013-11-17T08:49:48Z</time>
      </trkpt>
      <trkpt lat="45.62881" lon="5.05748">
        <ele>281.63671875</ele>
        <time>2013-11-17T08:49:55Z</time>
      </trkpt>
      <trkpt lat="45.62872" lon="5.05761">
        <ele>282.61328125</ele>
        <time>2013-11-17T08:50:05Z</time>
      </trkpt>
      <trkpt lat="45.62854" lon="5.05753">
        <ele>284.90625</ele>
        <time>2013-11-17T08:50:21Z</time>
      </trkpt>
      <trkpt lat="45.62838" lon="5.05745">
        <ele>287.796875</ele>
        <time>2013-11-17T08:50:36Z</time>
      </trkpt>
      <trkpt lat="45.62823" lon="5.05734">
        <ele>290.53515625</ele>
        <time>2013-11-17T08:50:51Z</time>
      </trkpt>
      <trkpt lat="45.62819" lon="5.05725">
        <ele>291.33984375</ele>
        <time>2013-11-17T08:50:57Z</time>
      </trkpt>
      <trkpt lat="45.62816" lon="5.05715">
        <ele>291.75390625</ele>
        <time>2013-11-17T08:51:03Z</time>
      </trkpt>
      <trkpt lat="45.62818" lon="5.05704">
        <ele>291.390625</ele>
        <time>2013-11-17T08:51:10Z</time>
      </trkpt>
      <trkpt lat="45.62822" lon="5.05684">
        <ele>290.63671875</ele>
        <time>2013-11-17T08:51:22Z</time>
      </trkpt>
      <trkpt lat="45.62823" lon="5.05677">
        <ele>290.59375</ele>
        <time>2013-11-17T08:51:26Z</time>
      </trkpt>
      <trkpt lat="45.62824" lon="5.05648">
        <ele>290.984375</ele>
        <time>2013-11-17T08:51:42Z</time>
      </trkpt>
      <trkpt lat="45.62823" lon="5.05637">
        <ele>291.33984375</ele>
        <time>2013-11-17T08:51:49Z</time>
      </trkpt>
      <trkpt lat="45.62818" lon="5.05615">
        <ele>292.3125</ele>
        <time>2013-11-17T08:52:02Z</time>
      </trkpt>
      <trkpt lat="45.62818" lon="5.05614">
        <ele>292.3359375</ele>
        <time>2013-11-17T08:52:03Z</time>
      </trkpt>
      <trkpt lat="45.62813" lon="5.05587">
        <ele>293.24609375</ele>
        <time>2013-11-17T08:52:19Z</time>
      </trkpt>
      <trkpt lat="45.62808" lon="5.05563">
        <ele>294.6875</ele>
        <time>2013-11-17T08:52:34Z</time>
      </trkpt>
      <trkpt lat="45.62807" lon="5.05541">
        <ele>295.34765625</ele>
        <time>2013-11-17T08:52:47Z</time>
      </trkpt>
      <trkpt lat="45.62816" lon="5.05514">
        <ele>293.93359375</ele>
        <time>2013-11-17T08:53:04Z</time>
      </trkpt>
      <trkpt lat="45.62826" lon="5.05489">
        <ele>292.171875</ele>
        <time>2013-11-17T08:53:21Z</time>
      </trkpt>
      <trkpt lat="45.62828" lon="5.05466">
        <ele>291.79296875</ele>
        <time>2013-11-17T08:53:36Z</time>
      </trkpt>
      <trkpt lat="45.62826" lon="5.05459">
        <ele>292.45703125</ele>
        <time>2013-11-17T08:53:41Z</time>
      </trkpt>
      <trkpt lat="45.6282" lon="5.0544">
        <ele>294.3515625</ele>
        <time>2013-11-17T08:53:51Z</time>
      </trkpt>
      <trkpt lat="45.62816" lon="5.05414">
        <ele>295.33203125</ele>
        <time>2013-11-17T08:54:04Z</time>
      </trkpt>
      <trkpt lat="45.62812" lon="5.0539">
        <ele>296.7421875</ele>
        <time>2013-11-17T08:54:19Z</time>
      </trkpt>
      <trkpt lat="45.6281" lon="5.05363">
        <ele>297.25390625</ele>
        <time>2013-11-17T08:54:35Z</time>
      </trkpt>
      <trkpt lat="45.62807" lon="5.05335">
        <ele>298.13671875</ele>
        <time>2013-11-17T08:54:51Z</time>
      </trkpt>
      <trkpt lat="45.62803" lon="5.05314">
        <ele>299.10546875</ele>
        <time>2013-11-17T08:55:04Z</time>
      </trkpt>
      <trkpt lat="45.62802" lon="5.05308">
        <ele>299.3203125</ele>
        <time>2013-11-17T08:55:07Z</time>
      </trkpt>
      <trkpt lat="45.62795" lon="5.05293">
        <ele>301.16796875</ele>
        <time>2013-11-17T08:55:18Z</time>
      </trkpt>
      <trkpt lat="45.62784" lon="5.05283">
        <ele>303.8984375</ele>
        <time>2013-11-17T08:55:34Z</time>
      </trkpt>
      <trkpt lat="45.62777" lon="5.0528">
        <ele>305.49609375</ele>
        <time>2013-11-17T08:55:41Z</time>
      </trkpt>
      <trkpt lat="45.62769" lon="5.05269">
        <ele>307.8046875</ele>
        <time>2013-11-17T08:55:55Z</time>
      </trkpt>
      <trkpt lat="45.62761" lon="5.05263">
        <ele>309.84765625</ele>
        <time>2013-11-17T08:56:11Z</time>
      </trkpt>
      <trkpt lat="45.62753" lon="5.05262">
        <ele>312.171875</ele>
        <time>2013-11-17T08:56:22Z</time>
      </trkpt>
      <trkpt lat="45.6274" lon="5.05265">
        <ele>315.484375</ele>
        <time>2013-11-17T08:56:39Z</time>
      </trkpt>
      <trkpt lat="45.6273" lon="5.0526">
        <ele>317.6328125</ele>
        <time>2013-11-17T08:56:56Z</time>
      </trkpt>
      <trkpt lat="45.62722" lon="5.05257">
        <ele>319.4609375</ele>
        <time>2013-11-17T08:57:12Z</time>
      </trkpt>
      <trkpt lat="45.62713" lon="5.05256">
        <ele>320.5703125</ele>
        <time>2013-11-17T08:57:26Z</time>
      </trkpt>
      <trkpt lat="45.62708" lon="5.05264">
        <ele>321.09765625</ele>
        <time>2013-11-17T08:57:41Z</time>
      </trkpt>
      <trkpt lat="45.62699" lon="5.05271">
        <ele>322.09765625</ele>
        <time>2013-11-17T08:57:54Z</time>
      </trkpt>
      <trkpt lat="45.62697" lon="5.05274">
        <ele>322.453125</ele>
        <time>2013-11-17T08:57:58Z</time>
      </trkpt>
      <trkpt lat="45.62689" lon="5.05282">
        <ele>323.12109375</ele>
        <time>2013-11-17T08:58:12Z</time>
      </trkpt>
      <trkpt lat="45.62681" lon="5.05287">
        <ele>323.390625</ele>
        <time>2013-11-17T08:58:24Z</time>
      </trkpt>
      <trkpt lat="45.62684" lon="5.05268">
        <ele>323.0390625</ele>
        <time>2013-11-17T08:58:38Z</time>
      </trkpt>
      <trkpt lat="45.62683" lon="5.05247">
        <ele>322.30859375</ele>
        <time>2013-11-17T08:58:51Z</time>
      </trkpt>
      <trkpt lat="45.62684" lon="5.05241">
        <ele>322.02734375</ele>
        <time>2013-11-17T08:58:55Z</time>
      </trkpt>
      <trkpt lat="45.62686" lon="5.05228">
        <ele>321.52734375</ele>
        <time>2013-11-17T08:59:02Z</time>
      </trkpt>
      <trkpt lat="45.62689" lon="5.05213">
        <ele>320.859375</ele>
        <time>2013-11-17T08:59:12Z</time>
      </trkpt>
      <trkpt lat="45.62691" lon="5.05191">
        <ele>320.03515625</ele>
        <time>2013-11-17T08:59:26Z</time>
      </trkpt>
      <trkpt lat="45.62691" lon="5.05167">
        <ele>320.04296875</ele>
        <time>2013-11-17T08:59:42Z</time>
      </trkpt>
      <trkpt lat="45.62691" lon="5.05163">
        <ele>320.0625</ele>
        <time>2013-11-17T08:59:45Z</time>
      </trkpt>
      <trkpt lat="45.62687" lon="5.05142">
        <ele>320.1953125</ele>
        <time>2013-11-17T08:59:59Z</time>
      </trkpt>
      <trkpt lat="45.62685" lon="5.05131">
        <ele>320.2421875</ele>
        <time>2013-11-17T09:00:07Z</time>
      </trkpt>
      <trkpt lat="45.62684" lon="5.05117">
        <ele>320.296875</ele>
        <time>2013-11-17T09:00:16Z</time>
      </trkpt>
      <trkpt lat="45.62682" lon="5.05097">
        <ele>320.37890625</ele>
        <time>2013-11-17T09:00:28Z</time>
      </trkpt>
      <trkpt lat="45.62681" lon="5.05094">
        <ele>320.390625</ele>
        <time>2013-11-17T09:00:30Z</time>
      </trkpt>
      <trkpt lat="45.6268" lon="5.05072">
        <ele>320.421875</ele>
        <time>2013-11-17T09:00:45Z</time>
      </trkpt>
      <trkpt lat="45.62679" lon="5.05052">
        <ele>320.453125</ele>
        <time>2013-11-17T09:00:58Z</time>
      </trkpt>
      <trkpt lat="45.62677" lon="5.05041">
        <ele>320.3359375</ele>
        <time>2013-11-17T09:01:06Z</time>
      </trkpt>
      <trkpt lat="45.62676" lon="5.05032">
        <ele>320.2421875</ele>
        <time>2013-11-17T09:01:12Z</time>
      </trkpt>
      <trkpt lat="45.62675" lon="5.05013">
        <ele>319.94921875</ele>
        <time>2013-11-17T09:01:24Z</time>
      </trkpt>
      <trkpt lat="45.62675" lon="5.04999">
        <ele>319.6484375</ele>
        <time>2013-11-17T09:01:32Z</time>
      </trkpt>
      <trkpt lat="45.62674" lon="5.04973">
        <ele>319.32421875</ele>
        <time>2013-11-17T09:01:47Z</time>
      </trkpt>
      <trkpt lat="45.62675" lon="5.04968">
        <ele>319.21875</ele>
        <time>2013-11-17T09:01:50Z</time>
      </trkpt>
      <trkpt lat="45.62676" lon="5.04942">
        <ele>318.58203125</ele>
        <time>2013-11-17T09:02:05Z</time>
      </trkpt>
      <trkpt lat="45.62676" lon="5.04919">
        <ele>318.2265625</ele>
        <time>2013-11-17T09:02:19Z</time>
      </trkpt>
      <trkpt lat="45.62678" lon="5.04899">
        <ele>317.18359375</ele>
        <time>2013-11-17T09:02:32Z</time>
      </trkpt>
      <trkpt lat="45.62679" lon="5.04898">
        <ele>317.09375</ele>
        <time>2013-11-17T09:02:33Z</time>
      </trkpt>
      <trkpt lat="45.62677" lon="5.04871">
        <ele>315.96484375</ele>
        <time>2013-11-17T09:02:50Z</time>
      </trkpt>
      <trkpt lat="45.62677" lon="5.04869">
        <ele>315.90625</ele>
        <time>2013-11-17T09:02:51Z</time>
      </trkpt>
      <trkpt lat="45.62676" lon="5.04852">
        <ele>315.3046875</ele>
        <time>2013-11-17T09:03:02Z</time>
      </trkpt>
      <trkpt lat="45.62677" lon="5.04848">
        <ele>315.1328125</ele>
        <time>2013-11-17T09:03:05Z</time>
      </trkpt>
      <trkpt lat="45.62676" lon="5.04839">
        <ele>314.859375</ele>
        <time>2013-11-17T09:03:10Z</time>
      </trkpt>
      <trkpt lat="45.62679" lon="5.04819">
        <ele>313.8046875</ele>
        <time>2013-11-17T09:03:24Z</time>
      </trkpt>
      <trkpt lat="45.62681" lon="5.04797">
        <ele>312.75390625</ele>
        <time>2013-11-17T09:03:38Z</time>
      </trkpt>
      <trkpt lat="45.62682" lon="5.04792">
        <ele>312.59765625</ele>
        <time>2013-11-17T09:03:41Z</time>
      </trkpt>
      <trkpt lat="45.62683" lon="5.04781">
        <ele>312.203125</ele>
        <time>2013-11-17T09:03:47Z</time>
      </trkpt>
      <trkpt lat="45.62684" lon="5.04767">
        <ele>312.20703125</ele>
        <time>2013-11-17T09:03:56Z</time>
      </trkpt>
      <trkpt lat="45.62686" lon="5.0475">
        <ele>312.72265625</ele>
        <time>2013-11-17T09:04:08Z</time>
      </trkpt>
      <trkpt lat="45.62686" lon="5.04747">
        <ele>312.7734375</ele>
        <time>2013-11-17T09:04:10Z</time>
      </trkpt>
      <trkpt lat="45.62686" lon="5.04743">
        <ele>312.76171875</ele>
        <time>2013-11-17T09:04:13Z</time>
      </trkpt>
      <trkpt lat="45.62685" lon="5.04736">
        <ele>312.734375</ele>
        <time>2013-11-17T09:04:18Z</time>
      </trkpt>
      <trkpt lat="45.62686" lon="5.04731">
        <ele>312.76171875</ele>
        <time>2013-11-17T09:04:21Z</time>
      </trkpt>
      <trkpt lat="45.62687" lon="5.0471">
        <ele>313.203125</ele>
        <time>2013-11-17T09:04:35Z</time>
      </trkpt>
      <trkpt lat="45.62687" lon="5.04706">
        <ele>313.34765625</ele>
        <time>2013-11-17T09:04:38Z</time>
      </trkpt>
      <trkpt lat="45.62689" lon="5.04695">
        <ele>313.8046875</ele>
        <time>2013-11-17T09:04:45Z</time>
      </trkpt>
      <trkpt lat="45.62692" lon="5.04678">
        <ele>315.015625</ele>
        <time>2013-11-17T09:04:57Z</time>
      </trkpt>
      <trkpt lat="45.62694" lon="5.04661">
        <ele>316.37109375</ele>
        <time>2013-11-17T09:05:09Z</time>
      </trkpt>
      <trkpt lat="45.62696" lon="5.04648">
        <ele>317.38671875</ele>
        <time>2013-11-17T09:05:19Z</time>
      </trkpt>
      <trkpt lat="45.62696" lon="5.04638">
        <ele>318.0703125</ele>
        <time>2013-11-17T09:05:26Z</time>
      </trkpt>
      <trkpt lat="45.62697" lon="5.04634">
        <ele>318.40234375</ele>
        <time>2013-11-17T09:05:29Z</time>
      </trkpt>
      <trkpt lat="45.62697" lon="5.04619">
        <ele>319.58203125</ele>
        <time>2013-11-17T09:05:41Z</time>
      </trkpt>
      <trkpt lat="45.627" lon="5.04603">
        <ele>320.953125</ele>
        <time>2013-11-17T09:05:54Z</time>
      </trkpt>
      <trkpt lat="45.62702" lon="5.04591">
        <ele>321.99609375</ele>
        <time>2013-11-17T09:06:02Z</time>
      </trkpt>
      <trkpt lat="45.62703" lon="5.04589">
        <ele>322.25</ele>
        <time>2013-11-17T09:06:04Z</time>
      </trkpt>
      <trkpt lat="45.62704" lon="5.04586">
        <ele>322.5234375</ele>
        <time>2013-11-17T09:06:06Z</time>
      </trkpt>
      <trkpt lat="45.62705" lon="5.04573">
        <ele>323.5703125</ele>
        <time>2013-11-17T09:06:15Z</time>
      </trkpt>
      <trkpt lat="45.62706" lon="5.04555">
        <ele>324.875</ele>
        <time>2013-11-17T09:06:27Z</time>
      </trkpt>
      <trkpt lat="45.62708" lon="5.04536">
        <ele>326.0234375</ele>
        <time>2013-11-17T09:06:39Z</time>
      </trkpt>
      <trkpt lat="45.62708" lon="5.04533">
        <ele>326.2109375</ele>
        <time>2013-11-17T09:06:41Z</time>
      </trkpt>
      <trkpt lat="45.62712" lon="5.04518">
        <ele>327.21875</ele>
        <time>2013-11-17T09:06:51Z</time>
      </trkpt>
      <trkpt lat="45.62715" lon="5.04504">
        <ele>328.23828125</ele>
        <time>2013-11-17T09:07:00Z</time>
      </trkpt>
      <trkpt lat="45.62721" lon="5.04486">
        <ele>329.4609375</ele>
        <time>2013-11-17T09:07:13Z</time>
      </trkpt>
      <trkpt lat="45.62724" lon="5.04471">
        <ele>330.10546875</ele>
        <time>2013-11-17T09:07:23Z</time>
      </trkpt>
      <trkpt lat="45.62725" lon="5.04464">
        <ele>330.37890625</ele>
        <time>2013-11-17T09:07:28Z</time>
      </trkpt>
      <trkpt lat="45.62728" lon="5.04439">
        <ele>331</ele>
        <time>2013-11-17T09:07:44Z</time>
      </trkpt>
      <trkpt lat="45.62733" lon="5.04424">
        <ele>331</ele>
        <time>2013-11-17T09:07:53Z</time>
      </trkpt>
      <trkpt lat="45.62736" lon="5.04414">
        <ele>331</ele>
        <time>2013-11-17T09:07:59Z</time>
      </trkpt>
      <trkpt lat="45.62738" lon="5.0441">
        <ele>331</ele>
        <time>2013-11-17T09:08:02Z</time>
      </trkpt>
      <trkpt lat="45.6274" lon="5.04403">
        <ele>331</ele>
        <time>2013-11-17T09:08:07Z</time>
      </trkpt>
      <trkpt lat="45.62742" lon="5.04397">
        <ele>331</ele>
        <time>2013-11-17T09:08:11Z</time>
      </trkpt>
      <trkpt lat="45.62747" lon="5.04375">
        <ele>331</ele>
        <time>2013-11-17T09:08:26Z</time>
      </trkpt>
      <trkpt lat="45.62749" lon="5.04368">
        <ele>331.05859375</ele>
        <time>2013-11-17T09:08:30Z</time>
      </trkpt>
      <trkpt lat="45.62752" lon="5.04361">
        <ele>331.15625</ele>
        <time>2013-11-17T09:08:35Z</time>
      </trkpt>
      <trkpt lat="45.62756" lon="5.04343">
        <ele>331.3125</ele>
        <time>2013-11-17T09:08:48Z</time>
      </trkpt>
      <trkpt lat="45.62761" lon="5.04332">
        <ele>331.4765625</ele>
        <time>2013-11-17T09:08:57Z</time>
      </trkpt>
      <trkpt lat="45.62763" lon="5.04321">
        <ele>331.56640625</ele>
        <time>2013-11-17T09:09:07Z</time>
      </trkpt>
      <trkpt lat="45.62767" lon="5.04319">
        <ele>331.6953125</ele>
        <time>2013-11-17T09:09:11Z</time>
      </trkpt>
      <trkpt lat="45.62782" lon="5.04326">
        <ele>332.046875</ele>
        <time>2013-11-17T09:09:27Z</time>
      </trkpt>
      <trkpt lat="45.62787" lon="5.04328">
        <ele>332.046875</ele>
        <time>2013-11-17T09:09:32Z</time>
      </trkpt>
      <trkpt lat="45.62793" lon="5.04332">
        <ele>332</ele>
        <time>2013-11-17T09:09:37Z</time>
      </trkpt>
      <trkpt lat="45.62797" lon="5.04335">
        <ele>332</ele>
        <time>2013-11-17T09:09:41Z</time>
      </trkpt>
      <trkpt lat="45.62816" lon="5.04343">
        <ele>332.26953125</ele>
        <time>2013-11-17T09:09:57Z</time>
      </trkpt>
      <trkpt lat="45.62831" lon="5.04347">
        <ele>332.4453125</ele>
        <time>2013-11-17T09:10:11Z</time>
      </trkpt>
      <trkpt lat="45.62836" lon="5.04348">
        <ele>332.4140625</ele>
        <time>2013-11-17T09:10:15Z</time>
      </trkpt>
      <trkpt lat="45.62841" lon="5.04343">
        <ele>332.578125</ele>
        <time>2013-11-17T09:10:20Z</time>
      </trkpt>
      <trkpt lat="45.62851" lon="5.04326">
        <ele>333.37109375</ele>
        <time>2013-11-17T09:10:35Z</time>
      </trkpt>
      <trkpt lat="45.62856" lon="5.04315">
        <ele>334.1328125</ele>
        <time>2013-11-17T09:10:43Z</time>
      </trkpt>
      <trkpt lat="45.62865" lon="5.04294">
        <ele>335.23046875</ele>
        <time>2013-11-17T09:10:58Z</time>
      </trkpt>
      <trkpt lat="45.6287" lon="5.04275">
        <ele>335.41796875</ele>
        <time>2013-11-17T09:11:11Z</time>
      </trkpt>
      <trkpt lat="45.6287" lon="5.04274">
        <ele>335.48828125</ele>
        <time>2013-11-17T09:11:12Z</time>
      </trkpt>
      <trkpt lat="45.62878" lon="5.04252">
        <ele>336.5625</ele>
        <time>2013-11-17T09:11:26Z</time>
      </trkpt>
      <trkpt lat="45.62885" lon="5.04235">
        <ele>337.4140625</ele>
        <time>2013-11-17T09:11:39Z</time>
      </trkpt>
      <trkpt lat="45.62895" lon="5.04214">
        <ele>338.58984375</ele>
        <time>2013-11-17T09:11:54Z</time>
      </trkpt>
      <trkpt lat="45.62902" lon="5.04198">
        <ele>339.828125</ele>
        <time>2013-11-17T09:12:08Z</time>
      </trkpt>
      <trkpt lat="45.62913" lon="5.04184">
        <ele>341.2265625</ele>
        <time>2013-11-17T09:12:22Z</time>
      </trkpt>
      <trkpt lat="45.6292" lon="5.04166">
        <ele>342.19140625</ele>
        <time>2013-11-17T09:12:36Z</time>
      </trkpt>
      <trkpt lat="45.62927" lon="5.04147">
        <ele>343.125</ele>
        <time>2013-11-17T09:12:49Z</time>
      </trkpt>
      <trkpt lat="45.62933" lon="5.0413">
        <ele>343.94921875</ele>
        <time>2013-11-17T09:13:01Z</time>
      </trkpt>
      <trkpt lat="45.62939" lon="5.04113">
        <ele>344.76171875</ele>
        <time>2013-11-17T09:13:13Z</time>
      </trkpt>
      <trkpt lat="45.62939" lon="5.0411">
        <ele>344.86328125</ele>
        <time>2013-11-17T09:13:15Z</time>
      </trkpt>
      <trkpt lat="45.62949" lon="5.04088">
        <ele>345.44921875</ele>
        <time>2013-11-17T09:13:32Z</time>
      </trkpt>
      <trkpt lat="45.62959" lon="5.04071">
        <ele>346.359375</ele>
        <time>2013-11-17T09:13:45Z</time>
      </trkpt>
      <trkpt lat="45.62961" lon="5.04066">
        <ele>346.53515625</ele>
        <time>2013-11-17T09:13:49Z</time>
      </trkpt>
      <trkpt lat="45.62962" lon="5.04063">
        <ele>346.6171875</ele>
        <time>2013-11-17T09:13:51Z</time>
      </trkpt>
      <trkpt lat="45.62965" lon="5.0406">
        <ele>346.79296875</ele>
        <time>2013-11-17T09:13:54Z</time>
      </trkpt>
      <trkpt lat="45.62967" lon="5.04058">
        <ele>346.88671875</ele>
        <time>2013-11-17T09:13:56Z</time>
      </trkpt>
      <trkpt lat="45.62976" lon="5.04044">
        <ele>347.0859375</ele>
        <time>2013-11-17T09:14:11Z</time>
      </trkpt>
      <trkpt lat="45.62984" lon="5.04028">
        <ele>347.484375</ele>
        <time>2013-11-17T09:14:23Z</time>
      </trkpt>
      <trkpt lat="45.62998" lon="5.04008">
        <ele>347.3359375</ele>
        <time>2013-11-17T09:14:38Z</time>
      </trkpt>
      <trkpt lat="45.63002" lon="5.04">
        <ele>347.0546875</ele>
        <time>2013-11-17T09:14:44Z</time>
      </trkpt>
      <trkpt lat="45.63003" lon="5.03998">
        <ele>346.99609375</ele>
        <time>2013-11-17T09:14:46Z</time>
      </trkpt>
      <trkpt lat="45.6301" lon="5.03977">
        <ele>346.6484375</ele>
        <time>2013-11-17T09:15:00Z</time>
      </trkpt>
      <trkpt lat="45.63011" lon="5.03972">
        <ele>346.546875</ele>
        <time>2013-11-17T09:15:03Z</time>
      </trkpt>
      <trkpt lat="45.63013" lon="5.03964">
        <ele>346.4296875</ele>
        <time>2013-11-17T09:15:09Z</time>
      </trkpt>
      <trkpt lat="45.63019" lon="5.03948">
        <ele>346.23046875</ele>
        <time>2013-11-17T09:15:20Z</time>
      </trkpt>
      <trkpt lat="45.63022" lon="5.03933">
        <ele>346.0703125</ele>
        <time>2013-11-17T09:15:30Z</time>
      </trkpt>
      <trkpt lat="45.63019" lon="5.03921">
        <ele>346.046875</ele>
        <time>2013-11-17T09:15:39Z</time>
      </trkpt>
      <trkpt lat="45.6301" lon="5.03902">
        <ele>345.0234375</ele>
        <time>2013-11-17T09:15:53Z</time>
      </trkpt>
      <trkpt lat="45.63001" lon="5.03888">
        <ele>344.03515625</ele>
        <time>2013-11-17T09:16:05Z</time>
      </trkpt>
      <trkpt lat="45.62989" lon="5.03873">
        <ele>342.9765625</ele>
        <time>2013-11-17T09:16:17Z</time>
      </trkpt>
      <trkpt lat="45.62974" lon="5.03862">
        <ele>342.18359375</ele>
        <time>2013-11-17T09:16:31Z</time>
      </trkpt>
      <trkpt lat="45.62959" lon="5.03851">
        <ele>340.953125</ele>
        <time>2013-11-17T09:16:46Z</time>
      </trkpt>
      <trkpt lat="45.62947" lon="5.03846">
        <ele>340.16796875</ele>
        <time>2013-11-17T09:16:57Z</time>
      </trkpt>
      <trkpt lat="45.62929" lon="5.03841">
        <ele>339.05859375</ele>
        <time>2013-11-17T09:17:13Z</time>
      </trkpt>
      <trkpt lat="45.6292" lon="5.03832">
        <ele>338.1953125</ele>
        <time>2013-11-17T09:17:25Z</time>
      </trkpt>
      <trkpt lat="45.62919" lon="5.03825">
        <ele>337.65234375</ele>
        <time>2013-11-17T09:17:30Z</time>
      </trkpt>
      <trkpt lat="45.62923" lon="5.03807">
        <ele>336.49609375</ele>
        <time>2013-11-17T09:17:41Z</time>
      </trkpt>
      <trkpt lat="45.62927" lon="5.03802">
        <ele>336.375</ele>
        <time>2013-11-17T09:17:45Z</time>
      </trkpt>
      <trkpt lat="45.62934" lon="5.03788">
        <ele>336.13671875</ele>
        <time>2013-11-17T09:17:56Z</time>
      </trkpt>
      <trkpt lat="45.62946" lon="5.03767">
        <ele>335.40234375</ele>
        <time>2013-11-17T09:18:12Z</time>
      </trkpt>
      <trkpt lat="45.62955" lon="5.03745">
        <ele>334.2890625</ele>
        <time>2013-11-17T09:18:28Z</time>
      </trkpt>
      <trkpt lat="45.62967" lon="5.03728">
        <ele>333.4609375</ele>
        <time>2013-11-17T09:18:41Z</time>
      </trkpt>
      <trkpt lat="45.62977" lon="5.03708">
        <ele>332.43359375</ele>
        <time>2013-11-17T09:18:57Z</time>
      </trkpt>
      <trkpt lat="45.62982" lon="5.03699">
        <ele>331.90625</ele>
        <time>2013-11-17T09:19:04Z</time>
      </trkpt>
      <trkpt lat="45.62984" lon="5.03695">
        <ele>331.58984375</ele>
        <time>2013-11-17T09:19:08Z</time>
      </trkpt>
      <trkpt lat="45.62987" lon="5.03687">
        <ele>330.94140625</ele>
        <time>2013-11-17T09:19:14Z</time>
      </trkpt>
      <trkpt lat="45.62996" lon="5.03668">
        <ele>329.203125</ele>
        <time>2013-11-17T09:19:28Z</time>
      </trkpt>
      <trkpt lat="45.62998" lon="5.03665">
        <ele>328.94921875</ele>
        <time>2013-11-17T09:19:30Z</time>
      </trkpt>
      <trkpt lat="45.63011" lon="5.03639">
        <ele>326.6171875</ele>
        <time>2013-11-17T09:19:47Z</time>
      </trkpt>
      <trkpt lat="45.63024" lon="5.03641">
        <ele>326.30078125</ele>
        <time>2013-11-17T09:20:01Z</time>
      </trkpt>
      <trkpt lat="45.63024" lon="5.03642">
        <ele>326.34375</ele>
        <time>2013-11-17T09:20:02Z</time>
      </trkpt>
      <trkpt lat="45.63038" lon="5.03653">
        <ele>326.23828125</ele>
        <time>2013-11-17T09:20:17Z</time>
      </trkpt>
      <trkpt lat="45.6305" lon="5.03659">
        <ele>325.78125</ele>
        <time>2013-11-17T09:20:31Z</time>
      </trkpt>
      <trkpt lat="45.63065" lon="5.03671">
        <ele>325.59765625</ele>
        <time>2013-11-17T09:20:47Z</time>
      </trkpt>
      <trkpt lat="45.63076" lon="5.03687">
        <ele>325.90625</ele>
        <time>2013-11-17T09:21:01Z</time>
      </trkpt>
      <trkpt lat="45.6309" lon="5.0371">
        <ele>326.203125</ele>
        <time>2013-11-17T09:21:17Z</time>
      </trkpt>
      <trkpt lat="45.63099" lon="5.03726">
        <ele>326.53125</ele>
        <time>2013-11-17T09:21:30Z</time>
      </trkpt>
      <trkpt lat="45.6311" lon="5.03741">
        <ele>327.07421875</ele>
        <time>2013-11-17T09:21:43Z</time>
      </trkpt>
      <trkpt lat="45.63121" lon="5.03755">
        <ele>327.578125</ele>
        <time>2013-11-17T09:21:56Z</time>
      </trkpt>
      <trkpt lat="45.63128" lon="5.03764">
        <ele>327.7421875</ele>
        <time>2013-11-17T09:22:04Z</time>
      </trkpt>
      <trkpt lat="45.6314" lon="5.03778">
        <ele>327.82421875</ele>
        <time>2013-11-17T09:22:18Z</time>
      </trkpt>
      <trkpt lat="45.63142" lon="5.03781">
        <ele>327.8984375</ele>
        <time>2013-11-17T09:22:21Z</time>
      </trkpt>
      <trkpt lat="45.63153" lon="5.0379">
        <ele>327.75390625</ele>
        <time>2013-11-17T09:22:32Z</time>
      </trkpt>
      <trkpt lat="45.63162" lon="5.038">
        <ele>327.85546875</ele>
        <time>2013-11-17T09:22:44Z</time>
      </trkpt>
      <trkpt lat="45.6317" lon="5.0381">
        <ele>327.33984375</ele>
        <time>2013-11-17T09:22:56Z</time>
      </trkpt>
      <trkpt lat="45.63179" lon="5.03823">
        <ele>326.48046875</ele>
        <time>2013-11-17T09:23:07Z</time>
      </trkpt>
      <trkpt lat="45.6319" lon="5.03841">
        <ele>325.9140625</ele>
        <time>2013-11-17T09:23:22Z</time>
      </trkpt>
      <trkpt lat="45.63202" lon="5.03857">
        <ele>325.39453125</ele>
        <time>2013-11-17T09:23:37Z</time>
      </trkpt>
      <trkpt lat="45.63206" lon="5.03866">
        <ele>325.265625</ele>
        <time>2013-11-17T09:23:45Z</time>
      </trkpt>
      <trkpt lat="45.63223" lon="5.03872">
        <ele>323.46484375</ele>
        <time>2013-11-17T09:24:02Z</time>
      </trkpt>
      <trkpt lat="45.63239" lon="5.03876">
        <ele>322.109375</ele>
        <time>2013-11-17T09:24:15Z</time>
      </trkpt>
      <trkpt lat="45.63241" lon="5.03879">
        <ele>322.1171875</ele>
        <time>2013-11-17T09:24:18Z</time>
      </trkpt>
      <trkpt lat="45.63245" lon="5.03886">
        <ele>322.22265625</ele>
        <time>2013-11-17T09:24:25Z</time>
      </trkpt>
      <trkpt lat="45.63256" lon="5.03882">
        <ele>321.12890625</ele>
        <time>2013-11-17T09:24:37Z</time>
      </trkpt>
      <trkpt lat="45.63265" lon="5.03878">
        <ele>320.5078125</ele>
        <time>2013-11-17T09:24:46Z</time>
      </trkpt>
      <trkpt lat="45.6327" lon="5.03868">
        <ele>320.10546875</ele>
        <time>2013-11-17T09:24:59Z</time>
      </trkpt>
      <trkpt lat="45.63278" lon="5.0386">
        <ele>319.76953125</ele>
        <time>2013-11-17T09:25:10Z</time>
      </trkpt>
      <trkpt lat="45.63287" lon="5.03845">
        <ele>319.08203125</ele>
        <time>2013-11-17T09:25:24Z</time>
      </trkpt>
      <trkpt lat="45.63292" lon="5.03828">
        <ele>318.79296875</ele>
        <time>2013-11-17T09:25:37Z</time>
      </trkpt>
      <trkpt lat="45.633" lon="5.03813">
        <ele>318.234375</ele>
        <time>2013-11-17T09:25:51Z</time>
      </trkpt>
      <trkpt lat="45.63309" lon="5.038">
        <ele>318.5390625</ele>
        <time>2013-11-17T09:26:05Z</time>
      </trkpt>
      <trkpt lat="45.63318" lon="5.03792">
        <ele>319.4765625</ele>
        <time>2013-11-17T09:26:17Z</time>
      </trkpt>
      <trkpt lat="45.63331" lon="5.03788">
        <ele>321</ele>
        <time>2013-11-17T09:26:33Z</time>
      </trkpt>
      <trkpt lat="45.63341" lon="5.0378">
        <ele>321.2734375</ele>
        <time>2013-11-17T09:26:47Z</time>
      </trkpt>
      <trkpt lat="45.63353" lon="5.03773">
        <ele>321.79296875</ele>
        <time>2013-11-17T09:27:02Z</time>
      </trkpt>
      <trkpt lat="45.63367" lon="5.03765">
        <ele>321.9453125</ele>
        <time>2013-11-17T09:27:17Z</time>
      </trkpt>
      <trkpt lat="45.6338" lon="5.03757">
        <ele>322.28125</ele>
        <time>2013-11-17T09:27:30Z</time>
      </trkpt>
      <trkpt lat="45.63392" lon="5.03752">
        <ele>322.171875</ele>
        <time>2013-11-17T09:27:41Z</time>
      </trkpt>
      <trkpt lat="45.63406" lon="5.03741">
        <ele>320.7421875</ele>
        <time>2013-11-17T09:27:55Z</time>
      </trkpt>
      <trkpt lat="45.63422" lon="5.03731">
        <ele>319.23046875</ele>
        <time>2013-11-17T09:28:08Z</time>
      </trkpt>
      <trkpt lat="45.63437" lon="5.03719">
        <ele>318.375</ele>
        <time>2013-11-17T09:28:22Z</time>
      </trkpt>
      <trkpt lat="45.63449" lon="5.03699">
        <ele>317.515625</ele>
        <time>2013-11-17T09:28:38Z</time>
      </trkpt>
      <trkpt lat="45.63455" lon="5.0369">
        <ele>317.35546875</ele>
        <time>2013-11-17T09:28:47Z</time>
      </trkpt>
      <trkpt lat="45.63469" lon="5.03678">
        <ele>316.4765625</ele>
        <time>2013-11-17T09:29:02Z</time>
      </trkpt>
      <trkpt lat="45.63481" lon="5.03669">
        <ele>314.80859375</ele>
        <time>2013-11-17T09:29:17Z</time>
      </trkpt>
      <trkpt lat="45.63483" lon="5.03667">
        <ele>314.5703125</ele>
        <time>2013-11-17T09:29:19Z</time>
      </trkpt>
      <trkpt lat="45.63486" lon="5.03664">
        <ele>314.19921875</ele>
        <time>2013-11-17T09:29:22Z</time>
      </trkpt>
      <trkpt lat="45.63502" lon="5.03649">
        <ele>312.6171875</ele>
        <time>2013-11-17T09:29:38Z</time>
      </trkpt>
      <trkpt lat="45.63514" lon="5.03637">
        <ele>312.3671875</ele>
        <time>2013-11-17T09:29:51Z</time>
      </trkpt>
      <trkpt lat="45.63527" lon="5.03631">
        <ele>311.07421875</ele>
        <time>2013-11-17T09:30:05Z</time>
      </trkpt>
      <trkpt lat="45.63539" lon="5.03626">
        <ele>309.1875</ele>
        <time>2013-11-17T09:30:20Z</time>
      </trkpt>
      <trkpt lat="45.63546" lon="5.03621">
        <ele>308.12109375</ele>
        <time>2013-11-17T09:30:36Z</time>
      </trkpt>
      <trkpt lat="45.63554" lon="5.03614">
        <ele>307.0234375</ele>
        <time>2013-11-17T09:30:51Z</time>
      </trkpt>
      <trkpt lat="45.63564" lon="5.03605">
        <ele>305.32421875</ele>
        <time>2013-11-17T09:31:09Z</time>
      </trkpt>
      <trkpt lat="45.63576" lon="5.03597">
        <ele>303.55859375</ele>
        <time>2013-11-17T09:31:23Z</time>
      </trkpt>
      <trkpt lat="45.63585" lon="5.03595">
        <ele>302.11328125</ele>
        <time>2013-11-17T09:31:38Z</time>
      </trkpt>
      <trkpt lat="45.63593" lon="5.03593">
        <ele>300.6875</ele>
        <time>2013-11-17T09:31:51Z</time>
      </trkpt>
      <trkpt lat="45.63601" lon="5.0359">
        <ele>299.171875</ele>
        <time>2013-11-17T09:32:05Z</time>
      </trkpt>
      <trkpt lat="45.63615" lon="5.03586">
        <ele>296.77734375</ele>
        <time>2013-11-17T09:32:20Z</time>
      </trkpt>
      <trkpt lat="45.63619" lon="5.03579">
        <ele>295.984375</ele>
        <time>2013-11-17T09:32:32Z</time>
      </trkpt>
      <trkpt lat="45.63625" lon="5.03571">
        <ele>294.44140625</ele>
        <time>2013-11-17T09:32:45Z</time>
      </trkpt>
      <trkpt lat="45.63635" lon="5.03563">
        <ele>292.40234375</ele>
        <time>2013-11-17T09:33:02Z</time>
      </trkpt>
      <trkpt lat="45.63647" lon="5.03557">
        <ele>289.6171875</ele>
        <time>2013-11-17T09:33:17Z</time>
      </trkpt>
      <trkpt lat="45.63659" lon="5.03552">
        <ele>286.8984375</ele>
        <time>2013-11-17T09:33:33Z</time>
      </trkpt>
      <trkpt lat="45.63671" lon="5.03548">
        <ele>284.484375</ele>
        <time>2013-11-17T09:33:48Z</time>
      </trkpt>
      <trkpt lat="45.63681" lon="5.0354">
        <ele>282.34375</ele>
        <time>2013-11-17T09:34:00Z</time>
      </trkpt>
      <trkpt lat="45.63694" lon="5.03531">
        <ele>279.73828125</ele>
        <time>2013-11-17T09:34:15Z</time>
      </trkpt>
      <trkpt lat="45.637" lon="5.03527">
        <ele>278.80078125</ele>
        <time>2013-11-17T09:34:20Z</time>
      </trkpt>
      <trkpt lat="45.63706" lon="5.03521">
        <ele>277.7109375</ele>
        <time>2013-11-17T09:34:27Z</time>
      </trkpt>
      <trkpt lat="45.6372" lon="5.03516">
        <ele>275.6015625</ele>
        <time>2013-11-17T09:34:41Z</time>
      </trkpt>
      <trkpt lat="45.63729" lon="5.03505">
        <ele>274.07421875</ele>
        <time>2013-11-17T09:34:53Z</time>
      </trkpt>
      <trkpt lat="45.63732" lon="5.03506">
        <ele>273.7109375</ele>
        <time>2013-11-17T09:34:56Z</time>
      </trkpt>
      <trkpt lat="45.63747" lon="5.03513">
        <ele>272.01171875</ele>
        <time>2013-11-17T09:35:11Z</time>
      </trkpt>
      <trkpt lat="45.63749" lon="5.03513">
        <ele>271.80078125</ele>
        <time>2013-11-17T09:35:13Z</time>
      </trkpt>
      <trkpt lat="45.63763" lon="5.03506">
        <ele>270.27734375</ele>
        <time>2013-11-17T09:35:29Z</time>
      </trkpt>
      <trkpt lat="45.63764" lon="5.03501">
        <ele>270.1328125</ele>
        <time>2013-11-17T09:35:33Z</time>
      </trkpt>
      <trkpt lat="45.63769" lon="5.03476">
        <ele>269.484375</ele>
        <time>2013-11-17T09:35:47Z</time>
      </trkpt>
      <trkpt lat="45.63771" lon="5.03447">
        <ele>269.1484375</ele>
        <time>2013-11-17T09:36:02Z</time>
      </trkpt>
      <trkpt lat="45.63771" lon="5.03445">
        <ele>269.1484375</ele>
        <time>2013-11-17T09:36:03Z</time>
      </trkpt>
      <trkpt lat="45.63774" lon="5.03431">
        <ele>269.04296875</ele>
        <time>2013-11-17T09:36:12Z</time>
      </trkpt>
      <trkpt lat="45.63777" lon="5.03408">
        <ele>269.265625</ele>
        <time>2013-11-17T09:36:25Z</time>
      </trkpt>
      <trkpt lat="45.63775" lon="5.0339">
        <ele>269.9296875</ele>
        <time>2013-11-17T09:36:37Z</time>
      </trkpt>
      <trkpt lat="45.63775" lon="5.0337">
        <ele>270.64453125</ele>
        <time>2013-11-17T09:36:49Z</time>
      </trkpt>
      <trkpt lat="45.63774" lon="5.03365">
        <ele>270.8046875</ele>
        <time>2013-11-17T09:36:52Z</time>
      </trkpt>
      <trkpt lat="45.63774" lon="5.03363">
        <ele>270.90234375</ele>
        <time>2013-11-17T09:36:54Z</time>
      </trkpt>
      <trkpt lat="45.6377" lon="5.03339">
        <ele>272.53125</ele>
        <time>2013-11-17T09:37:10Z</time>
      </trkpt>
      <trkpt lat="45.6377" lon="5.03328">
        <ele>273.37109375</ele>
        <time>2013-11-17T09:37:17Z</time>
      </trkpt>
      <trkpt lat="45.63765" lon="5.03311">
        <ele>274.83984375</ele>
        <time>2013-11-17T09:37:29Z</time>
      </trkpt>
      <trkpt lat="45.63757" lon="5.03291">
        <ele>276.578125</ele>
        <time>2013-11-17T09:37:44Z</time>
      </trkpt>
      <trkpt lat="45.63756" lon="5.0329">
        <ele>276.71875</ele>
        <time>2013-11-17T09:37:45Z</time>
      </trkpt>
      <trkpt lat="45.63739" lon="5.03276">
        <ele>278.63671875</ele>
        <time>2013-11-17T09:37:59Z</time>
      </trkpt>
      <trkpt lat="45.63727" lon="5.03268">
        <ele>280.40625</ele>
        <time>2013-11-17T09:38:13Z</time>
      </trkpt>
      <trkpt lat="45.63721" lon="5.0326">
        <ele>281.64453125</ele>
        <time>2013-11-17T09:38:22Z</time>
      </trkpt>
      <trkpt lat="45.63719" lon="5.03257">
        <ele>282.09375</ele>
        <time>2013-11-17T09:38:25Z</time>
      </trkpt>
      <trkpt lat="45.6371" lon="5.03241">
        <ele>284.1953125</ele>
        <time>2013-11-17T09:38:38Z</time>
      </trkpt>
      <trkpt lat="45.63701" lon="5.03229">
        <ele>285.859375</ele>
        <time>2013-11-17T09:38:51Z</time>
      </trkpt>
      <trkpt lat="45.63693" lon="5.0322">
        <ele>287.125</ele>
        <time>2013-11-17T09:39:03Z</time>
      </trkpt>
      <trkpt lat="45.63677" lon="5.03205">
        <ele>288.7578125</ele>
        <time>2013-11-17T09:39:19Z</time>
      </trkpt>
      <trkpt lat="45.63664" lon="5.03199">
        <ele>289.22265625</ele>
        <time>2013-11-17T09:39:33Z</time>
      </trkpt>
      <trkpt lat="45.63651" lon="5.03191">
        <ele>289.48828125</ele>
        <time>2013-11-17T09:39:44Z</time>
      </trkpt>
      <trkpt lat="45.63644" lon="5.03185">
        <ele>289.6875</ele>
        <time>2013-11-17T09:39:53Z</time>
      </trkpt>
      <trkpt lat="45.63632" lon="5.03174">
        <ele>289.703125</ele>
        <time>2013-11-17T09:40:06Z</time>
      </trkpt>
      <trkpt lat="45.63629" lon="5.0317">
        <ele>289.78125</ele>
        <time>2013-11-17T09:40:10Z</time>
      </trkpt>
      <trkpt lat="45.6362" lon="5.03149">
        <ele>291.32421875</ele>
        <time>2013-11-17T09:40:26Z</time>
      </trkpt>
      <trkpt lat="45.63613" lon="5.03131">
        <ele>292.35546875</ele>
        <time>2013-11-17T09:40:39Z</time>
      </trkpt>
      <trkpt lat="45.63608" lon="5.03113">
        <ele>293.546875</ele>
        <time>2013-11-17T09:40:54Z</time>
      </trkpt>
      <trkpt lat="45.63601" lon="5.03098">
        <ele>294.46875</ele>
        <time>2013-11-17T09:41:06Z</time>
      </trkpt>
      <trkpt lat="45.63597" lon="5.03082">
        <ele>295.98828125</ele>
        <time>2013-11-17T09:41:19Z</time>
      </trkpt>
      <trkpt lat="45.63594" lon="5.0307">
        <ele>296.92578125</ele>
        <time>2013-11-17T09:41:28Z</time>
      </trkpt>
      <trkpt lat="45.63589" lon="5.0305">
        <ele>298.45703125</ele>
        <time>2013-11-17T09:41:41Z</time>
      </trkpt>
      <trkpt lat="45.63587" lon="5.03036">
        <ele>300.0625</ele>
        <time>2013-11-17T09:41:49Z</time>
      </trkpt>
      <trkpt lat="45.63584" lon="5.03027">
        <ele>300.765625</ele>
        <time>2013-11-17T09:41:55Z</time>
      </trkpt>
      <trkpt lat="45.63583" lon="5.03014">
        <ele>301.84375</ele>
        <time>2013-11-17T09:42:05Z</time>
      </trkpt>
      <trkpt lat="45.6358" lon="5.03008">
        <ele>302.015625</ele>
        <time>2013-11-17T09:42:09Z</time>
      </trkpt>
      <trkpt lat="45.63581" lon="5.02995">
        <ele>303.421875</ele>
        <time>2013-11-17T09:42:17Z</time>
      </trkpt>
      <trkpt lat="45.63585" lon="5.0298">
        <ele>305.4609375</ele>
        <time>2013-11-17T09:42:29Z</time>
      </trkpt>
      <trkpt lat="45.63588" lon="5.02965">
        <ele>307.44921875</ele>
        <time>2013-11-17T09:42:40Z</time>
      </trkpt>
      <trkpt lat="45.63588" lon="5.0295">
        <ele>309.01171875</ele>
        <time>2013-11-17T09:42:51Z</time>
      </trkpt>
      <trkpt lat="45.63587" lon="5.02935">
        <ele>310.203125</ele>
        <time>2013-11-17T09:43:04Z</time>
      </trkpt>
      <trkpt lat="45.63587" lon="5.02921">
        <ele>311.7109375</ele>
        <time>2013-11-17T09:43:16Z</time>
      </trkpt>
      <trkpt lat="45.63586" lon="5.02914">
        <ele>312.15625</ele>
        <time>2013-11-17T09:43:21Z</time>
      </trkpt>
      <trkpt lat="45.63584" lon="5.02896">
        <ele>313.6640625</ele>
        <time>2013-11-17T09:43:34Z</time>
      </trkpt>
      <trkpt lat="45.63584" lon="5.02892">
        <ele>314.140625</ele>
        <time>2013-11-17T09:43:37Z</time>
      </trkpt>
      <trkpt lat="45.63587" lon="5.02872">
        <ele>316.58984375</ele>
        <time>2013-11-17T09:43:51Z</time>
      </trkpt>
      <trkpt lat="45.63586" lon="5.02864">
        <ele>317.3125</ele>
        <time>2013-11-17T09:43:57Z</time>
      </trkpt>
      <trkpt lat="45.63587" lon="5.02842">
        <ele>319.5390625</ele>
        <time>2013-11-17T09:44:11Z</time>
      </trkpt>
      <trkpt lat="45.63585" lon="5.02825">
        <ele>321.08984375</ele>
        <time>2013-11-17T09:44:23Z</time>
      </trkpt>
      <trkpt lat="45.63584" lon="5.02821">
        <ele>321.34375</ele>
        <time>2013-11-17T09:44:26Z</time>
      </trkpt>
      <trkpt lat="45.6358" lon="5.02815">
        <ele>321.83984375</ele>
        <time>2013-11-17T09:44:30Z</time>
      </trkpt>
      <trkpt lat="45.63568" lon="5.02804">
        <ele>322.5859375</ele>
        <time>2013-11-17T09:44:41Z</time>
      </trkpt>
      <trkpt lat="45.63565" lon="5.028">
        <ele>322.69140625</ele>
        <time>2013-11-17T09:44:44Z</time>
      </trkpt>
      <trkpt lat="45.63553" lon="5.02788">
        <ele>323.21875</ele>
        <time>2013-11-17T09:44:58Z</time>
      </trkpt>
      <trkpt lat="45.63539" lon="5.02776">
        <ele>324.01953125</ele>
        <time>2013-11-17T09:45:11Z</time>
      </trkpt>
      <trkpt lat="45.63525" lon="5.02765">
        <ele>324.43359375</ele>
        <time>2013-11-17T09:45:24Z</time>
      </trkpt>
      <trkpt lat="45.63515" lon="5.02754">
        <ele>324.390625</ele>
        <time>2013-11-17T09:45:36Z</time>
      </trkpt>
      <trkpt lat="45.63502" lon="5.02743">
        <ele>324.30078125</ele>
        <time>2013-11-17T09:45:48Z</time>
      </trkpt>
      <trkpt lat="45.63487" lon="5.02731">
        <ele>324.66015625</ele>
        <time>2013-11-17T09:46:02Z</time>
      </trkpt>
      <trkpt lat="45.63486" lon="5.0273">
        <ele>324.703125</ele>
        <time>2013-11-17T09:46:03Z</time>
      </trkpt>
      <trkpt lat="45.63471" lon="5.02718">
        <ele>325.21484375</ele>
        <time>2013-11-17T09:46:18Z</time>
      </trkpt>
      <trkpt lat="45.63462" lon="5.02706">
        <ele>326.36328125</ele>
        <time>2013-11-17T09:46:29Z</time>
      </trkpt>
      <trkpt lat="45.63455" lon="5.02691">
        <ele>327.515625</ele>
        <time>2013-11-17T09:46:41Z</time>
      </trkpt>
      <trkpt lat="45.6345" lon="5.02674">
        <ele>327.703125</ele>
        <time>2013-11-17T09:46:53Z</time>
      </trkpt>
      <trkpt lat="45.63446" lon="5.02666">
        <ele>327.84375</ele>
        <time>2013-11-17T09:47:00Z</time>
      </trkpt>
      <trkpt lat="45.63435" lon="5.02647">
        <ele>328.421875</ele>
        <time>2013-11-17T09:47:15Z</time>
      </trkpt>
      <trkpt lat="45.63427" lon="5.02636">
        <ele>328.99609375</ele>
        <time>2013-11-17T09:47:25Z</time>
      </trkpt>
      <trkpt lat="45.63418" lon="5.0262">
        <ele>329.5703125</ele>
        <time>2013-11-17T09:47:38Z</time>
      </trkpt>
      <trkpt lat="45.63418" lon="5.02614">
        <ele>329.625</ele>
        <time>2013-11-17T09:47:42Z</time>
      </trkpt>
      <trkpt lat="45.63419" lon="5.02591">
        <ele>329.59375</ele>
        <time>2013-11-17T09:47:56Z</time>
      </trkpt>
      <trkpt lat="45.63421" lon="5.02566">
        <ele>329.0390625</ele>
        <time>2013-11-17T09:48:10Z</time>
      </trkpt>
      <trkpt lat="45.63419" lon="5.02548">
        <ele>329.078125</ele>
        <time>2013-11-17T09:48:22Z</time>
      </trkpt>
      <trkpt lat="45.63415" lon="5.02529">
        <ele>329.8984375</ele>
        <time>2013-11-17T09:48:34Z</time>
      </trkpt>
      <trkpt lat="45.63413" lon="5.02525">
        <ele>330.16796875</ele>
        <time>2013-11-17T09:48:37Z</time>
      </trkpt>
      <trkpt lat="45.63403" lon="5.02504">
        <ele>331.27734375</ele>
        <time>2013-11-17T09:48:51Z</time>
      </trkpt>
      <trkpt lat="45.63403" lon="5.02503">
        <ele>331.33203125</ele>
        <time>2013-11-17T09:48:52Z</time>
      </trkpt>
      <trkpt lat="45.63396" lon="5.02484">
        <ele>332.38671875</ele>
        <time>2013-11-17T09:49:05Z</time>
      </trkpt>
      <trkpt lat="45.63393" lon="5.02466">
        <ele>333.21875</ele>
        <time>2013-11-17T09:49:17Z</time>
      </trkpt>
      <trkpt lat="45.6339" lon="5.02457">
        <ele>333.54296875</ele>
        <time>2013-11-17T09:49:23Z</time>
      </trkpt>
      <trkpt lat="45.63381" lon="5.02452">
        <ele>333.94921875</ele>
        <time>2013-11-17T09:49:31Z</time>
      </trkpt>
      <trkpt lat="45.63365" lon="5.0245">
        <ele>334.7265625</ele>
        <time>2013-11-17T09:49:45Z</time>
      </trkpt>
      <trkpt lat="45.63363" lon="5.0245">
        <ele>334.79296875</ele>
        <time>2013-11-17T09:49:46Z</time>
      </trkpt>
      <trkpt lat="45.63359" lon="5.0245">
        <ele>334.98046875</ele>
        <time>2013-11-17T09:49:49Z</time>
      </trkpt>
      <trkpt lat="45.63343" lon="5.02452">
        <ele>335.55078125</ele>
        <time>2013-11-17T09:50:03Z</time>
      </trkpt>
      <trkpt lat="45.63327" lon="5.02452">
        <ele>336.2578125</ele>
        <time>2013-11-17T09:50:18Z</time>
      </trkpt>
      <trkpt lat="45.63311" lon="5.02452">
        <ele>337.21484375</ele>
        <time>2013-11-17T09:50:32Z</time>
      </trkpt>
      <trkpt lat="45.63297" lon="5.02451">
        <ele>337.9765625</ele>
        <time>2013-11-17T09:50:44Z</time>
      </trkpt>
      <trkpt lat="45.63284" lon="5.02451">
        <ele>338.4453125</ele>
        <time>2013-11-17T09:50:57Z</time>
      </trkpt>
      <trkpt lat="45.6327" lon="5.02451">
        <ele>338.78515625</ele>
        <time>2013-11-17T09:51:10Z</time>
      </trkpt>
      <trkpt lat="45.63254" lon="5.02451">
        <ele>338.94140625</ele>
        <time>2013-11-17T09:51:24Z</time>
      </trkpt>
      <trkpt lat="45.63239" lon="5.02452">
        <ele>338.91015625</ele>
        <time>2013-11-17T09:51:36Z</time>
      </trkpt>
      <trkpt lat="45.63225" lon="5.0245">
        <ele>338.8125</ele>
        <time>2013-11-17T09:51:49Z</time>
      </trkpt>
      <trkpt lat="45.63213" lon="5.02452">
        <ele>338.5390625</ele>
        <time>2013-11-17T09:52:00Z</time>
      </trkpt>
      <trkpt lat="45.63206" lon="5.02451">
        <ele>338.37890625</ele>
        <time>2013-11-17T09:52:06Z</time>
      </trkpt>
      <trkpt lat="45.63189" lon="5.02452">
        <ele>337.88671875</ele>
        <time>2013-11-17T09:52:20Z</time>
      </trkpt>
      <trkpt lat="45.63176" lon="5.02452">
        <ele>337.24609375</ele>
        <time>2013-11-17T09:52:32Z</time>
      </trkpt>
      <trkpt lat="45.63165" lon="5.02452">
        <ele>336.71875</ele>
        <time>2013-11-17T09:52:41Z</time>
      </trkpt>
      <trkpt lat="45.6315" lon="5.02455">
        <ele>335.76171875</ele>
        <time>2013-11-17T09:52:55Z</time>
      </trkpt>
      <trkpt lat="45.63131" lon="5.02453">
        <ele>334.81640625</ele>
        <time>2013-11-17T09:53:09Z</time>
      </trkpt>
      <trkpt lat="45.63111" lon="5.02452">
        <ele>334.0859375</ele>
        <time>2013-11-17T09:53:24Z</time>
      </trkpt>
      <trkpt lat="45.63096" lon="5.02452">
        <ele>333.1015625</ele>
        <time>2013-11-17T09:53:36Z</time>
      </trkpt>
      <trkpt lat="45.63082" lon="5.02454">
        <ele>332.05078125</ele>
        <time>2013-11-17T09:53:49Z</time>
      </trkpt>
      <trkpt lat="45.63066" lon="5.02453">
        <ele>331.47265625</ele>
        <time>2013-11-17T09:54:02Z</time>
      </trkpt>
      <trkpt lat="45.63059" lon="5.02454">
        <ele>331.19921875</ele>
        <time>2013-11-17T09:54:08Z</time>
      </trkpt>
      <trkpt lat="45.63041" lon="5.02453">
        <ele>329.6953125</ele>
        <time>2013-11-17T09:54:23Z</time>
      </trkpt>
      <trkpt lat="45.63025" lon="5.02454">
        <ele>327.9375</ele>
        <time>2013-11-17T09:54:38Z</time>
      </trkpt>
      <trkpt lat="45.63009" lon="5.02453">
        <ele>325.66015625</ele>
        <time>2013-11-17T09:54:51Z</time>
      </trkpt>
      <trkpt lat="45.62992" lon="5.02453">
        <ele>323.13671875</ele>
        <time>2013-11-17T09:55:06Z</time>
      </trkpt>
      <trkpt lat="45.62987" lon="5.02455">
        <ele>322.40625</ele>
        <time>2013-11-17T09:55:11Z</time>
      </trkpt>
      <trkpt lat="45.62976" lon="5.02461">
        <ele>320.93359375</ele>
        <time>2013-11-17T09:55:21Z</time>
      </trkpt>
      <trkpt lat="45.62968" lon="5.02481">
        <ele>319.94140625</ele>
        <time>2013-11-17T09:55:36Z</time>
      </trkpt>
      <trkpt lat="45.62962" lon="5.02495">
        <ele>319.15234375</ele>
        <time>2013-11-17T09:55:48Z</time>
      </trkpt>
      <trkpt lat="45.62954" lon="5.02504">
        <ele>317.44140625</ele>
        <time>2013-11-17T09:55:59Z</time>
      </trkpt>
      <trkpt lat="45.62938" lon="5.02504">
        <ele>314.2109375</ele>
        <time>2013-11-17T09:56:14Z</time>
      </trkpt>
      <trkpt lat="45.62926" lon="5.025">
        <ele>311.5390625</ele>
        <time>2013-11-17T09:56:28Z</time>
      </trkpt>
      <trkpt lat="45.62915" lon="5.02496">
        <ele>309.05078125</ele>
        <time>2013-11-17T09:56:42Z</time>
      </trkpt>
      <trkpt lat="45.62911" lon="5.02497">
        <ele>308.33203125</ele>
        <time>2013-11-17T09:56:46Z</time>
      </trkpt>
      <trkpt lat="45.62902" lon="5.02514">
        <ele>306.40625</ele>
        <time>2013-11-17T09:57:01Z</time>
      </trkpt>
      <trkpt lat="45.62896" lon="5.02521">
        <ele>304.99609375</ele>
        <time>2013-11-17T09:57:09Z</time>
      </trkpt>
      <trkpt lat="45.62895" lon="5.02524">
        <ele>304.84375</ele>
        <time>2013-11-17T09:57:11Z</time>
      </trkpt>
      <trkpt lat="45.6289" lon="5.0254">
        <ele>303.8359375</ele>
        <time>2013-11-17T09:57:25Z</time>
      </trkpt>
      <trkpt lat="45.62883" lon="5.02532">
        <ele>302.33203125</ele>
        <time>2013-11-17T09:57:38Z</time>
      </trkpt>
      <trkpt lat="45.6288" lon="5.02524">
        <ele>301.60546875</ele>
        <time>2013-11-17T09:57:44Z</time>
      </trkpt>
      <trkpt lat="45.62869" lon="5.0251">
        <ele>298.93359375</ele>
        <time>2013-11-17T09:57:56Z</time>
      </trkpt>
      <trkpt lat="45.6286" lon="5.02504">
        <ele>296.37890625</ele>
        <time>2013-11-17T09:58:06Z</time>
      </trkpt>
      <trkpt lat="45.6285" lon="5.02498">
        <ele>294.0234375</ele>
        <time>2013-11-17T09:58:19Z</time>
      </trkpt>
      <trkpt lat="45.62844" lon="5.0249">
        <ele>292.26953125</ele>
        <time>2013-11-17T09:58:32Z</time>
      </trkpt>
      <trkpt lat="45.62833" lon="5.02481">
        <ele>289.13671875</ele>
        <time>2013-11-17T09:58:45Z</time>
      </trkpt>
      <trkpt lat="45.62821" lon="5.02478">
        <ele>286.6015625</ele>
        <time>2013-11-17T09:58:59Z</time>
      </trkpt>
      <trkpt lat="45.62811" lon="5.02485">
        <ele>285.01171875</ele>
        <time>2013-11-17T09:59:11Z</time>
      </trkpt>
      <trkpt lat="45.62807" lon="5.02489">
        <ele>284.43359375</ele>
        <time>2013-11-17T09:59:15Z</time>
      </trkpt>
      <trkpt lat="45.62797" lon="5.02504">
        <ele>283.296875</ele>
        <time>2013-11-17T09:59:29Z</time>
      </trkpt>
      <trkpt lat="45.62788" lon="5.02521">
        <ele>282.1875</ele>
        <time>2013-11-17T09:59:43Z</time>
      </trkpt>
      <trkpt lat="45.62783" lon="5.02537">
        <ele>281.30078125</ele>
        <time>2013-11-17T09:59:54Z</time>
      </trkpt>
      <trkpt lat="45.6278" lon="5.02548">
        <ele>280.83984375</ele>
        <time>2013-11-17T10:00:05Z</time>
      </trkpt>
      <trkpt lat="45.62777" lon="5.02562">
        <ele>280.49609375</ele>
        <time>2013-11-17T10:00:15Z</time>
      </trkpt>
      <trkpt lat="45.62767" lon="5.02569">
        <ele>280.34765625</ele>
        <time>2013-11-17T10:00:25Z</time>
      </trkpt>
      <trkpt lat="45.6276" lon="5.02559">
        <ele>280.0703125</ele>
        <time>2013-11-17T10:00:39Z</time>
      </trkpt>
      <trkpt lat="45.62762" lon="5.02539">
        <ele>280</ele>
        <time>2013-11-17T10:00:53Z</time>
      </trkpt>
      <trkpt lat="45.62763" lon="5.02531">
        <ele>280</ele>
        <time>2013-11-17T10:00:59Z</time>
      </trkpt>
      <trkpt lat="45.62767" lon="5.02512">
        <ele>280</ele>
        <time>2013-11-17T10:01:13Z</time>
      </trkpt>
      <trkpt lat="45.62763" lon="5.02504">
        <ele>280</ele>
        <time>2013-11-17T10:01:20Z</time>
      </trkpt>
      <trkpt lat="45.62757" lon="5.02494">
        <ele>279.93359375</ele>
        <time>2013-11-17T10:01:30Z</time>
      </trkpt>
      <trkpt lat="45.62754" lon="5.02471">
        <ele>279.77734375</ele>
        <time>2013-11-17T10:01:45Z</time>
      </trkpt>
      <trkpt lat="45.62756" lon="5.02465">
        <ele>279.69921875</ele>
        <time>2013-11-17T10:01:56Z</time>
      </trkpt>
      <trkpt lat="45.62759" lon="5.02459">
        <ele>279.5859375</ele>
        <time>2013-11-17T10:02:07Z</time>
      </trkpt>
      <trkpt lat="45.6276" lon="5.02452">
        <ele>279.54296875</ele>
        <time>2013-11-17T10:02:22Z</time>
      </trkpt>
      <trkpt lat="45.62759" lon="5.02436">
        <ele>279.4609375</ele>
        <time>2013-11-17T10:02:35Z</time>
      </trkpt>
      <trkpt lat="45.62765" lon="5.0243">
        <ele>279.078125</ele>
        <time>2013-11-17T10:02:52Z</time>
      </trkpt>
      <trkpt lat="45.62768" lon="5.02423">
        <ele>278.703125</ele>
        <time>2013-11-17T10:03:09Z</time>
      </trkpt>
      <trkpt lat="45.62773" lon="5.02415">
        <ele>278.1484375</ele>
        <time>2013-11-17T10:03:21Z</time>
      </trkpt>
      <trkpt lat="45.62772" lon="5.02397">
        <ele>278.28515625</ele>
        <time>2013-11-17T10:03:34Z</time>
      </trkpt>
      <trkpt lat="45.62764" lon="5.02387">
        <ele>278.8046875</ele>
        <time>2013-11-17T10:03:45Z</time>
      </trkpt>
      <trkpt lat="45.62762" lon="5.02367">
        <ele>278.9609375</ele>
        <time>2013-11-17T10:04:00Z</time>
      </trkpt>
      <trkpt lat="45.62761" lon="5.02364">
        <ele>279.03125</ele>
        <time>2013-11-17T10:04:02Z</time>
      </trkpt>
      <trkpt lat="45.62757" lon="5.02346">
        <ele>279.3515625</ele>
        <time>2013-11-17T10:04:14Z</time>
      </trkpt>
      <trkpt lat="45.62757" lon="5.02343">
        <ele>279.30078125</ele>
        <time>2013-11-17T10:04:16Z</time>
      </trkpt>
      <trkpt lat="45.62757" lon="5.02322">
        <ele>279.08984375</ele>
        <time>2013-11-17T10:04:29Z</time>
      </trkpt>
      <trkpt lat="45.6275" lon="5.02306">
        <ele>278.94921875</ele>
        <time>2013-11-17T10:04:41Z</time>
      </trkpt>
      <trkpt lat="45.62746" lon="5.02292">
        <ele>279.078125</ele>
        <time>2013-11-17T10:04:51Z</time>
      </trkpt>
      <trkpt lat="45.62744" lon="5.02282">
        <ele>279.140625</ele>
        <time>2013-11-17T10:04:57Z</time>
      </trkpt>
      <trkpt lat="45.62739" lon="5.02262">
        <ele>278.76171875</ele>
        <time>2013-11-17T10:05:10Z</time>
      </trkpt>
      <trkpt lat="45.62738" lon="5.02241">
        <ele>278.12109375</ele>
        <time>2013-11-17T10:05:23Z</time>
      </trkpt>
      <trkpt lat="45.62738" lon="5.02234">
        <ele>277.94921875</ele>
        <time>2013-11-17T10:05:28Z</time>
      </trkpt>
      <trkpt lat="45.62735" lon="5.02225">
        <ele>277.64453125</ele>
        <time>2013-11-17T10:05:34Z</time>
      </trkpt>
      <trkpt lat="45.6273" lon="5.02205">
        <ele>277.57421875</ele>
        <time>2013-11-17T10:05:47Z</time>
      </trkpt>
      <trkpt lat="45.62729" lon="5.02202">
        <ele>277.55859375</ele>
        <time>2013-11-17T10:05:49Z</time>
      </trkpt>
      <trkpt lat="45.62725" lon="5.02194">
        <ele>277.328125</ele>
        <time>2013-11-17T10:05:54Z</time>
      </trkpt>
      <trkpt lat="45.6272" lon="5.0218">
        <ele>276.5</ele>
        <time>2013-11-17T10:06:07Z</time>
      </trkpt>
      <trkpt lat="45.62716" lon="5.0217">
        <ele>276.2734375</ele>
        <time>2013-11-17T10:06:17Z</time>
      </trkpt>
      <trkpt lat="45.62712" lon="5.02156">
        <ele>276.2890625</ele>
        <time>2013-11-17T10:06:25Z</time>
      </trkpt>
      <trkpt lat="45.62708" lon="5.02138">
        <ele>276.44140625</ele>
        <time>2013-11-17T10:06:37Z</time>
      </trkpt>
      <trkpt lat="45.62705" lon="5.02121">
        <ele>276.19921875</ele>
        <time>2013-11-17T10:06:47Z</time>
      </trkpt>
      <trkpt lat="45.62705" lon="5.021">
        <ele>276</ele>
        <time>2013-11-17T10:07:01Z</time>
      </trkpt>
      <trkpt lat="45.62703" lon="5.0208">
        <ele>275.94921875</ele>
        <time>2013-11-17T10:07:15Z</time>
      </trkpt>
      <trkpt lat="45.62702" lon="5.02063">
        <ele>275.734375</ele>
        <time>2013-11-17T10:07:27Z</time>
      </trkpt>
      <trkpt lat="45.62702" lon="5.02057">
        <ele>275.66015625</ele>
        <time>2013-11-17T10:07:31Z</time>
      </trkpt>
      <trkpt lat="45.62702" lon="5.02049">
        <ele>275.51171875</ele>
        <time>2013-11-17T10:07:35Z</time>
      </trkpt>
      <trkpt lat="45.62703" lon="5.02023">
        <ele>274.93359375</ele>
        <time>2013-11-17T10:07:49Z</time>
      </trkpt>
      <trkpt lat="45.62705" lon="5.02006">
        <ele>274.64453125</ele>
        <time>2013-11-17T10:08:03Z</time>
      </trkpt>
      <trkpt lat="45.62706" lon="5.01991">
        <ele>274.33203125</ele>
        <time>2013-11-17T10:08:15Z</time>
      </trkpt>
      <trkpt lat="45.62707" lon="5.01984">
        <ele>274.2109375</ele>
        <time>2013-11-17T10:08:19Z</time>
      </trkpt>
      <trkpt lat="45.62707" lon="5.01969">
        <ele>273.9375</ele>
        <time>2013-11-17T10:08:30Z</time>
      </trkpt>
      <trkpt lat="45.62708" lon="5.01964">
        <ele>273.84375</ele>
        <time>2013-11-17T10:08:33Z</time>
      </trkpt>
      <trkpt lat="45.62712" lon="5.0196">
        <ele>273.703125</ele>
        <time>2013-11-17T10:08:37Z</time>
      </trkpt>
      <trkpt lat="45.62718" lon="5.01956">
        <ele>273.4765625</ele>
        <time>2013-11-17T10:08:42Z</time>
      </trkpt>
      <trkpt lat="45.62729" lon="5.01937">
        <ele>273.40234375</ele>
        <time>2013-11-17T10:08:56Z</time>
      </trkpt>
      <trkpt lat="45.62739" lon="5.01918">
        <ele>274.3515625</ele>
        <time>2013-11-17T10:09:09Z</time>
      </trkpt>
      <trkpt lat="45.62744" lon="5.01896">
        <ele>274.71484375</ele>
        <time>2013-11-17T10:09:22Z</time>
      </trkpt>
      <trkpt lat="45.62744" lon="5.01894">
        <ele>274.73828125</ele>
        <time>2013-11-17T10:09:23Z</time>
      </trkpt>
      <trkpt lat="45.62749" lon="5.01866">
        <ele>275.12890625</ele>
        <time>2013-11-17T10:09:39Z</time>
      </trkpt>
      <trkpt lat="45.62754" lon="5.01847">
        <ele>275.06640625</ele>
        <time>2013-11-17T10:09:53Z</time>
      </trkpt>
      <trkpt lat="45.62756" lon="5.01828">
        <ele>274.35546875</ele>
        <time>2013-11-17T10:10:05Z</time>
      </trkpt>
      <trkpt lat="45.6276" lon="5.01812">
        <ele>273.80078125</ele>
        <time>2013-11-17T10:10:18Z</time>
      </trkpt>
      <trkpt lat="45.62767" lon="5.0179">
        <ele>273.69140625</ele>
        <time>2013-11-17T10:10:32Z</time>
      </trkpt>
      <trkpt lat="45.62774" lon="5.01779">
        <ele>273.953125</ele>
        <time>2013-11-17T10:10:43Z</time>
      </trkpt>
      <trkpt lat="45.62779" lon="5.01768">
        <ele>274.03125</ele>
        <time>2013-11-17T10:10:55Z</time>
      </trkpt>
      <trkpt lat="45.6278" lon="5.01766">
        <ele>274.11328125</ele>
        <time>2013-11-17T10:10:57Z</time>
      </trkpt>
      <trkpt lat="45.62788" lon="5.01746">
        <ele>274.78125</ele>
        <time>2013-11-17T10:11:10Z</time>
      </trkpt>
      <trkpt lat="45.62795" lon="5.01732">
        <ele>275.578125</ele>
        <time>2013-11-17T10:11:23Z</time>
      </trkpt>
      <trkpt lat="45.62801" lon="5.01716">
        <ele>276.78125</ele>
        <time>2013-11-17T10:11:35Z</time>
      </trkpt>
      <trkpt lat="45.62807" lon="5.01699">
        <ele>278.6484375</ele>
        <time>2013-11-17T10:11:50Z</time>
      </trkpt>
      <trkpt lat="45.62807" lon="5.01696">
        <ele>278.66796875</ele>
        <time>2013-11-17T10:11:52Z</time>
      </trkpt>
      <trkpt lat="45.6281" lon="5.01681">
        <ele>279.5859375</ele>
        <time>2013-11-17T10:12:03Z</time>
      </trkpt>
      <trkpt lat="45.62814" lon="5.01663">
        <ele>280.46484375</ele>
        <time>2013-11-17T10:12:17Z</time>
      </trkpt>
      <trkpt lat="45.6282" lon="5.01647">
        <ele>281.4296875</ele>
        <time>2013-11-17T10:12:30Z</time>
      </trkpt>
      <trkpt lat="45.62824" lon="5.01628">
        <ele>281.51953125</ele>
        <time>2013-11-17T10:12:43Z</time>
      </trkpt>
      <trkpt lat="45.62833" lon="5.01612">
        <ele>282.81640625</ele>
        <time>2013-11-17T10:12:57Z</time>
      </trkpt>
      <trkpt lat="45.62843" lon="5.01597">
        <ele>283.74609375</ele>
        <time>2013-11-17T10:13:10Z</time>
      </trkpt>
      <trkpt lat="45.62853" lon="5.01582">
        <ele>284.43359375</ele>
        <time>2013-11-17T10:13:24Z</time>
      </trkpt>
      <trkpt lat="45.62863" lon="5.01568">
        <ele>285.08984375</ele>
        <time>2013-11-17T10:13:36Z</time>
      </trkpt>
      <trkpt lat="45.62872" lon="5.01555">
        <ele>285.36328125</ele>
        <time>2013-11-17T10:13:49Z</time>
      </trkpt>
      <trkpt lat="45.62881" lon="5.01544">
        <ele>285.40234375</ele>
        <time>2013-11-17T10:14:01Z</time>
      </trkpt>
      <trkpt lat="45.62884" lon="5.01538">
        <ele>285.11328125</ele>
        <time>2013-11-17T10:14:06Z</time>
      </trkpt>
      <trkpt lat="45.62887" lon="5.01531">
        <ele>284.55859375</ele>
        <time>2013-11-17T10:14:10Z</time>
      </trkpt>
      <trkpt lat="45.62897" lon="5.01515">
        <ele>284.234375</ele>
        <time>2013-11-17T10:14:23Z</time>
      </trkpt>
      <trkpt lat="45.62905" lon="5.015">
        <ele>284.3828125</ele>
        <time>2013-11-17T10:14:35Z</time>
      </trkpt>
      <trkpt lat="45.62915" lon="5.01485">
        <ele>285.015625</ele>
        <time>2013-11-17T10:14:48Z</time>
      </trkpt>
      <trkpt lat="45.62919" lon="5.01477">
        <ele>285.328125</ele>
        <time>2013-11-17T10:14:55Z</time>
      </trkpt>
      <trkpt lat="45.62924" lon="5.01467">
        <ele>285.796875</ele>
        <time>2013-11-17T10:15:04Z</time>
      </trkpt>
      <trkpt lat="45.62934" lon="5.01453">
        <ele>287.3203125</ele>
        <time>2013-11-17T10:15:18Z</time>
      </trkpt>
      <trkpt lat="45.62942" lon="5.01441">
        <ele>288.62109375</ele>
        <time>2013-11-17T10:15:30Z</time>
      </trkpt>
      <trkpt lat="45.6295" lon="5.0143">
        <ele>289.63671875</ele>
        <time>2013-11-17T10:15:41Z</time>
      </trkpt>
      <trkpt lat="45.62959" lon="5.01419">
        <ele>290.70703125</ele>
        <time>2013-11-17T10:15:53Z</time>
      </trkpt>
      <trkpt lat="45.62968" lon="5.01405">
        <ele>291.734375</ele>
        <time>2013-11-17T10:16:05Z</time>
      </trkpt>
      <trkpt lat="45.62975" lon="5.01395">
        <ele>292.7109375</ele>
        <time>2013-11-17T10:16:16Z</time>
      </trkpt>
      <trkpt lat="45.62977" lon="5.0139">
        <ele>292.9609375</ele>
        <time>2013-11-17T10:16:20Z</time>
      </trkpt>
      <trkpt lat="45.62985" lon="5.0137">
        <ele>293.6796875</ele>
        <time>2013-11-17T10:16:34Z</time>
      </trkpt>
      <trkpt lat="45.62989" lon="5.01353">
        <ele>293.83203125</ele>
        <time>2013-11-17T10:16:47Z</time>
      </trkpt>
      <trkpt lat="45.62987" lon="5.01335">
        <ele>292.890625</ele>
        <time>2013-11-17T10:17:00Z</time>
      </trkpt>
      <trkpt lat="45.62986" lon="5.01314">
        <ele>292.796875</ele>
        <time>2013-11-17T10:17:14Z</time>
      </trkpt>
      <trkpt lat="45.62985" lon="5.01303">
        <ele>292.921875</ele>
        <time>2013-11-17T10:17:20Z</time>
      </trkpt>
      <trkpt lat="45.62982" lon="5.01284">
        <ele>293.51171875</ele>
        <time>2013-11-17T10:17:32Z</time>
      </trkpt>
      <trkpt lat="45.62982" lon="5.0128">
        <ele>293.63671875</ele>
        <time>2013-11-17T10:17:34Z</time>
      </trkpt>
      <trkpt lat="45.62976" lon="5.0126">
        <ele>294.171875</ele>
        <time>2013-11-17T10:17:48Z</time>
      </trkpt>
      <trkpt lat="45.62968" lon="5.01241">
        <ele>294.5</ele>
        <time>2013-11-17T10:18:02Z</time>
      </trkpt>
      <trkpt lat="45.62961" lon="5.01228">
        <ele>294.91015625</ele>
        <time>2013-11-17T10:18:13Z</time>
      </trkpt>
      <trkpt lat="45.62957" lon="5.01213">
        <ele>295.9140625</ele>
        <time>2013-11-17T10:18:24Z</time>
      </trkpt>
      <trkpt lat="45.62953" lon="5.01193">
        <ele>297.2109375</ele>
        <time>2013-11-17T10:18:38Z</time>
      </trkpt>
      <trkpt lat="45.62958" lon="5.01182">
        <ele>297.8828125</ele>
        <time>2013-11-17T10:18:49Z</time>
      </trkpt>
      <trkpt lat="45.62959" lon="5.01182">
        <ele>297.95703125</ele>
        <time>2013-11-17T10:18:50Z</time>
      </trkpt>
      <trkpt lat="45.62961" lon="5.01183">
        <ele>298.19921875</ele>
        <time>2013-11-17T10:18:53Z</time>
      </trkpt>
      <trkpt lat="45.62966" lon="5.01182">
        <ele>298.6796875</ele>
        <time>2013-11-17T10:19:11Z</time>
      </trkpt>
      <trkpt lat="45.62969" lon="5.01182">
        <ele>298.91015625</ele>
        <time>2013-11-17T10:19:28Z</time>
      </trkpt>
      <trkpt lat="45.62979" lon="5.01177">
        <ele>299.94140625</ele>
        <time>2013-11-17T10:19:45Z</time>
      </trkpt>
      <trkpt lat="45.62986" lon="5.01174">
        <ele>300.73828125</ele>
        <time>2013-11-17T10:20:03Z</time>
      </trkpt>
      <trkpt lat="45.62986" lon="5.01173">
        <ele>300.76953125</ele>
        <time>2013-11-17T10:20:17Z</time>
      </trkpt>
      <trkpt lat="45.62987" lon="5.01172">
        <ele>300.91015625</ele>
        <time>2013-11-17T10:20:39Z</time>
      </trkpt>
      <trkpt lat="45.62989" lon="5.01171">
        <ele>301.0859375</ele>
        <time>2013-11-17T10:20:56Z</time>
      </trkpt>
      <trkpt lat="45.62989" lon="5.01171">
        <ele>301.05078125</ele>
        <time>2013-11-17T10:21:20Z</time>
      </trkpt>
      <trkpt lat="45.6299" lon="5.0117">
        <ele>301.14453125</ele>
        <time>2013-11-17T10:21:28Z</time>
      </trkpt>
      <trkpt lat="45.62988" lon="5.0117">
        <ele>300.953125</ele>
        <time>2013-11-17T10:21:53Z</time>
      </trkpt>
      <trkpt lat="45.62989" lon="5.01169">
        <ele>301.03125</ele>
        <time>2013-11-17T10:22:12Z</time>
      </trkpt>
      <trkpt lat="45.62988" lon="5.0117">
        <ele>300.96484375</ele>
        <time>2013-11-17T10:22:36Z</time>
      </trkpt>
      <trkpt lat="45.62986" lon="5.01171">
        <ele>300.73046875</ele>
        <time>2013-11-17T10:22:54Z</time>
      </trkpt>
      <trkpt lat="45.62985" lon="5.0117">
        <ele>300.59375</ele>
        <time>2013-11-17T10:23:18Z</time>
      </trkpt>
      <trkpt lat="45.62983" lon="5.01171">
        <ele>300.4765625</ele>
        <time>2013-11-17T10:23:37Z</time>
      </trkpt>
      <trkpt lat="45.62984" lon="5.0117">
        <ele>300.5</ele>
        <time>2013-11-17T10:24:00Z</time>
      </trkpt>
      <trkpt lat="45.62983" lon="5.01172">
        <ele>300.46875</ele>
        <time>2013-11-17T10:24:20Z</time>
      </trkpt>
      <trkpt lat="45.62983" lon="5.01169">
        <ele>300.39453125</ele>
        <time>2013-11-17T10:24:48Z</time>
      </trkpt>
      <trkpt lat="45.62983" lon="5.0117">
        <ele>300.3828125</ele>
        <time>2013-11-17T10:25:07Z</time>
      </trkpt>
      <trkpt lat="45.62984" lon="5.01168">
        <ele>300.51171875</ele>
        <time>2013-11-17T10:25:25Z</time>
      </trkpt>
      <trkpt lat="45.62985" lon="5.01168">
        <ele>300.625</ele>
        <time>2013-11-17T10:25:41Z</time>
      </trkpt>
      <trkpt lat="45.62986" lon="5.01167">
        <ele>300.78515625</ele>
        <time>2013-11-17T10:25:59Z</time>
      </trkpt>
      <trkpt lat="45.62989" lon="5.01167">
        <ele>301.0546875</ele>
        <time>2013-11-17T10:26:18Z</time>
      </trkpt>
      <trkpt lat="45.6299" lon="5.01165">
        <ele>301.1796875</ele>
        <time>2013-11-17T10:26:40Z</time>
      </trkpt>
      <trkpt lat="45.62992" lon="5.01168">
        <ele>301.36328125</ele>
        <time>2013-11-17T10:27:06Z</time>
      </trkpt>
      <trkpt lat="45.62993" lon="5.01177">
        <ele>301.55859375</ele>
        <time>2013-11-17T10:27:20Z</time>
      </trkpt>
      <trkpt lat="45.62993" lon="5.01178">
        <ele>301.4921875</ele>
        <time>2013-11-17T10:27:35Z</time>
      </trkpt>
      <trkpt lat="45.62994" lon="5.01178">
        <ele>301.625</ele>
        <time>2013-11-17T10:27:54Z</time>
      </trkpt>
      <trkpt lat="45.62995" lon="5.01178">
        <ele>301.71875</ele>
        <time>2013-11-17T10:28:12Z</time>
      </trkpt>
      <trkpt lat="45.62995" lon="5.01177">
        <ele>301.67578125</ele>
        <time>2013-11-17T10:28:30Z</time>
      </trkpt>
      <trkpt lat="45.62995" lon="5.01177">
        <ele>301.734375</ele>
        <time>2013-11-17T10:28:54Z</time>
      </trkpt>
      <trkpt lat="45.62995" lon="5.01179">
        <ele>301.7421875</ele>
        <time>2013-11-17T10:29:16Z</time>
      </trkpt>
      <trkpt lat="45.62994" lon="5.01181">
        <ele>301.57421875</ele>
        <time>2013-11-17T10:29:42Z</time>
      </trkpt>
      <trkpt lat="45.62994" lon="5.0118">
        <ele>301.5859375</ele>
        <time>2013-11-17T10:30:01Z</time>
      </trkpt>
      <trkpt lat="45.62993" lon="5.01182">
        <ele>301.52734375</ele>
        <time>2013-11-17T10:30:34Z</time>
      </trkpt>
      <trkpt lat="45.62993" lon="5.01182">
        <ele>301.55078125</ele>
        <time>2013-11-17T10:30:50Z</time>
      </trkpt>
      <trkpt lat="45.62992" lon="5.01182">
        <ele>301.43359375</ele>
        <time>2013-11-17T10:31:26Z</time>
      </trkpt>
      <trkpt lat="45.62994" lon="5.01179">
        <ele>301.62109375</ele>
        <time>2013-11-17T10:31:50Z</time>
      </trkpt>
      <trkpt lat="45.62992" lon="5.0118">
        <ele>301.4375</ele>
        <time>2013-11-17T10:32:21Z</time>
      </trkpt>
      <trkpt lat="45.62993" lon="5.01178">
        <ele>301.48046875</ele>
        <time>2013-11-17T10:32:58Z</time>
      </trkpt>
      <trkpt lat="45.62993" lon="5.01178">
        <ele>301.51953125</ele>
        <time>2013-11-17T10:33:27Z</time>
      </trkpt>
      <trkpt lat="45.62992" lon="5.0118">
        <ele>301.38671875</ele>
        <time>2013-11-17T10:33:59Z</time>
      </trkpt>
      <trkpt lat="45.62994" lon="5.0118">
        <ele>301.5625</ele>
        <time>2013-11-17T10:34:29Z</time>
      </trkpt>
      <trkpt lat="45.62994" lon="5.01177">
        <ele>301.578125</ele>
        <time>2013-11-17T10:35:04Z</time>
      </trkpt>
      <trkpt lat="45.62993" lon="5.01178">
        <ele>301.53515625</ele>
        <time>2013-11-17T10:35:31Z</time>
      </trkpt>
      <trkpt lat="45.62994" lon="5.01175">
        <ele>301.5703125</ele>
        <time>2013-11-17T10:35:51Z</time>
      </trkpt>
      <trkpt lat="45.62992" lon="5.01175">
        <ele>301.390625</ele>
        <time>2013-11-17T10:36:05Z</time>
      </trkpt>
      <trkpt lat="45.62992" lon="5.01173">
        <ele>301.39453125</ele>
        <time>2013-11-17T10:36:23Z</time>
      </trkpt>
      <trkpt lat="45.62988" lon="5.01174">
        <ele>300.98828125</ele>
        <time>2013-11-17T10:36:38Z</time>
      </trkpt>
      <trkpt lat="45.62979" lon="5.01182">
        <ele>300.01171875</ele>
        <time>2013-11-17T10:36:53Z</time>
      </trkpt>
      <trkpt lat="45.62965" lon="5.01187">
        <ele>298.515625</ele>
        <time>2013-11-17T10:37:08Z</time>
      </trkpt>
      <trkpt lat="45.62963" lon="5.01186">
        <ele>298.34375</ele>
        <time>2013-11-17T10:37:10Z</time>
      </trkpt>
      <trkpt lat="45.62954" lon="5.01183">
        <ele>297.56640625</ele>
        <time>2013-11-17T10:37:20Z</time>
      </trkpt>
      <trkpt lat="45.62956" lon="5.01212">
        <ele>296.00390625</ele>
        <time>2013-11-17T10:37:39Z</time>
      </trkpt>
      <trkpt lat="45.62964" lon="5.01238">
        <ele>294.4921875</ele>
        <time>2013-11-17T10:37:56Z</time>
      </trkpt>
      <trkpt lat="45.62971" lon="5.01256">
        <ele>293.73828125</ele>
        <time>2013-11-17T10:38:10Z</time>
      </trkpt>
      <trkpt lat="45.62976" lon="5.01268">
        <ele>293.5703125</ele>
        <time>2013-11-17T10:38:21Z</time>
      </trkpt>
      <trkpt lat="45.62977" lon="5.01272">
        <ele>293.5078125</ele>
        <time>2013-11-17T10:38:24Z</time>
      </trkpt>
      <trkpt lat="45.62982" lon="5.0129">
        <ele>293.1171875</ele>
        <time>2013-11-17T10:38:39Z</time>
      </trkpt>
      <trkpt lat="45.62986" lon="5.01309">
        <ele>292.8515625</ele>
        <time>2013-11-17T10:38:52Z</time>
      </trkpt>
      <trkpt lat="45.62987" lon="5.01333">
        <ele>292.625</ele>
        <time>2013-11-17T10:39:07Z</time>
      </trkpt>
      <trkpt lat="45.62986" lon="5.01358">
        <ele>293.375</ele>
        <time>2013-11-17T10:39:22Z</time>
      </trkpt>
      <trkpt lat="45.62982" lon="5.01375">
        <ele>293.296875</ele>
        <time>2013-11-17T10:39:34Z</time>
      </trkpt>
      <trkpt lat="45.62978" lon="5.01381">
        <ele>292.7890625</ele>
        <time>2013-11-17T10:39:39Z</time>
      </trkpt>
      <trkpt lat="45.62978" lon="5.01384">
        <ele>292.76953125</ele>
        <time>2013-11-17T10:39:42Z</time>
      </trkpt>
      <trkpt lat="45.62967" lon="5.01399">
        <ele>291.12109375</ele>
        <time>2013-11-17T10:39:57Z</time>
      </trkpt>
      <trkpt lat="45.6295" lon="5.01396">
        <ele>287.26171875</ele>
        <time>2013-11-17T10:40:14Z</time>
      </trkpt>
      <trkpt lat="45.62937" lon="5.01397">
        <ele>284.64453125</ele>
        <time>2013-11-17T10:40:27Z</time>
      </trkpt>
      <trkpt lat="45.62934" lon="5.01396">
        <ele>283.9453125</ele>
        <time>2013-11-17T10:40:31Z</time>
      </trkpt>
      <trkpt lat="45.62918" lon="5.01392">
        <ele>280.75390625</ele>
        <time>2013-11-17T10:40:47Z</time>
      </trkpt>
      <trkpt lat="45.62909" lon="5.01391">
        <ele>279.25</ele>
        <time>2013-11-17T10:41:00Z</time>
      </trkpt>
      <trkpt lat="45.62897" lon="5.01396">
        <ele>277.76171875</ele>
        <time>2013-11-17T10:41:15Z</time>
      </trkpt>
      <trkpt lat="45.62884" lon="5.01397">
        <ele>276.015625</ele>
        <time>2013-11-17T10:41:28Z</time>
      </trkpt>
      <trkpt lat="45.6287" lon="5.01395">
        <ele>274.4375</ele>
        <time>2013-11-17T10:41:44Z</time>
      </trkpt>
      <trkpt lat="45.62857" lon="5.01397">
        <ele>273.1875</ele>
        <time>2013-11-17T10:41:57Z</time>
      </trkpt>
      <trkpt lat="45.62839" lon="5.01386">
        <ele>271.6796875</ele>
        <time>2013-11-17T10:42:13Z</time>
      </trkpt>
      <trkpt lat="45.62828" lon="5.01379">
        <ele>271.19140625</ele>
        <time>2013-11-17T10:42:29Z</time>
      </trkpt>
      <trkpt lat="45.62817" lon="5.01375">
        <ele>270.76953125</ele>
        <time>2013-11-17T10:42:44Z</time>
      </trkpt>
      <trkpt lat="45.62811" lon="5.01369">
        <ele>270.48046875</ele>
        <time>2013-11-17T10:42:53Z</time>
      </trkpt>
      <trkpt lat="45.62797" lon="5.01356">
        <ele>269.9140625</ele>
        <time>2013-11-17T10:43:09Z</time>
      </trkpt>
      <trkpt lat="45.62782" lon="5.0135">
        <ele>269.3203125</ele>
        <time>2013-11-17T10:43:24Z</time>
      </trkpt>
      <trkpt lat="45.62768" lon="5.01342">
        <ele>269.16015625</ele>
        <time>2013-11-17T10:43:41Z</time>
      </trkpt>
      <trkpt lat="45.62758" lon="5.01335">
        <ele>269.0625</ele>
        <time>2013-11-17T10:43:55Z</time>
      </trkpt>
      <trkpt lat="45.62748" lon="5.01331">
        <ele>269.078125</ele>
        <time>2013-11-17T10:44:10Z</time>
      </trkpt>
      <trkpt lat="45.62735" lon="5.01331">
        <ele>269.05078125</ele>
        <time>2013-11-17T10:44:24Z</time>
      </trkpt>
      <trkpt lat="45.62717" lon="5.01328">
        <ele>269.1796875</ele>
        <time>2013-11-17T10:44:40Z</time>
      </trkpt>
      <trkpt lat="45.62705" lon="5.01324">
        <ele>269.70703125</ele>
        <time>2013-11-17T10:44:53Z</time>
      </trkpt>
      <trkpt lat="45.62686" lon="5.01306">
        <ele>269.25</ele>
        <time>2013-11-17T10:45:10Z</time>
      </trkpt>
      <trkpt lat="45.62676" lon="5.01292">
        <ele>268.828125</ele>
        <time>2013-11-17T10:45:25Z</time>
      </trkpt>
      <trkpt lat="45.6266" lon="5.01282">
        <ele>268.42578125</ele>
        <time>2013-11-17T10:45:41Z</time>
      </trkpt>
      <trkpt lat="45.6265" lon="5.01268">
        <ele>268.69921875</ele>
        <time>2013-11-17T10:45:56Z</time>
      </trkpt>
      <trkpt lat="45.62634" lon="5.01251">
        <ele>269.1171875</ele>
        <time>2013-11-17T10:46:12Z</time>
      </trkpt>
      <trkpt lat="45.62623" lon="5.01234">
        <ele>268.9140625</ele>
        <time>2013-11-17T10:46:27Z</time>
      </trkpt>
      <trkpt lat="45.62614" lon="5.01221">
        <ele>268.76953125</ele>
        <time>2013-11-17T10:46:41Z</time>
      </trkpt>
      <trkpt lat="45.62603" lon="5.01199">
        <ele>268.203125</ele>
        <time>2013-11-17T10:46:55Z</time>
      </trkpt>
      <trkpt lat="45.62592" lon="5.01176">
        <ele>267.32421875</ele>
        <time>2013-11-17T10:47:11Z</time>
      </trkpt>
      <trkpt lat="45.6259" lon="5.01163">
        <ele>266.90234375</ele>
        <time>2013-11-17T10:47:24Z</time>
      </trkpt>
      <trkpt lat="45.62588" lon="5.01161">
        <ele>266.83203125</ele>
        <time>2013-11-17T10:47:34Z</time>
      </trkpt>
      <trkpt lat="45.62586" lon="5.01157">
        <ele>266.69921875</ele>
        <time>2013-11-17T10:47:38Z</time>
      </trkpt>
      <trkpt lat="45.62583" lon="5.01147">
        <ele>266.33203125</ele>
        <time>2013-11-17T10:47:46Z</time>
      </trkpt>
      <trkpt lat="45.62583" lon="5.01133">
        <ele>266.08203125</ele>
        <time>2013-11-17T10:47:55Z</time>
      </trkpt>
      <trkpt lat="45.62578" lon="5.01114">
        <ele>266.11328125</ele>
        <time>2013-11-17T10:48:11Z</time>
      </trkpt>
      <trkpt lat="45.62572" lon="5.01094">
        <ele>266.328125</ele>
        <time>2013-11-17T10:48:27Z</time>
      </trkpt>
      <trkpt lat="45.62564" lon="5.01073">
        <ele>266.62890625</ele>
        <time>2013-11-17T10:48:44Z</time>
      </trkpt>
      <trkpt lat="45.62545" lon="5.01061">
        <ele>267.69921875</ele>
        <time>2013-11-17T10:49:00Z</time>
      </trkpt>
      <trkpt lat="45.62534" lon="5.01054">
        <ele>268.41796875</ele>
        <time>2013-11-17T10:49:14Z</time>
      </trkpt>
      <trkpt lat="45.62525" lon="5.01047">
        <ele>269.03125</ele>
        <time>2013-11-17T10:49:31Z</time>
      </trkpt>
      <trkpt lat="45.62517" lon="5.01039">
        <ele>270.5546875</ele>
        <time>2013-11-17T10:50:01Z</time>
      </trkpt>
      <trkpt lat="45.62519" lon="5.01044">
        <ele>270.22265625</ele>
        <time>2013-11-17T10:50:29Z</time>
      </trkpt>
      <trkpt lat="45.62513" lon="5.01061">
        <ele>271.46484375</ele>
        <time>2013-11-17T10:51:03Z</time>
      </trkpt>
      <trkpt lat="45.6251" lon="5.0107">
        <ele>272.265625</ele>
        <time>2013-11-17T10:51:22Z</time>
      </trkpt>
      <trkpt lat="45.62505" lon="5.01088">
        <ele>273.71875</ele>
        <time>2013-11-17T10:51:36Z</time>
      </trkpt>
      <trkpt lat="45.62509" lon="5.01115">
        <ele>273.4765625</ele>
        <time>2013-11-17T10:51:52Z</time>
      </trkpt>
      <trkpt lat="45.6251" lon="5.01142">
        <ele>273.83984375</ele>
        <time>2013-11-17T10:52:10Z</time>
      </trkpt>
      <trkpt lat="45.62511" lon="5.01159">
        <ele>274.03515625</ele>
        <time>2013-11-17T10:52:23Z</time>
      </trkpt>
      <trkpt lat="45.62509" lon="5.01175">
        <ele>274.53515625</ele>
        <time>2013-11-17T10:52:34Z</time>
      </trkpt>
      <trkpt lat="45.62505" lon="5.01188">
        <ele>275.21875</ele>
        <time>2013-11-17T10:52:46Z</time>
      </trkpt>
      <trkpt lat="45.62496" lon="5.01197">
        <ele>276.234375</ele>
        <time>2013-11-17T10:53:00Z</time>
      </trkpt>
      <trkpt lat="45.62486" lon="5.01209">
        <ele>277.484375</ele>
        <time>2013-11-17T10:53:16Z</time>
      </trkpt>
      <trkpt lat="45.62474" lon="5.01218">
        <ele>278.73046875</ele>
        <time>2013-11-17T10:53:29Z</time>
      </trkpt>
      <trkpt lat="45.62462" lon="5.01225">
        <ele>280.20703125</ele>
        <time>2013-11-17T10:53:43Z</time>
      </trkpt>
      <trkpt lat="45.62451" lon="5.01229">
        <ele>281.6640625</ele>
        <time>2013-11-17T10:53:57Z</time>
      </trkpt>
      <trkpt lat="45.62445" lon="5.0124">
        <ele>282.1328125</ele>
        <time>2013-11-17T10:54:11Z</time>
      </trkpt>
      <trkpt lat="45.62434" lon="5.01247">
        <ele>283.03125</ele>
        <time>2013-11-17T10:54:25Z</time>
      </trkpt>
      <trkpt lat="45.62419" lon="5.01253">
        <ele>284.625</ele>
        <time>2013-11-17T10:54:42Z</time>
      </trkpt>
      <trkpt lat="45.62409" lon="5.0126">
        <ele>285.79296875</ele>
        <time>2013-11-17T10:54:58Z</time>
      </trkpt>
      <trkpt lat="45.62395" lon="5.01272">
        <ele>287.171875</ele>
        <time>2013-11-17T10:55:14Z</time>
      </trkpt>
      <trkpt lat="45.62382" lon="5.01284">
        <ele>288.37109375</ele>
        <time>2013-11-17T10:55:30Z</time>
      </trkpt>
      <trkpt lat="45.6237" lon="5.01294">
        <ele>289.1796875</ele>
        <time>2013-11-17T10:55:45Z</time>
      </trkpt>
      <trkpt lat="45.62354" lon="5.01301">
        <ele>289.66015625</ele>
        <time>2013-11-17T10:56:01Z</time>
      </trkpt>
      <trkpt lat="45.62342" lon="5.01304">
        <ele>289.30859375</ele>
        <time>2013-11-17T10:56:09Z</time>
      </trkpt>
      <trkpt lat="45.62338" lon="5.01306">
        <ele>289.25</ele>
        <time>2013-11-17T10:56:13Z</time>
      </trkpt>
      <trkpt lat="45.62336" lon="5.01308">
        <ele>289.34375</ele>
        <time>2013-11-17T10:56:15Z</time>
      </trkpt>
      <trkpt lat="45.62334" lon="5.01323">
        <ele>290.2734375</ele>
        <time>2013-11-17T10:56:26Z</time>
      </trkpt>
      <trkpt lat="45.62342" lon="5.01344">
        <ele>291.515625</ele>
        <time>2013-11-17T10:56:39Z</time>
      </trkpt>
      <trkpt lat="45.62343" lon="5.01367">
        <ele>292.83984375</ele>
        <time>2013-11-17T10:56:54Z</time>
      </trkpt>
      <trkpt lat="45.62338" lon="5.01393">
        <ele>294.50390625</ele>
        <time>2013-11-17T10:57:10Z</time>
      </trkpt>
      <trkpt lat="45.62337" lon="5.01395">
        <ele>294.6796875</ele>
        <time>2013-11-17T10:57:12Z</time>
      </trkpt>
      <trkpt lat="45.62334" lon="5.01411">
        <ele>295.66015625</ele>
        <time>2013-11-17T10:57:23Z</time>
      </trkpt>
      <trkpt lat="45.62332" lon="5.01428">
        <ele>296.828125</ele>
        <time>2013-11-17T10:57:35Z</time>
      </trkpt>
      <trkpt lat="45.62331" lon="5.01452">
        <ele>298.49609375</ele>
        <time>2013-11-17T10:57:50Z</time>
      </trkpt>
      <trkpt lat="45.62332" lon="5.01471">
        <ele>299.98828125</ele>
        <time>2013-11-17T10:58:03Z</time>
      </trkpt>
      <trkpt lat="45.62334" lon="5.01487">
        <ele>301.27734375</ele>
        <time>2013-11-17T10:58:15Z</time>
      </trkpt>
      <trkpt lat="45.62336" lon="5.01496">
        <ele>302.0234375</ele>
        <time>2013-11-17T10:58:21Z</time>
      </trkpt>
      <trkpt lat="45.6234" lon="5.01518">
        <ele>304.39453125</ele>
        <time>2013-11-17T10:58:33Z</time>
      </trkpt>
      <trkpt lat="45.62347" lon="5.01536">
        <ele>306.0546875</ele>
        <time>2013-11-17T10:58:47Z</time>
      </trkpt>
      <trkpt lat="45.62353" lon="5.01551">
        <ele>307.24609375</ele>
        <time>2013-11-17T10:58:58Z</time>
      </trkpt>
      <trkpt lat="45.62359" lon="5.01573">
        <ele>309.25390625</ele>
        <time>2013-11-17T10:59:14Z</time>
      </trkpt>
      <trkpt lat="45.62369" lon="5.01588">
        <ele>310.17578125</ele>
        <time>2013-11-17T10:59:26Z</time>
      </trkpt>
      <trkpt lat="45.6238" lon="5.01599">
        <ele>310.55859375</ele>
        <time>2013-11-17T10:59:41Z</time>
      </trkpt>
      <trkpt lat="45.62386" lon="5.01607">
        <ele>310.84375</ele>
        <time>2013-11-17T10:59:49Z</time>
      </trkpt>
      <trkpt lat="45.62392" lon="5.0163">
        <ele>310.93359375</ele>
        <time>2013-11-17T11:00:03Z</time>
      </trkpt>
      <trkpt lat="45.62388" lon="5.01653">
        <ele>311.50390625</ele>
        <time>2013-11-17T11:00:19Z</time>
      </trkpt>
      <trkpt lat="45.62381" lon="5.01679">
        <ele>312</ele>
        <time>2013-11-17T11:00:35Z</time>
      </trkpt>
      <trkpt lat="45.62372" lon="5.01705">
        <ele>312.2109375</ele>
        <time>2013-11-17T11:00:52Z</time>
      </trkpt>
      <trkpt lat="45.62366" lon="5.01731">
        <ele>312.984375</ele>
        <time>2013-11-17T11:01:08Z</time>
      </trkpt>
      <trkpt lat="45.62364" lon="5.01755">
        <ele>313.84765625</ele>
        <time>2013-11-17T11:01:22Z</time>
      </trkpt>
      <trkpt lat="45.62361" lon="5.01781">
        <ele>314.9921875</ele>
        <time>2013-11-17T11:01:38Z</time>
      </trkpt>
      <trkpt lat="45.62357" lon="5.01803">
        <ele>316.0078125</ele>
        <time>2013-11-17T11:01:52Z</time>
      </trkpt>
      <trkpt lat="45.62355" lon="5.01815">
        <ele>316.50390625</ele>
        <time>2013-11-17T11:01:59Z</time>
      </trkpt>
      <trkpt lat="45.62351" lon="5.01838">
        <ele>317.47265625</ele>
        <time>2013-11-17T11:02:13Z</time>
      </trkpt>
      <trkpt lat="45.62351" lon="5.0184">
        <ele>317.53515625</ele>
        <time>2013-11-17T11:02:14Z</time>
      </trkpt>
      <trkpt lat="45.62345" lon="5.01864">
        <ele>318.61328125</ele>
        <time>2013-11-17T11:02:29Z</time>
      </trkpt>
      <trkpt lat="45.62344" lon="5.01871">
        <ele>318.90234375</ele>
        <time>2013-11-17T11:02:33Z</time>
      </trkpt>
      <trkpt lat="45.62343" lon="5.01888">
        <ele>319.58203125</ele>
        <time>2013-11-17T11:02:43Z</time>
      </trkpt>
      <trkpt lat="45.62338" lon="5.01914">
        <ele>320.8984375</ele>
        <time>2013-11-17T11:02:58Z</time>
      </trkpt>
      <trkpt lat="45.62335" lon="5.01935">
        <ele>321.6796875</ele>
        <time>2013-11-17T11:03:11Z</time>
      </trkpt>
      <trkpt lat="45.62332" lon="5.01965">
        <ele>322.73046875</ele>
        <time>2013-11-17T11:03:28Z</time>
      </trkpt>
      <trkpt lat="45.6233" lon="5.01992">
        <ele>323</ele>
        <time>2013-11-17T11:03:44Z</time>
      </trkpt>
      <trkpt lat="45.6233" lon="5.02021">
        <ele>323.046875</ele>
        <time>2013-11-17T11:04:01Z</time>
      </trkpt>
      <trkpt lat="45.62329" lon="5.02023">
        <ele>323.0546875</ele>
        <time>2013-11-17T11:04:02Z</time>
      </trkpt>
      <trkpt lat="45.6233" lon="5.02048">
        <ele>323.04296875</ele>
        <time>2013-11-17T11:04:18Z</time>
      </trkpt>
      <trkpt lat="45.6233" lon="5.02085">
        <ele>322.94140625</ele>
        <time>2013-11-17T11:04:39Z</time>
      </trkpt>
      <trkpt lat="45.6233" lon="5.02122">
        <ele>322.01953125</ele>
        <time>2013-11-17T11:05:00Z</time>
      </trkpt>
      <trkpt lat="45.62329" lon="5.02161">
        <ele>322</ele>
        <time>2013-11-17T11:05:21Z</time>
      </trkpt>
      <trkpt lat="45.6233" lon="5.02195">
        <ele>321.05859375</ele>
        <time>2013-11-17T11:05:40Z</time>
      </trkpt>
      <trkpt lat="45.6233" lon="5.02224">
        <ele>321</ele>
        <time>2013-11-17T11:05:56Z</time>
      </trkpt>
      <trkpt lat="45.62332" lon="5.02248">
        <ele>321</ele>
        <time>2013-11-17T11:06:11Z</time>
      </trkpt>
      <trkpt lat="45.62332" lon="5.02273">
        <ele>321.8515625</ele>
        <time>2013-11-17T11:06:25Z</time>
      </trkpt>
      <trkpt lat="45.62332" lon="5.02274">
        <ele>321.8984375</ele>
        <time>2013-11-17T11:06:26Z</time>
      </trkpt>
      <trkpt lat="45.62333" lon="5.02283">
        <ele>322</ele>
        <time>2013-11-17T11:06:32Z</time>
      </trkpt>
      <trkpt lat="45.62334" lon="5.02289">
        <ele>322</ele>
        <time>2013-11-17T11:06:36Z</time>
      </trkpt>
      <trkpt lat="45.62334" lon="5.02294">
        <ele>322</ele>
        <time>2013-11-17T11:06:39Z</time>
      </trkpt>
      <trkpt lat="45.62331" lon="5.02326">
        <ele>322</ele>
        <time>2013-11-17T11:06:55Z</time>
      </trkpt>
      <trkpt lat="45.62321" lon="5.02347">
        <ele>322.19140625</ele>
        <time>2013-11-17T11:07:10Z</time>
      </trkpt>
      <trkpt lat="45.6231" lon="5.02373">
        <ele>322.7734375</ele>
        <time>2013-11-17T11:07:27Z</time>
      </trkpt>
      <trkpt lat="45.62301" lon="5.02399">
        <ele>322.5625</ele>
        <time>2013-11-17T11:07:44Z</time>
      </trkpt>
      <trkpt lat="45.6229" lon="5.02426">
        <ele>321.65625</ele>
        <time>2013-11-17T11:08:01Z</time>
      </trkpt>
      <trkpt lat="45.6228" lon="5.02449">
        <ele>320.81640625</ele>
        <time>2013-11-17T11:08:16Z</time>
      </trkpt>
      <trkpt lat="45.62268" lon="5.02474">
        <ele>320.2421875</ele>
        <time>2013-11-17T11:08:33Z</time>
      </trkpt>
      <trkpt lat="45.62261" lon="5.0249">
        <ele>320.171875</ele>
        <time>2013-11-17T11:08:46Z</time>
      </trkpt>
      <trkpt lat="45.62245" lon="5.0251">
        <ele>320.0625</ele>
        <time>2013-11-17T11:09:00Z</time>
      </trkpt>
      <trkpt lat="45.62226" lon="5.02529">
        <ele>319.98828125</ele>
        <time>2013-11-17T11:09:17Z</time>
      </trkpt>
      <trkpt lat="45.62208" lon="5.02547">
        <ele>320.125</ele>
        <time>2013-11-17T11:09:33Z</time>
      </trkpt>
      <trkpt lat="45.62189" lon="5.0256">
        <ele>319.82421875</ele>
        <time>2013-11-17T11:09:48Z</time>
      </trkpt>
      <trkpt lat="45.62168" lon="5.0257">
        <ele>319.44140625</ele>
        <time>2013-11-17T11:10:05Z</time>
      </trkpt>
      <trkpt lat="45.62152" lon="5.02582">
        <ele>319.4765625</ele>
        <time>2013-11-17T11:10:20Z</time>
      </trkpt>
      <trkpt lat="45.62134" lon="5.02597">
        <ele>320.13671875</ele>
        <time>2013-11-17T11:10:37Z</time>
      </trkpt>
      <trkpt lat="45.62116" lon="5.02613">
        <ele>320.7578125</ele>
        <time>2013-11-17T11:10:54Z</time>
      </trkpt>
      <trkpt lat="45.62106" lon="5.02629">
        <ele>321.234375</ele>
        <time>2013-11-17T11:11:08Z</time>
      </trkpt>
      <trkpt lat="45.62116" lon="5.02637">
        <ele>320.76171875</ele>
        <time>2013-11-17T11:11:24Z</time>
      </trkpt>
      <trkpt lat="45.62127" lon="5.02644">
        <ele>320.37109375</ele>
        <time>2013-11-17T11:11:40Z</time>
      </trkpt>
      <trkpt lat="45.62137" lon="5.02651">
        <ele>320.00390625</ele>
        <time>2013-11-17T11:11:53Z</time>
      </trkpt>
      <trkpt lat="45.62158" lon="5.02666">
        <ele>318.46484375</ele>
        <time>2013-11-17T11:12:11Z</time>
      </trkpt>
      <trkpt lat="45.62174" lon="5.02675">
        <ele>317.359375</ele>
        <time>2013-11-17T11:12:24Z</time>
      </trkpt>
      <trkpt lat="45.62192" lon="5.02688">
        <ele>315.8203125</ele>
        <time>2013-11-17T11:12:39Z</time>
      </trkpt>
      <trkpt lat="45.62201" lon="5.02693">
        <ele>315.109375</ele>
        <time>2013-11-17T11:12:48Z</time>
      </trkpt>
      <trkpt lat="45.62219" lon="5.02703">
        <ele>313.1640625</ele>
        <time>2013-11-17T11:13:03Z</time>
      </trkpt>
      <trkpt lat="45.62237" lon="5.02711">
        <ele>311.08984375</ele>
        <time>2013-11-17T11:13:19Z</time>
      </trkpt>
      <trkpt lat="45.62255" lon="5.02717">
        <ele>309.08984375</ele>
        <time>2013-11-17T11:13:32Z</time>
      </trkpt>
      <trkpt lat="45.62272" lon="5.02725">
        <ele>307.78515625</ele>
        <time>2013-11-17T11:13:46Z</time>
      </trkpt>
      <trkpt lat="45.6228" lon="5.02732">
        <ele>306.90625</ele>
        <time>2013-11-17T11:13:59Z</time>
      </trkpt>
      <trkpt lat="45.62286" lon="5.02739">
        <ele>306.09765625</ele>
        <time>2013-11-17T11:14:06Z</time>
      </trkpt>
      <trkpt lat="45.623" lon="5.02752">
        <ele>304.7578125</ele>
        <time>2013-11-17T11:14:19Z</time>
      </trkpt>
      <trkpt lat="45.62314" lon="5.02759">
        <ele>303.5703125</ele>
        <time>2013-11-17T11:14:32Z</time>
      </trkpt>
      <trkpt lat="45.62328" lon="5.02768">
        <ele>302.16015625</ele>
        <time>2013-11-17T11:14:48Z</time>
      </trkpt>
      <trkpt lat="45.62341" lon="5.02779">
        <ele>300.51171875</ele>
        <time>2013-11-17T11:15:02Z</time>
      </trkpt>
      <trkpt lat="45.62356" lon="5.02788">
        <ele>299.30078125</ele>
        <time>2013-11-17T11:15:20Z</time>
      </trkpt>
      <trkpt lat="45.62374" lon="5.02804">
        <ele>297.51953125</ele>
        <time>2013-11-17T11:15:36Z</time>
      </trkpt>
      <trkpt lat="45.62386" lon="5.02813">
        <ele>296.1015625</ele>
        <time>2013-11-17T11:15:50Z</time>
      </trkpt>
      <trkpt lat="45.62388" lon="5.02815">
        <ele>295.83984375</ele>
        <time>2013-11-17T11:15:53Z</time>
      </trkpt>
      <trkpt lat="45.624" lon="5.02823">
        <ele>294.37109375</ele>
        <time>2013-11-17T11:16:09Z</time>
      </trkpt>
      <trkpt lat="45.62409" lon="5.0283">
        <ele>293.40234375</ele>
        <time>2013-11-17T11:16:24Z</time>
      </trkpt>
      <trkpt lat="45.6243" lon="5.02848">
        <ele>291.6015625</ele>
        <time>2013-11-17T11:16:45Z</time>
      </trkpt>
      <trkpt lat="45.62442" lon="5.0286">
        <ele>290.04296875</ele>
        <time>2013-11-17T11:16:59Z</time>
      </trkpt>
      <trkpt lat="45.62458" lon="5.02878">
        <ele>288.4140625</ele>
        <time>2013-11-17T11:17:17Z</time>
      </trkpt>
      <trkpt lat="45.62473" lon="5.02892">
        <ele>286.87890625</ele>
        <time>2013-11-17T11:17:34Z</time>
      </trkpt>
      <trkpt lat="45.62495" lon="5.02905">
        <ele>286.109375</ele>
        <time>2013-11-17T11:17:51Z</time>
      </trkpt>
      <trkpt lat="45.62513" lon="5.02906">
        <ele>284.6796875</ele>
        <time>2013-11-17T11:18:08Z</time>
      </trkpt>
      <trkpt lat="45.62526" lon="5.02899">
        <ele>283.359375</ele>
        <time>2013-11-17T11:18:28Z</time>
      </trkpt>
      <trkpt lat="45.62542" lon="5.02913">
        <ele>282.79296875</ele>
        <time>2013-11-17T11:18:44Z</time>
      </trkpt>
      <trkpt lat="45.62553" lon="5.02914">
        <ele>282.0546875</ele>
        <time>2013-11-17T11:19:01Z</time>
      </trkpt>
      <trkpt lat="45.62559" lon="5.02924">
        <ele>282.22265625</ele>
        <time>2013-11-17T11:19:14Z</time>
      </trkpt>
      <trkpt lat="45.62572" lon="5.02935">
        <ele>282.234375</ele>
        <time>2013-11-17T11:19:30Z</time>
      </trkpt>
      <trkpt lat="45.62583" lon="5.0295">
        <ele>282.09765625</ele>
        <time>2013-11-17T11:19:46Z</time>
      </trkpt>
      <trkpt lat="45.62594" lon="5.0296">
        <ele>282.95703125</ele>
        <time>2013-11-17T11:20:01Z</time>
      </trkpt>
      <trkpt lat="45.62609" lon="5.02975">
        <ele>284.12890625</ele>
        <time>2013-11-17T11:20:17Z</time>
      </trkpt>
      <trkpt lat="45.62621" lon="5.0299">
        <ele>285.99609375</ele>
        <time>2013-11-17T11:20:33Z</time>
      </trkpt>
      <trkpt lat="45.62631" lon="5.03003">
        <ele>287.46484375</ele>
        <time>2013-11-17T11:20:46Z</time>
      </trkpt>
      <trkpt lat="45.62638" lon="5.03011">
        <ele>288.20703125</ele>
        <time>2013-11-17T11:20:54Z</time>
      </trkpt>
      <trkpt lat="45.62651" lon="5.03018">
        <ele>289.76171875</ele>
        <time>2013-11-17T11:21:08Z</time>
      </trkpt>
      <trkpt lat="45.62664" lon="5.03022">
        <ele>291.0625</ele>
        <time>2013-11-17T11:21:22Z</time>
      </trkpt>
      <trkpt lat="45.62672" lon="5.03026">
        <ele>292.15234375</ele>
        <time>2013-11-17T11:21:33Z</time>
      </trkpt>
      <trkpt lat="45.62681" lon="5.03038">
        <ele>293.58203125</ele>
        <time>2013-11-17T11:21:46Z</time>
      </trkpt>
      <trkpt lat="45.62693" lon="5.03049">
        <ele>295.1015625</ele>
        <time>2013-11-17T11:21:59Z</time>
      </trkpt>
      <trkpt lat="45.62703" lon="5.03061">
        <ele>296.32421875</ele>
        <time>2013-11-17T11:22:13Z</time>
      </trkpt>
      <trkpt lat="45.62723" lon="5.03082">
        <ele>298.53125</ele>
        <time>2013-11-17T11:22:32Z</time>
      </trkpt>
      <trkpt lat="45.62732" lon="5.03098">
        <ele>301.32421875</ele>
        <time>2013-11-17T11:22:44Z</time>
      </trkpt>
      <trkpt lat="45.62738" lon="5.0311">
        <ele>302.99609375</ele>
        <time>2013-11-17T11:22:55Z</time>
      </trkpt>
      <trkpt lat="45.62748" lon="5.03121">
        <ele>304.79296875</ele>
        <time>2013-11-17T11:23:08Z</time>
      </trkpt>
      <trkpt lat="45.62757" lon="5.03135">
        <ele>306.54296875</ele>
        <time>2013-11-17T11:23:21Z</time>
      </trkpt>
      <trkpt lat="45.62771" lon="5.03148">
        <ele>308.4296875</ele>
        <time>2013-11-17T11:23:37Z</time>
      </trkpt>
      <trkpt lat="45.62785" lon="5.03153">
        <ele>310.62109375</ele>
        <time>2013-11-17T11:23:54Z</time>
      </trkpt>
      <trkpt lat="45.62799" lon="5.03156">
        <ele>313.03125</ele>
        <time>2013-11-17T11:24:08Z</time>
      </trkpt>
      <trkpt lat="45.62811" lon="5.03161">
        <ele>314.7421875</ele>
        <time>2013-11-17T11:24:22Z</time>
      </trkpt>
      <trkpt lat="45.62824" lon="5.03159">
        <ele>316.16015625</ele>
        <time>2013-11-17T11:24:37Z</time>
      </trkpt>
      <trkpt lat="45.6283" lon="5.0316">
        <ele>316.90234375</ele>
        <time>2013-11-17T11:24:57Z</time>
      </trkpt>
      <trkpt lat="45.62837" lon="5.03171">
        <ele>317.6328125</ele>
        <time>2013-11-17T11:25:13Z</time>
      </trkpt>
      <trkpt lat="45.62847" lon="5.03186">
        <ele>318.88671875</ele>
        <time>2013-11-17T11:25:28Z</time>
      </trkpt>
      <trkpt lat="45.6285" lon="5.03192">
        <ele>319.3125</ele>
        <time>2013-11-17T11:25:32Z</time>
      </trkpt>
      <trkpt lat="45.62853" lon="5.03197">
        <ele>319.62109375</ele>
        <time>2013-11-17T11:25:36Z</time>
      </trkpt>
      <trkpt lat="45.62858" lon="5.03207">
        <ele>319.96875</ele>
        <time>2013-11-17T11:25:44Z</time>
      </trkpt>
      <trkpt lat="45.62866" lon="5.03217">
        <ele>319.73828125</ele>
        <time>2013-11-17T11:25:53Z</time>
      </trkpt>
      <trkpt lat="45.62866" lon="5.03226">
        <ele>319.59765625</ele>
        <time>2013-11-17T11:25:59Z</time>
      </trkpt>
      <trkpt lat="45.62864" lon="5.03231">
        <ele>319.515625</ele>
        <time>2013-11-17T11:26:03Z</time>
      </trkpt>
      <trkpt lat="45.62862" lon="5.03239">
        <ele>319.32421875</ele>
        <time>2013-11-17T11:26:08Z</time>
      </trkpt>
      <trkpt lat="45.62849" lon="5.03271">
        <ele>319.3671875</ele>
        <time>2013-11-17T11:26:30Z</time>
      </trkpt>
      <trkpt lat="45.62849" lon="5.0329">
        <ele>319.66015625</ele>
        <time>2013-11-17T11:26:42Z</time>
      </trkpt>
      <trkpt lat="45.62854" lon="5.03314">
        <ele>320</ele>
        <time>2013-11-17T11:26:57Z</time>
      </trkpt>
      <trkpt lat="45.62854" lon="5.03321">
        <ele>320</ele>
        <time>2013-11-17T11:27:01Z</time>
      </trkpt>
      <trkpt lat="45.62859" lon="5.0335">
        <ele>320.625</ele>
        <time>2013-11-17T11:27:20Z</time>
      </trkpt>
      <trkpt lat="45.62863" lon="5.03372">
        <ele>321</ele>
        <time>2013-11-17T11:27:34Z</time>
      </trkpt>
      <trkpt lat="45.62867" lon="5.03391">
        <ele>321</ele>
        <time>2013-11-17T11:27:47Z</time>
      </trkpt>
      <trkpt lat="45.62868" lon="5.03408">
        <ele>321</ele>
        <time>2013-11-17T11:27:56Z</time>
      </trkpt>
      <trkpt lat="45.62871" lon="5.03421">
        <ele>321.109375</ele>
        <time>2013-11-17T11:28:03Z</time>
      </trkpt>
      <trkpt lat="45.62871" lon="5.03429">
        <ele>321.2578125</ele>
        <time>2013-11-17T11:28:07Z</time>
      </trkpt>
      <trkpt lat="45.62877" lon="5.03455">
        <ele>321.62890625</ele>
        <time>2013-11-17T11:28:22Z</time>
      </trkpt>
      <trkpt lat="45.62878" lon="5.03459">
        <ele>321.71484375</ele>
        <time>2013-11-17T11:28:25Z</time>
      </trkpt>
      <trkpt lat="45.62881" lon="5.03482">
        <ele>322</ele>
        <time>2013-11-17T11:28:40Z</time>
      </trkpt>
      <trkpt lat="45.62897" lon="5.03494">
        <ele>321.9375</ele>
        <time>2013-11-17T11:28:56Z</time>
      </trkpt>
      <trkpt lat="45.62907" lon="5.03503">
        <ele>322.140625</ele>
        <time>2013-11-17T11:29:06Z</time>
      </trkpt>
      <trkpt lat="45.62923" lon="5.03518">
        <ele>322.15234375</ele>
        <time>2013-11-17T11:29:24Z</time>
      </trkpt>
      <trkpt lat="45.62934" lon="5.03529">
        <ele>321.63671875</ele>
        <time>2013-11-17T11:29:37Z</time>
      </trkpt>
      <trkpt lat="45.6295" lon="5.03546">
        <ele>321.40234375</ele>
        <time>2013-11-17T11:29:55Z</time>
      </trkpt>
      <trkpt lat="45.62953" lon="5.03549">
        <ele>321.41015625</ele>
        <time>2013-11-17T11:29:59Z</time>
      </trkpt>
      <trkpt lat="45.62962" lon="5.03567">
        <ele>322.19921875</ele>
        <time>2013-11-17T11:30:15Z</time>
      </trkpt>
      <trkpt lat="45.62974" lon="5.03585">
        <ele>323.04296875</ele>
        <time>2013-11-17T11:30:32Z</time>
      </trkpt>
      <trkpt lat="45.62977" lon="5.03589">
        <ele>323.2265625</ele>
        <time>2013-11-17T11:30:39Z</time>
      </trkpt>
      <trkpt lat="45.62985" lon="5.03599">
        <ele>323.6796875</ele>
        <time>2013-11-17T11:30:53Z</time>
      </trkpt>
      <trkpt lat="45.62988" lon="5.036">
        <ele>323.609375</ele>
        <time>2013-11-17T11:31:13Z</time>
      </trkpt>
      <trkpt lat="45.6299" lon="5.03601">
        <ele>323.66015625</ele>
        <time>2013-11-17T11:31:41Z</time>
      </trkpt>
      <trkpt lat="45.62989" lon="5.03603">
        <ele>323.796875</ele>
        <time>2013-11-17T11:32:06Z</time>
      </trkpt>
      <trkpt lat="45.62988" lon="5.03604">
        <ele>323.93359375</ele>
        <time>2013-11-17T11:32:30Z</time>
      </trkpt>
      <trkpt lat="45.62988" lon="5.03606">
        <ele>324.0546875</ele>
        <time>2013-11-17T11:33:00Z</time>
      </trkpt>
      <trkpt lat="45.6299" lon="5.03604">
        <ele>323.8359375</ele>
        <time>2013-11-17T11:33:23Z</time>
      </trkpt>
      <trkpt lat="45.6299" lon="5.03607">
        <ele>324.03125</ele>
        <time>2013-11-17T11:33:54Z</time>
      </trkpt>
      <trkpt lat="45.62993" lon="5.03607">
        <ele>323.94140625</ele>
        <time>2013-11-17T11:34:20Z</time>
      </trkpt>
      <trkpt lat="45.62995" lon="5.03605">
        <ele>323.73828125</ele>
        <time>2013-11-17T11:34:46Z</time>
      </trkpt>
      <trkpt lat="45.62995" lon="5.03608">
        <ele>323.94140625</ele>
        <time>2013-11-17T11:35:12Z</time>
      </trkpt>
      <trkpt lat="45.62996" lon="5.03606">
        <ele>323.7578125</ele>
        <time>2013-11-17T11:35:34Z</time>
      </trkpt>
      <trkpt lat="45.62996" lon="5.03604">
        <ele>323.640625</ele>
        <time>2013-11-17T11:35:57Z</time>
      </trkpt>
      <trkpt lat="45.62999" lon="5.03603">
        <ele>323.4296875</ele>
        <time>2013-11-17T11:36:23Z</time>
      </trkpt>
      <trkpt lat="45.63" lon="5.03603">
        <ele>323.4453125</ele>
        <time>2013-11-17T11:36:41Z</time>
      </trkpt>
      <trkpt lat="45.63" lon="5.03605">
        <ele>323.60546875</ele>
        <time>2013-11-17T11:37:07Z</time>
      </trkpt>
      <trkpt lat="45.63" lon="5.03605">
        <ele>323.5546875</ele>
        <time>2013-11-17T11:37:36Z</time>
      </trkpt>
      <trkpt lat="45.63001" lon="5.03605">
        <ele>323.5390625</ele>
        <time>2013-11-17T11:38:00Z</time>
      </trkpt>
      <trkpt lat="45.62999" lon="5.03605">
        <ele>323.55859375</ele>
        <time>2013-11-17T11:38:30Z</time>
      </trkpt>
      <trkpt lat="45.63" lon="5.03605">
        <ele>323.57421875</ele>
        <time>2013-11-17T11:38:50Z</time>
      </trkpt>
      <trkpt lat="45.63001" lon="5.03603">
        <ele>323.3828125</ele>
        <time>2013-11-17T11:39:09Z</time>
      </trkpt>
      <trkpt lat="45.63003" lon="5.03604">
        <ele>323.3828125</ele>
        <time>2013-11-17T11:39:35Z</time>
      </trkpt>
      <trkpt lat="45.63" lon="5.03604">
        <ele>323.50390625</ele>
        <time>2013-11-17T11:39:59Z</time>
      </trkpt>
      <trkpt lat="45.63001" lon="5.03604">
        <ele>323.47265625</ele>
        <time>2013-11-17T11:40:27Z</time>
      </trkpt>
      <trkpt lat="45.63003" lon="5.03602">
        <ele>323.25</ele>
        <time>2013-11-17T11:40:52Z</time>
      </trkpt>
      <trkpt lat="45.63003" lon="5.03602">
        <ele>323.22265625</ele>
        <time>2013-11-17T11:41:15Z</time>
      </trkpt>
      <trkpt lat="45.63004" lon="5.03605">
        <ele>323.4140625</ele>
        <time>2013-11-17T11:41:49Z</time>
      </trkpt>
      <trkpt lat="45.63004" lon="5.03609">
        <ele>323.72265625</ele>
        <time>2013-11-17T11:42:17Z</time>
      </trkpt>
      <trkpt lat="45.63004" lon="5.03608">
        <ele>323.62890625</ele>
        <time>2013-11-17T11:42:36Z</time>
      </trkpt>
      <trkpt lat="45.63006" lon="5.03609">
        <ele>323.6796875</ele>
        <time>2013-11-17T11:42:53Z</time>
      </trkpt>
      <trkpt lat="45.63007" lon="5.03611">
        <ele>323.7578125</ele>
        <time>2013-11-17T11:43:18Z</time>
      </trkpt>
      <trkpt lat="45.63006" lon="5.03611">
        <ele>323.78125</ele>
        <time>2013-11-17T11:43:48Z</time>
      </trkpt>
      <trkpt lat="45.63008" lon="5.0361">
        <ele>323.62109375</ele>
        <time>2013-11-17T11:44:16Z</time>
      </trkpt>
      <trkpt lat="45.63008" lon="5.03613">
        <ele>323.96484375</ele>
        <time>2013-11-17T11:44:34Z</time>
      </trkpt>
      <trkpt lat="45.63008" lon="5.03615">
        <ele>324.20703125</ele>
        <time>2013-11-17T11:44:58Z</time>
      </trkpt>
      <trkpt lat="45.63009" lon="5.03618">
        <ele>324.4296875</ele>
        <time>2013-11-17T11:45:24Z</time>
      </trkpt>
      <trkpt lat="45.63011" lon="5.03615">
        <ele>324.0546875</ele>
        <time>2013-11-17T11:45:44Z</time>
      </trkpt>
      <trkpt lat="45.63017" lon="5.03614">
        <ele>323.79296875</ele>
        <time>2013-11-17T11:46:03Z</time>
      </trkpt>
      <trkpt lat="45.63018" lon="5.03614">
        <ele>323.75</ele>
        <time>2013-11-17T11:46:34Z</time>
      </trkpt>
      <trkpt lat="45.63012" lon="5.03615">
        <ele>323.99609375</ele>
        <time>2013-11-17T11:47:07Z</time>
      </trkpt>
      <trkpt lat="45.63017" lon="5.03612">
        <ele>323.52734375</ele>
        <time>2013-11-17T11:47:39Z</time>
      </trkpt>
      <trkpt lat="45.63017" lon="5.03613">
        <ele>323.609375</ele>
        <time>2013-11-17T11:48:07Z</time>
      </trkpt>
      <trkpt lat="45.63016" lon="5.03618">
        <ele>324.2890625</ele>
        <time>2013-11-17T11:48:44Z</time>
      </trkpt>
      <trkpt lat="45.63014" lon="5.03612">
        <ele>323.65625</ele>
        <time>2013-11-17T11:49:19Z</time>
      </trkpt>
      <trkpt lat="45.63012" lon="5.03617">
        <ele>324.2578125</ele>
        <time>2013-11-17T11:49:50Z</time>
      </trkpt>
      <trkpt lat="45.63016" lon="5.03613">
        <ele>323.6640625</ele>
        <time>2013-11-17T11:50:20Z</time>
      </trkpt>
      <trkpt lat="45.63015" lon="5.03611">
        <ele>323.48046875</ele>
        <time>2013-11-17T11:50:42Z</time>
      </trkpt>
      <trkpt lat="45.63015" lon="5.03609">
        <ele>323.3203125</ele>
        <time>2013-11-17T11:51:11Z</time>
      </trkpt>
      <trkpt lat="45.63015" lon="5.03611">
        <ele>323.484375</ele>
        <time>2013-11-17T11:51:43Z</time>
      </trkpt>
      <trkpt lat="45.63019" lon="5.03614">
        <ele>323.69921875</ele>
        <time>2013-11-17T11:52:15Z</time>
      </trkpt>
      <trkpt lat="45.63015" lon="5.03609">
        <ele>323.34765625</ele>
        <time>2013-11-17T11:52:39Z</time>
      </trkpt>
      <trkpt lat="45.63016" lon="5.0361">
        <ele>323.390625</ele>
        <time>2013-11-17T11:53:01Z</time>
      </trkpt>
      <trkpt lat="45.63017" lon="5.03614">
        <ele>323.7109375</ele>
        <time>2013-11-17T11:53:25Z</time>
      </trkpt>
      <trkpt lat="45.63018" lon="5.03612">
        <ele>323.5390625</ele>
        <time>2013-11-17T11:53:46Z</time>
      </trkpt>
      <trkpt lat="45.63016" lon="5.03612">
        <ele>323.59375</ele>
        <time>2013-11-17T11:54:12Z</time>
      </trkpt>
      <trkpt lat="45.63009" lon="5.0361">
        <ele>323.609375</ele>
        <time>2013-11-17T11:54:36Z</time>
      </trkpt>
      <trkpt lat="45.63003" lon="5.03602">
        <ele>323.234375</ele>
        <time>2013-11-17T11:54:51Z</time>
      </trkpt>
      <trkpt lat="45.63003" lon="5.03611">
        <ele>323.9140625</ele>
        <time>2013-11-17T11:55:10Z</time>
      </trkpt>
      <trkpt lat="45.63005" lon="5.03609">
        <ele>323.66796875</ele>
        <time>2013-11-17T11:55:33Z</time>
      </trkpt>
      <trkpt lat="45.63001" lon="5.03606">
        <ele>323.5703125</ele>
        <time>2013-11-17T11:55:43Z</time>
      </trkpt>
      <trkpt lat="45.62988" lon="5.03601">
        <ele>323.68359375</ele>
        <time>2013-11-17T11:55:58Z</time>
      </trkpt>
      <trkpt lat="45.62978" lon="5.03588">
        <ele>323.11328125</ele>
        <time>2013-11-17T11:56:12Z</time>
      </trkpt>
      <trkpt lat="45.62971" lon="5.03579">
        <ele>322.73046875</ele>
        <time>2013-11-17T11:56:21Z</time>
      </trkpt>
      <trkpt lat="45.62955" lon="5.03559">
        <ele>321.87109375</ele>
        <time>2013-11-17T11:56:38Z</time>
      </trkpt>
      <trkpt lat="45.62939" lon="5.0354">
        <ele>321.63671875</ele>
        <time>2013-11-17T11:56:53Z</time>
      </trkpt>
      <trkpt lat="45.62925" lon="5.03523">
        <ele>322.16015625</ele>
        <time>2013-11-17T11:57:08Z</time>
      </trkpt>
      <trkpt lat="45.62907" lon="5.0351">
        <ele>322.4140625</ele>
        <time>2013-11-17T11:57:24Z</time>
      </trkpt>
      <trkpt lat="45.62887" lon="5.03493">
        <ele>321.9921875</ele>
        <time>2013-11-17T11:57:42Z</time>
      </trkpt>
      <trkpt lat="45.62879" lon="5.03487">
        <ele>322</ele>
        <time>2013-11-17T11:57:49Z</time>
      </trkpt>
      <trkpt lat="45.62875" lon="5.03488">
        <ele>322</ele>
        <time>2013-11-17T11:57:52Z</time>
      </trkpt>
      <trkpt lat="45.62869" lon="5.03502">
        <ele>322.0390625</ele>
        <time>2013-11-17T11:58:00Z</time>
      </trkpt>
      <trkpt lat="45.62862" lon="5.03527">
        <ele>322.140625</ele>
        <time>2013-11-17T11:58:14Z</time>
      </trkpt>
      <trkpt lat="45.62857" lon="5.03547">
        <ele>322.70703125</ele>
        <time>2013-11-17T11:58:26Z</time>
      </trkpt>
      <trkpt lat="45.62854" lon="5.03562">
        <ele>323.125</ele>
        <time>2013-11-17T11:58:34Z</time>
      </trkpt>
      <trkpt lat="45.62845" lon="5.03595">
        <ele>323.9921875</ele>
        <time>2013-11-17T11:58:53Z</time>
      </trkpt>
      <trkpt lat="45.62834" lon="5.03621">
        <ele>324.12109375</ele>
        <time>2013-11-17T11:59:08Z</time>
      </trkpt>
      <trkpt lat="45.62822" lon="5.03643">
        <ele>323.8671875</ele>
        <time>2013-11-17T11:59:23Z</time>
      </trkpt>
      <trkpt lat="45.62811" lon="5.03664">
        <ele>324.24609375</ele>
        <time>2013-11-17T11:59:37Z</time>
      </trkpt>
      <trkpt lat="45.62797" lon="5.03689">
        <ele>324.421875</ele>
        <time>2013-11-17T11:59:54Z</time>
      </trkpt>
      <trkpt lat="45.62786" lon="5.03712">
        <ele>324.43359375</ele>
        <time>2013-11-17T12:00:09Z</time>
      </trkpt>
      <trkpt lat="45.62785" lon="5.03714">
        <ele>324.4140625</ele>
        <time>2013-11-17T12:00:10Z</time>
      </trkpt>
      <trkpt lat="45.62773" lon="5.03736">
        <ele>324.55078125</ele>
        <time>2013-11-17T12:00:25Z</time>
      </trkpt>
      <trkpt lat="45.6276" lon="5.03762">
        <ele>325.203125</ele>
        <time>2013-11-17T12:00:42Z</time>
      </trkpt>
      <trkpt lat="45.62749" lon="5.03784">
        <ele>324.79296875</ele>
        <time>2013-11-17T12:00:56Z</time>
      </trkpt>
      <trkpt lat="45.62747" lon="5.0379">
        <ele>324.4765625</ele>
        <time>2013-11-17T12:01:00Z</time>
      </trkpt>
      <trkpt lat="45.62736" lon="5.03817">
        <ele>323.16796875</ele>
        <time>2013-11-17T12:01:16Z</time>
      </trkpt>
      <trkpt lat="45.62725" lon="5.03843">
        <ele>321.86328125</ele>
        <time>2013-11-17T12:01:32Z</time>
      </trkpt>
      <trkpt lat="45.62717" lon="5.03867">
        <ele>322.01953125</ele>
        <time>2013-11-17T12:01:46Z</time>
      </trkpt>
      <trkpt lat="45.62705" lon="5.03886">
        <ele>321.87890625</ele>
        <time>2013-11-17T12:02:02Z</time>
      </trkpt>
      <trkpt lat="45.62697" lon="5.03892">
        <ele>321.6875</ele>
        <time>2013-11-17T12:02:09Z</time>
      </trkpt>
      <trkpt lat="45.62696" lon="5.03895">
        <ele>321.75</ele>
        <time>2013-11-17T12:02:11Z</time>
      </trkpt>
      <trkpt lat="45.62683" lon="5.039">
        <ele>321.54296875</ele>
        <time>2013-11-17T12:02:23Z</time>
      </trkpt>
      <trkpt lat="45.62665" lon="5.03907">
        <ele>321.44140625</ele>
        <time>2013-11-17T12:02:37Z</time>
      </trkpt>
      <trkpt lat="45.62659" lon="5.03908">
        <ele>321.2578125</ele>
        <time>2013-11-17T12:02:42Z</time>
      </trkpt>
      <trkpt lat="45.62654" lon="5.03911">
        <ele>321.22265625</ele>
        <time>2013-11-17T12:02:46Z</time>
      </trkpt>
      <trkpt lat="45.62638" lon="5.03912">
        <ele>320.7109375</ele>
        <time>2013-11-17T12:02:59Z</time>
      </trkpt>
      <trkpt lat="45.62626" lon="5.03913">
        <ele>320.34375</ele>
        <time>2013-11-17T12:03:10Z</time>
      </trkpt>
      <trkpt lat="45.62619" lon="5.03915">
        <ele>320.32421875</ele>
        <time>2013-11-17T12:03:16Z</time>
      </trkpt>
      <trkpt lat="45.62602" lon="5.03918">
        <ele>319.7265625</ele>
        <time>2013-11-17T12:03:31Z</time>
      </trkpt>
      <trkpt lat="45.62587" lon="5.03921">
        <ele>318.83984375</ele>
        <time>2013-11-17T12:03:45Z</time>
      </trkpt>
      <trkpt lat="45.62572" lon="5.03924">
        <ele>317.671875</ele>
        <time>2013-11-17T12:03:59Z</time>
      </trkpt>
      <trkpt lat="45.6256" lon="5.03921">
        <ele>316.12890625</ele>
        <time>2013-11-17T12:04:11Z</time>
      </trkpt>
      <trkpt lat="45.62548" lon="5.03924">
        <ele>314.5859375</ele>
        <time>2013-11-17T12:04:23Z</time>
      </trkpt>
      <trkpt lat="45.62536" lon="5.03932">
        <ele>312.71875</ele>
        <time>2013-11-17T12:04:35Z</time>
      </trkpt>
      <trkpt lat="45.62523" lon="5.03937">
        <ele>310.7890625</ele>
        <time>2013-11-17T12:04:49Z</time>
      </trkpt>
      <trkpt lat="45.62516" lon="5.03943">
        <ele>309.5859375</ele>
        <time>2013-11-17T12:04:56Z</time>
      </trkpt>
      <trkpt lat="45.62501" lon="5.03957">
        <ele>306.796875</ele>
        <time>2013-11-17T12:05:12Z</time>
      </trkpt>
      <trkpt lat="45.62491" lon="5.03973">
        <ele>305.4140625</ele>
        <time>2013-11-17T12:05:25Z</time>
      </trkpt>
      <trkpt lat="45.6248" lon="5.03996">
        <ele>303.859375</ele>
        <time>2013-11-17T12:05:41Z</time>
      </trkpt>
      <trkpt lat="45.62471" lon="5.04017">
        <ele>302.8828125</ele>
        <time>2013-11-17T12:05:58Z</time>
      </trkpt>
      <trkpt lat="45.62466" lon="5.04029">
        <ele>302.03515625</ele>
        <time>2013-11-17T12:06:07Z</time>
      </trkpt>
      <trkpt lat="45.62463" lon="5.04034">
        <ele>301.2421875</ele>
        <time>2013-11-17T12:06:11Z</time>
      </trkpt>
      <trkpt lat="45.62456" lon="5.04049">
        <ele>299.828125</ele>
        <time>2013-11-17T12:06:24Z</time>
      </trkpt>
      <trkpt lat="45.62447" lon="5.04073">
        <ele>298.61328125</ele>
        <time>2013-11-17T12:06:39Z</time>
      </trkpt>
      <trkpt lat="45.6244" lon="5.0409">
        <ele>298.15234375</ele>
        <time>2013-11-17T12:06:52Z</time>
      </trkpt>
      <trkpt lat="45.62436" lon="5.04099">
        <ele>298.0234375</ele>
        <time>2013-11-17T12:06:59Z</time>
      </trkpt>
      <trkpt lat="45.62434" lon="5.04109">
        <ele>298.04296875</ele>
        <time>2013-11-17T12:07:05Z</time>
      </trkpt>
      <trkpt lat="45.62433" lon="5.04115">
        <ele>298.00390625</ele>
        <time>2013-11-17T12:07:08Z</time>
      </trkpt>
      <trkpt lat="45.62428" lon="5.04139">
        <ele>297.97265625</ele>
        <time>2013-11-17T12:07:21Z</time>
      </trkpt>
      <trkpt lat="45.62422" lon="5.04164">
        <ele>297.796875</ele>
        <time>2013-11-17T12:07:36Z</time>
      </trkpt>
      <trkpt lat="45.62418" lon="5.04178">
        <ele>297.890625</ele>
        <time>2013-11-17T12:07:45Z</time>
      </trkpt>
      <trkpt lat="45.62416" lon="5.04182">
        <ele>297.80859375</ele>
        <time>2013-11-17T12:07:48Z</time>
      </trkpt>
      <trkpt lat="45.62414" lon="5.04193">
        <ele>297.984375</ele>
        <time>2013-11-17T12:07:54Z</time>
      </trkpt>
      <trkpt lat="45.62412" lon="5.04214">
        <ele>298.59765625</ele>
        <time>2013-11-17T12:08:07Z</time>
      </trkpt>
      <trkpt lat="45.62406" lon="5.04242">
        <ele>298.87890625</ele>
        <time>2013-11-17T12:08:23Z</time>
      </trkpt>
      <trkpt lat="45.62401" lon="5.04264">
        <ele>299.09765625</ele>
        <time>2013-11-17T12:08:35Z</time>
      </trkpt>
      <trkpt lat="45.62395" lon="5.0429">
        <ele>299.23046875</ele>
        <time>2013-11-17T12:08:51Z</time>
      </trkpt>
      <trkpt lat="45.62394" lon="5.04315">
        <ele>299.51171875</ele>
        <time>2013-11-17T12:09:04Z</time>
      </trkpt>
      <trkpt lat="45.62394" lon="5.04342">
        <ele>299.48046875</ele>
        <time>2013-11-17T12:09:19Z</time>
      </trkpt>
      <trkpt lat="45.62393" lon="5.04348">
        <ele>299.421875</ele>
        <time>2013-11-17T12:09:23Z</time>
      </trkpt>
      <trkpt lat="45.62392" lon="5.04374">
        <ele>299.37890625</ele>
        <time>2013-11-17T12:09:38Z</time>
      </trkpt>
      <trkpt lat="45.6239" lon="5.04392">
        <ele>299.2265625</ele>
        <time>2013-11-17T12:09:49Z</time>
      </trkpt>
      <trkpt lat="45.62387" lon="5.04424">
        <ele>298.98828125</ele>
        <time>2013-11-17T12:10:05Z</time>
      </trkpt>
      <trkpt lat="45.62387" lon="5.04426">
        <ele>298.98828125</ele>
        <time>2013-11-17T12:10:06Z</time>
      </trkpt>
      <trkpt lat="45.62383" lon="5.04449">
        <ele>299.1171875</ele>
        <time>2013-11-17T12:10:19Z</time>
      </trkpt>
      <trkpt lat="45.62381" lon="5.04474">
        <ele>299.921875</ele>
        <time>2013-11-17T12:10:33Z</time>
      </trkpt>
      <trkpt lat="45.62381" lon="5.04501">
        <ele>300.859375</ele>
        <time>2013-11-17T12:10:49Z</time>
      </trkpt>
      <trkpt lat="45.62378" lon="5.04519">
        <ele>301.1640625</ele>
        <time>2013-11-17T12:11:00Z</time>
      </trkpt>
      <trkpt lat="45.62377" lon="5.04524">
        <ele>301.21484375</ele>
        <time>2013-11-17T12:11:03Z</time>
      </trkpt>
      <trkpt lat="45.62377" lon="5.04527">
        <ele>301.36328125</ele>
        <time>2013-11-17T12:11:05Z</time>
      </trkpt>
      <trkpt lat="45.62376" lon="5.04533">
        <ele>301.765625</ele>
        <time>2013-11-17T12:11:09Z</time>
      </trkpt>
      <trkpt lat="45.62386" lon="5.04546">
        <ele>303.36328125</ele>
        <time>2013-11-17T12:11:24Z</time>
      </trkpt>
      <trkpt lat="45.62399" lon="5.04557">
        <ele>304.71484375</ele>
        <time>2013-11-17T12:11:41Z</time>
      </trkpt>
      <trkpt lat="45.62411" lon="5.04567">
        <ele>306.21484375</ele>
        <time>2013-11-17T12:11:58Z</time>
      </trkpt>
      <trkpt lat="45.62424" lon="5.04578">
        <ele>307.66015625</ele>
        <time>2013-11-17T12:12:15Z</time>
      </trkpt>
      <trkpt lat="45.62429" lon="5.04583">
        <ele>308.09375</ele>
        <time>2013-11-17T12:12:21Z</time>
      </trkpt>
      <trkpt lat="45.62449" lon="5.04599">
        <ele>308.9765625</ele>
        <time>2013-11-17T12:12:40Z</time>
      </trkpt>
      <trkpt lat="45.62465" lon="5.04615">
        <ele>309.55859375</ele>
        <time>2013-11-17T12:12:56Z</time>
      </trkpt>
      <trkpt lat="45.62479" lon="5.04628">
        <ele>309.69140625</ele>
        <time>2013-11-17T12:13:11Z</time>
      </trkpt>
      <trkpt lat="45.62495" lon="5.04638">
        <ele>309.2890625</ele>
        <time>2013-11-17T12:13:26Z</time>
      </trkpt>
      <trkpt lat="45.62509" lon="5.04648">
        <ele>309.39453125</ele>
        <time>2013-11-17T12:13:39Z</time>
      </trkpt>
      <trkpt lat="45.62522" lon="5.04659">
        <ele>309.6796875</ele>
        <time>2013-11-17T12:13:52Z</time>
      </trkpt>
      <trkpt lat="45.62539" lon="5.04671">
        <ele>309.83203125</ele>
        <time>2013-11-17T12:14:07Z</time>
      </trkpt>
      <trkpt lat="45.62555" lon="5.04685">
        <ele>309.671875</ele>
        <time>2013-11-17T12:14:22Z</time>
      </trkpt>
      <trkpt lat="45.62558" lon="5.04687">
        <ele>309.66015625</ele>
        <time>2013-11-17T12:14:25Z</time>
      </trkpt>
      <trkpt lat="45.62564" lon="5.047">
        <ele>310.08203125</ele>
        <time>2013-11-17T12:14:36Z</time>
      </trkpt>
      <trkpt lat="45.62564" lon="5.04727">
        <ele>311.58984375</ele>
        <time>2013-11-17T12:14:51Z</time>
      </trkpt>
      <trkpt lat="45.62563" lon="5.04748">
        <ele>312.67578125</ele>
        <time>2013-11-17T12:15:04Z</time>
      </trkpt>
      <trkpt lat="45.62562" lon="5.04775">
        <ele>313.66015625</ele>
        <time>2013-11-17T12:15:21Z</time>
      </trkpt>
      <trkpt lat="45.6256" lon="5.04786">
        <ele>314.13671875</ele>
        <time>2013-11-17T12:15:28Z</time>
      </trkpt>
      <trkpt lat="45.62558" lon="5.04815">
        <ele>315.3046875</ele>
        <time>2013-11-17T12:15:45Z</time>
      </trkpt>
      <trkpt lat="45.62556" lon="5.04834">
        <ele>316.11328125</ele>
        <time>2013-11-17T12:15:58Z</time>
      </trkpt>
      <trkpt lat="45.62555" lon="5.04843">
        <ele>316.41796875</ele>
        <time>2013-11-17T12:16:03Z</time>
      </trkpt>
      <trkpt lat="45.62555" lon="5.04851">
        <ele>316.71484375</ele>
        <time>2013-11-17T12:16:08Z</time>
      </trkpt>
      <trkpt lat="45.62552" lon="5.04874">
        <ele>317.5625</ele>
        <time>2013-11-17T12:16:22Z</time>
      </trkpt>
      <trkpt lat="45.6255" lon="5.04893">
        <ele>318.31640625</ele>
        <time>2013-11-17T12:16:35Z</time>
      </trkpt>
      <trkpt lat="45.6255" lon="5.049">
        <ele>318.546875</ele>
        <time>2013-11-17T12:16:39Z</time>
      </trkpt>
      <trkpt lat="45.62549" lon="5.0492">
        <ele>319.19921875</ele>
        <time>2013-11-17T12:16:52Z</time>
      </trkpt>
      <trkpt lat="45.62548" lon="5.04926">
        <ele>319.4140625</ele>
        <time>2013-11-17T12:16:56Z</time>
      </trkpt>
      <trkpt lat="45.62548" lon="5.04938">
        <ele>319.84765625</ele>
        <time>2013-11-17T12:17:04Z</time>
      </trkpt>
      <trkpt lat="45.62546" lon="5.04957">
        <ele>320</ele>
        <time>2013-11-17T12:17:18Z</time>
      </trkpt>
      <trkpt lat="45.62545" lon="5.04979">
        <ele>320.3125</ele>
        <time>2013-11-17T12:17:32Z</time>
      </trkpt>
      <trkpt lat="45.62544" lon="5.0499">
        <ele>320.70703125</ele>
        <time>2013-11-17T12:17:41Z</time>
      </trkpt>
      <trkpt lat="45.62543" lon="5.05003">
        <ele>321</ele>
        <time>2013-11-17T12:17:49Z</time>
      </trkpt>
      <trkpt lat="45.62541" lon="5.05019">
        <ele>321</ele>
        <time>2013-11-17T12:17:58Z</time>
      </trkpt>
      <trkpt lat="45.62541" lon="5.05028">
        <ele>321</ele>
        <time>2013-11-17T12:18:04Z</time>
      </trkpt>
      <trkpt lat="45.62539" lon="5.05058">
        <ele>321</ele>
        <time>2013-11-17T12:18:21Z</time>
      </trkpt>
      <trkpt lat="45.62537" lon="5.05085">
        <ele>320.92578125</ele>
        <time>2013-11-17T12:18:36Z</time>
      </trkpt>
      <trkpt lat="45.62535" lon="5.0511">
        <ele>320.34765625</ele>
        <time>2013-11-17T12:18:51Z</time>
      </trkpt>
      <trkpt lat="45.62534" lon="5.05139">
        <ele>320.3046875</ele>
        <time>2013-11-17T12:19:07Z</time>
      </trkpt>
      <trkpt lat="45.62534" lon="5.05141">
        <ele>320.30078125</ele>
        <time>2013-11-17T12:19:08Z</time>
      </trkpt>
      <trkpt lat="45.62532" lon="5.05169">
        <ele>320.21484375</ele>
        <time>2013-11-17T12:19:24Z</time>
      </trkpt>
      <trkpt lat="45.62529" lon="5.05182">
        <ele>320.12890625</ele>
        <time>2013-11-17T12:19:32Z</time>
      </trkpt>
      <trkpt lat="45.62526" lon="5.05206">
        <ele>320.5078125</ele>
        <time>2013-11-17T12:19:47Z</time>
      </trkpt>
      <trkpt lat="45.62524" lon="5.05234">
        <ele>320.921875</ele>
        <time>2013-11-17T12:20:03Z</time>
      </trkpt>
      <trkpt lat="45.62524" lon="5.05246">
        <ele>320.9296875</ele>
        <time>2013-11-17T12:20:10Z</time>
      </trkpt>
      <trkpt lat="45.62523" lon="5.05257">
        <ele>321.22265625</ele>
        <time>2013-11-17T12:20:16Z</time>
      </trkpt>
      <trkpt lat="45.6252" lon="5.05285">
        <ele>321.8046875</ele>
        <time>2013-11-17T12:20:33Z</time>
      </trkpt>
      <trkpt lat="45.62517" lon="5.05316">
        <ele>322.1796875</ele>
        <time>2013-11-17T12:20:51Z</time>
      </trkpt>
      <trkpt lat="45.62516" lon="5.05341">
        <ele>322.65234375</ele>
        <time>2013-11-17T12:21:06Z</time>
      </trkpt>
      <trkpt lat="45.62516" lon="5.05343">
        <ele>322.65625</ele>
        <time>2013-11-17T12:21:07Z</time>
      </trkpt>
      <trkpt lat="45.62514" lon="5.05371">
        <ele>322.58203125</ele>
        <time>2013-11-17T12:21:23Z</time>
      </trkpt>
      <trkpt lat="45.62513" lon="5.05399">
        <ele>322.546875</ele>
        <time>2013-11-17T12:21:39Z</time>
      </trkpt>
      <trkpt lat="45.62512" lon="5.0543">
        <ele>322.78125</ele>
        <time>2013-11-17T12:21:56Z</time>
      </trkpt>
      <trkpt lat="45.62513" lon="5.05456">
        <ele>323.0546875</ele>
        <time>2013-11-17T12:22:11Z</time>
      </trkpt>
      <trkpt lat="45.62513" lon="5.05482">
        <ele>323.26953125</ele>
        <time>2013-11-17T12:22:26Z</time>
      </trkpt>
      <trkpt lat="45.62512" lon="5.05512">
        <ele>323.79296875</ele>
        <time>2013-11-17T12:22:42Z</time>
      </trkpt>
      <trkpt lat="45.62513" lon="5.05541">
        <ele>324.1171875</ele>
        <time>2013-11-17T12:22:58Z</time>
      </trkpt>
      <trkpt lat="45.62514" lon="5.05572">
        <ele>324.16796875</ele>
        <time>2013-11-17T12:23:15Z</time>
      </trkpt>
      <trkpt lat="45.62514" lon="5.05597">
        <ele>324.42578125</ele>
        <time>2013-11-17T12:23:29Z</time>
      </trkpt>
      <trkpt lat="45.62514" lon="5.05625">
        <ele>324.58984375</ele>
        <time>2013-11-17T12:23:45Z</time>
      </trkpt>
      <trkpt lat="45.62513" lon="5.05655">
        <ele>324.55859375</ele>
        <time>2013-11-17T12:24:02Z</time>
      </trkpt>
      <trkpt lat="45.62512" lon="5.05675">
        <ele>324.30859375</ele>
        <time>2013-11-17T12:24:14Z</time>
      </trkpt>
      <trkpt lat="45.62511" lon="5.05701">
        <ele>323.83984375</ele>
        <time>2013-11-17T12:24:30Z</time>
      </trkpt>
      <trkpt lat="45.62511" lon="5.05702">
        <ele>323.8125</ele>
        <time>2013-11-17T12:24:31Z</time>
      </trkpt>
      <trkpt lat="45.62509" lon="5.0571">
        <ele>323.6171875</ele>
        <time>2013-11-17T12:24:36Z</time>
      </trkpt>
      <trkpt lat="45.62506" lon="5.05712">
        <ele>323.49609375</ele>
        <time>2013-11-17T12:24:39Z</time>
      </trkpt>
      <trkpt lat="45.62494" lon="5.05697">
        <ele>323.70703125</ele>
        <time>2013-11-17T12:24:53Z</time>
      </trkpt>
      <trkpt lat="45.62484" lon="5.05684">
        <ele>323.51171875</ele>
        <time>2013-11-17T12:25:04Z</time>
      </trkpt>
      <trkpt lat="45.62468" lon="5.05659">
        <ele>322.89453125</ele>
        <time>2013-11-17T12:25:22Z</time>
      </trkpt>
      <trkpt lat="45.62458" lon="5.05637">
        <ele>322.12890625</ele>
        <time>2013-11-17T12:25:37Z</time>
      </trkpt>
      <trkpt lat="45.62447" lon="5.05612">
        <ele>321.19921875</ele>
        <time>2013-11-17T12:25:53Z</time>
      </trkpt>
      <trkpt lat="45.62437" lon="5.05587">
        <ele>320.04296875</ele>
        <time>2013-11-17T12:26:09Z</time>
      </trkpt>
      <trkpt lat="45.62426" lon="5.05559">
        <ele>319.421875</ele>
        <time>2013-11-17T12:26:27Z</time>
      </trkpt>
      <trkpt lat="45.62417" lon="5.05535">
        <ele>319.08984375</ele>
        <time>2013-11-17T12:26:43Z</time>
      </trkpt>
      <trkpt lat="45.6241" lon="5.05511">
        <ele>319</ele>
        <time>2013-11-17T12:26:58Z</time>
      </trkpt>
      <trkpt lat="45.62403" lon="5.05485">
        <ele>319</ele>
        <time>2013-11-17T12:27:13Z</time>
      </trkpt>
      <trkpt lat="45.62397" lon="5.05459">
        <ele>318.75390625</ele>
        <time>2013-11-17T12:27:29Z</time>
      </trkpt>
      <trkpt lat="45.6239" lon="5.05428">
        <ele>318.06640625</ele>
        <time>2013-11-17T12:27:46Z</time>
      </trkpt>
      <trkpt lat="45.62388" lon="5.05407">
        <ele>317.74609375</ele>
        <time>2013-11-17T12:27:58Z</time>
      </trkpt>
      <trkpt lat="45.62387" lon="5.05401">
        <ele>317.5234375</ele>
        <time>2013-11-17T12:28:01Z</time>
      </trkpt>
      <trkpt lat="45.62387" lon="5.0539">
        <ele>317.14453125</ele>
        <time>2013-11-17T12:28:07Z</time>
      </trkpt>
      <trkpt lat="45.62386" lon="5.05387">
        <ele>317.0234375</ele>
        <time>2013-11-17T12:28:09Z</time>
      </trkpt>
      <trkpt lat="45.62386" lon="5.0536">
        <ele>317.00390625</ele>
        <time>2013-11-17T12:28:24Z</time>
      </trkpt>
      <trkpt lat="45.62387" lon="5.05331">
        <ele>316.0078125</ele>
        <time>2013-11-17T12:28:41Z</time>
      </trkpt>
      <trkpt lat="45.62374" lon="5.05304">
        <ele>316.46875</ele>
        <time>2013-11-17T12:28:58Z</time>
      </trkpt>
      <trkpt lat="45.62361" lon="5.05278">
        <ele>316.90234375</ele>
        <time>2013-11-17T12:29:14Z</time>
      </trkpt>
      <trkpt lat="45.62353" lon="5.05255">
        <ele>317.4453125</ele>
        <time>2013-11-17T12:29:30Z</time>
      </trkpt>
      <trkpt lat="45.62351" lon="5.05241">
        <ele>317.296875</ele>
        <time>2013-11-17T12:29:38Z</time>
      </trkpt>
      <trkpt lat="45.62351" lon="5.05235">
        <ele>317.12890625</ele>
        <time>2013-11-17T12:29:41Z</time>
      </trkpt>
      <trkpt lat="45.6235" lon="5.05228">
        <ele>316.93359375</ele>
        <time>2013-11-17T12:29:45Z</time>
      </trkpt>
      <trkpt lat="45.62349" lon="5.05222">
        <ele>316.765625</ele>
        <time>2013-11-17T12:29:49Z</time>
      </trkpt>
      <trkpt lat="45.6235" lon="5.05209">
        <ele>316.55859375</ele>
        <time>2013-11-17T12:29:57Z</time>
      </trkpt>
      <trkpt lat="45.62343" lon="5.05184">
        <ele>316.26171875</ele>
        <time>2013-11-17T12:30:13Z</time>
      </trkpt>
      <trkpt lat="45.62335" lon="5.05166">
        <ele>315.91796875</ele>
        <time>2013-11-17T12:30:25Z</time>
      </trkpt>
      <trkpt lat="45.62323" lon="5.05145">
        <ele>316.5859375</ele>
        <time>2013-11-17T12:30:40Z</time>
      </trkpt>
      <trkpt lat="45.62321" lon="5.0514">
        <ele>316.73046875</ele>
        <time>2013-11-17T12:30:43Z</time>
      </trkpt>
      <trkpt lat="45.62313" lon="5.05123">
        <ele>317.65234375</ele>
        <time>2013-11-17T12:30:56Z</time>
      </trkpt>
      <trkpt lat="45.62305" lon="5.05102">
        <ele>318.87890625</ele>
        <time>2013-11-17T12:31:10Z</time>
      </trkpt>
      <trkpt lat="45.62298" lon="5.05085">
        <ele>319.39453125</ele>
        <time>2013-11-17T12:31:23Z</time>
      </trkpt>
      <trkpt lat="45.62291" lon="5.05068">
        <ele>320.37890625</ele>
        <time>2013-11-17T12:31:36Z</time>
      </trkpt>
      <trkpt lat="45.62287" lon="5.05057">
        <ele>321.22265625</ele>
        <time>2013-11-17T12:31:44Z</time>
      </trkpt>
      <trkpt lat="45.62286" lon="5.05052">
        <ele>321.5546875</ele>
        <time>2013-11-17T12:31:47Z</time>
      </trkpt>
      <trkpt lat="45.62277" lon="5.05032">
        <ele>322.7421875</ele>
        <time>2013-11-17T12:32:02Z</time>
      </trkpt>
      <trkpt lat="45.62263" lon="5.05011">
        <ele>324.359375</ele>
        <time>2013-11-17T12:32:17Z</time>
      </trkpt>
      <trkpt lat="45.62251" lon="5.04991">
        <ele>326.3125</ele>
        <time>2013-11-17T12:32:31Z</time>
      </trkpt>
      <trkpt lat="45.62242" lon="5.04978">
        <ele>327.1328125</ele>
        <time>2013-11-17T12:32:43Z</time>
      </trkpt>
      <trkpt lat="45.62231" lon="5.04964">
        <ele>328.37109375</ele>
        <time>2013-11-17T12:32:56Z</time>
      </trkpt>
      <trkpt lat="45.62217" lon="5.04945">
        <ele>329.3515625</ele>
        <time>2013-11-17T12:33:12Z</time>
      </trkpt>
      <trkpt lat="45.62206" lon="5.04928">
        <ele>329.77734375</ele>
        <time>2013-11-17T12:33:25Z</time>
      </trkpt>
      <trkpt lat="45.62205" lon="5.04927">
        <ele>329.796875</ele>
        <time>2013-11-17T12:33:26Z</time>
      </trkpt>
      <trkpt lat="45.62194" lon="5.0491">
        <ele>329.609375</ele>
        <time>2013-11-17T12:33:40Z</time>
      </trkpt>
      <trkpt lat="45.62182" lon="5.04894">
        <ele>328.94140625</ele>
        <time>2013-11-17T12:33:54Z</time>
      </trkpt>
      <trkpt lat="45.62168" lon="5.04888">
        <ele>328.98828125</ele>
        <time>2013-11-17T12:34:07Z</time>
      </trkpt>
      <trkpt lat="45.62157" lon="5.04886">
        <ele>329.5</ele>
        <time>2013-11-17T12:34:19Z</time>
      </trkpt>
      <trkpt lat="45.62151" lon="5.04865">
        <ele>329.5859375</ele>
        <time>2013-11-17T12:34:34Z</time>
      </trkpt>
      <trkpt lat="45.62151" lon="5.04863">
        <ele>329.58203125</ele>
        <time>2013-11-17T12:34:35Z</time>
      </trkpt>
      <trkpt lat="45.62151" lon="5.04831">
        <ele>328.4453125</ele>
        <time>2013-11-17T12:34:51Z</time>
      </trkpt>
      <trkpt lat="45.62153" lon="5.04809">
        <ele>328.55859375</ele>
        <time>2013-11-17T12:35:04Z</time>
      </trkpt>
      <trkpt lat="45.62152" lon="5.04788">
        <ele>329.47265625</ele>
        <time>2013-11-17T12:35:17Z</time>
      </trkpt>
      <trkpt lat="45.62143" lon="5.04761">
        <ele>330.6015625</ele>
        <time>2013-11-17T12:35:32Z</time>
      </trkpt>
      <trkpt lat="45.6214" lon="5.0474">
        <ele>330.546875</ele>
        <time>2013-11-17T12:35:46Z</time>
      </trkpt>
      <trkpt lat="45.62138" lon="5.04713">
        <ele>329.734375</ele>
        <time>2013-11-17T12:36:02Z</time>
      </trkpt>
      <trkpt lat="45.62135" lon="5.0469">
        <ele>328.99609375</ele>
        <time>2013-11-17T12:36:16Z</time>
      </trkpt>
      <trkpt lat="45.62131" lon="5.04665">
        <ele>328.21875</ele>
        <time>2013-11-17T12:36:31Z</time>
      </trkpt>
      <trkpt lat="45.62131" lon="5.04662">
        <ele>328.1015625</ele>
        <time>2013-11-17T12:36:33Z</time>
      </trkpt>
      <trkpt lat="45.6212" lon="5.04652">
        <ele>327.8984375</ele>
        <time>2013-11-17T12:36:48Z</time>
      </trkpt>
      <trkpt lat="45.62106" lon="5.04643">
        <ele>327.4140625</ele>
        <time>2013-11-17T12:37:01Z</time>
      </trkpt>
      <trkpt lat="45.62095" lon="5.04633">
        <ele>326.68359375</ele>
        <time>2013-11-17T12:37:15Z</time>
      </trkpt>
      <trkpt lat="45.62082" lon="5.04622">
        <ele>325.3359375</ele>
        <time>2013-11-17T12:37:30Z</time>
      </trkpt>
      <trkpt lat="45.6207" lon="5.04615">
        <ele>324.9765625</ele>
        <time>2013-11-17T12:37:43Z</time>
      </trkpt>
      <trkpt lat="45.62058" lon="5.04606">
        <ele>324.4765625</ele>
        <time>2013-11-17T12:38:02Z</time>
      </trkpt>
      <trkpt lat="45.62041" lon="5.04601">
        <ele>325</ele>
        <time>2013-11-17T12:38:17Z</time>
      </trkpt>
      <trkpt lat="45.62027" lon="5.04595">
        <ele>325.33203125</ele>
        <time>2013-11-17T12:38:29Z</time>
      </trkpt>
      <trkpt lat="45.6201" lon="5.04589">
        <ele>326.53515625</ele>
        <time>2013-11-17T12:38:42Z</time>
      </trkpt>
      <trkpt lat="45.61998" lon="5.04586">
        <ele>327.52734375</ele>
        <time>2013-11-17T12:38:55Z</time>
      </trkpt>
      <trkpt lat="45.61991" lon="5.04585">
        <ele>328.18359375</ele>
        <time>2013-11-17T12:39:04Z</time>
      </trkpt>
      <trkpt lat="45.61979" lon="5.04582">
        <ele>329.11328125</ele>
        <time>2013-11-17T12:39:17Z</time>
      </trkpt>
      <trkpt lat="45.61972" lon="5.04582">
        <ele>329.859375</ele>
        <time>2013-11-17T12:39:28Z</time>
      </trkpt>
      <trkpt lat="45.61957" lon="5.04578">
        <ele>329.63671875</ele>
        <time>2013-11-17T12:39:44Z</time>
      </trkpt>
      <trkpt lat="45.61943" lon="5.0458">
        <ele>329.80078125</ele>
        <time>2013-11-17T12:39:54Z</time>
      </trkpt>
      <trkpt lat="45.61931" lon="5.0459">
        <ele>330.19140625</ele>
        <time>2013-11-17T12:40:06Z</time>
      </trkpt>
      <trkpt lat="45.61927" lon="5.0461">
        <ele>332.48046875</ele>
        <time>2013-11-17T12:40:21Z</time>
      </trkpt>
      <trkpt lat="45.61926" lon="5.04626">
        <ele>334.24609375</ele>
        <time>2013-11-17T12:40:34Z</time>
      </trkpt>
      <trkpt lat="45.61926" lon="5.04639">
        <ele>335.59375</ele>
        <time>2013-11-17T12:40:50Z</time>
      </trkpt>
      <trkpt lat="45.61922" lon="5.04653">
        <ele>336.421875</ele>
        <time>2013-11-17T12:41:04Z</time>
      </trkpt>
      <trkpt lat="45.61917" lon="5.04664">
        <ele>337.03125</ele>
        <time>2013-11-17T12:41:17Z</time>
      </trkpt>
      <trkpt lat="45.61915" lon="5.04671">
        <ele>337.44140625</ele>
        <time>2013-11-17T12:41:24Z</time>
      </trkpt>
      <trkpt lat="45.6191" lon="5.04682">
        <ele>337.86328125</ele>
        <time>2013-11-17T12:41:31Z</time>
      </trkpt>
      <trkpt lat="45.6191" lon="5.04688">
        <ele>338.265625</ele>
        <time>2013-11-17T12:41:34Z</time>
      </trkpt>
      <trkpt lat="45.61901" lon="5.0471">
        <ele>338.9375</ele>
        <time>2013-11-17T12:41:50Z</time>
      </trkpt>
      <trkpt lat="45.61898" lon="5.04731">
        <ele>339.609375</ele>
        <time>2013-11-17T12:42:03Z</time>
      </trkpt>
      <trkpt lat="45.61894" lon="5.04749">
        <ele>340.0078125</ele>
        <time>2013-11-17T12:42:13Z</time>
      </trkpt>
      <trkpt lat="45.61892" lon="5.04777">
        <ele>340.234375</ele>
        <time>2013-11-17T12:42:30Z</time>
      </trkpt>
      <trkpt lat="45.6189" lon="5.048">
        <ele>340.9765625</ele>
        <time>2013-11-17T12:42:44Z</time>
      </trkpt>
      <trkpt lat="45.61887" lon="5.0482">
        <ele>341.59765625</ele>
        <time>2013-11-17T12:42:56Z</time>
      </trkpt>
      <trkpt lat="45.61885" lon="5.04843">
        <ele>342.28515625</ele>
        <time>2013-11-17T12:43:11Z</time>
      </trkpt>
      <trkpt lat="45.61882" lon="5.04869">
        <ele>342.71875</ele>
        <time>2013-11-17T12:43:27Z</time>
      </trkpt>
      <trkpt lat="45.6188" lon="5.04889">
        <ele>342.73046875</ele>
        <time>2013-11-17T12:43:40Z</time>
      </trkpt>
      <trkpt lat="45.6188" lon="5.04894">
        <ele>342.73046875</ele>
        <time>2013-11-17T12:43:43Z</time>
      </trkpt>
      <trkpt lat="45.61877" lon="5.04914">
        <ele>342.6171875</ele>
        <time>2013-11-17T12:43:54Z</time>
      </trkpt>
      <trkpt lat="45.61874" lon="5.0492">
        <ele>342.6015625</ele>
        <time>2013-11-17T12:43:58Z</time>
      </trkpt>
      <trkpt lat="45.61864" lon="5.04945">
        <ele>343</ele>
        <time>2013-11-17T12:44:14Z</time>
      </trkpt>
      <trkpt lat="45.61856" lon="5.04961">
        <ele>342.953125</ele>
        <time>2013-11-17T12:44:27Z</time>
      </trkpt>
      <trkpt lat="45.61845" lon="5.0498">
        <ele>343</ele>
        <time>2013-11-17T12:44:42Z</time>
      </trkpt>
      <trkpt lat="45.61834" lon="5.05004">
        <ele>343</ele>
        <time>2013-11-17T12:44:58Z</time>
      </trkpt>
      <trkpt lat="45.61828" lon="5.05033">
        <ele>342.6328125</ele>
        <time>2013-11-17T12:45:15Z</time>
      </trkpt>
      <trkpt lat="45.61824" lon="5.05063">
        <ele>342</ele>
        <time>2013-11-17T12:45:31Z</time>
      </trkpt>
      <trkpt lat="45.6182" lon="5.0509">
        <ele>342</ele>
        <time>2013-11-17T12:45:46Z</time>
      </trkpt>
      <trkpt lat="45.61815" lon="5.0512">
        <ele>341.58984375</ele>
        <time>2013-11-17T12:46:03Z</time>
      </trkpt>
      <trkpt lat="45.6181" lon="5.05153">
        <ele>340.85546875</ele>
        <time>2013-11-17T12:46:21Z</time>
      </trkpt>
      <trkpt lat="45.61808" lon="5.05178">
        <ele>340.8359375</ele>
        <time>2013-11-17T12:46:35Z</time>
      </trkpt>
      <trkpt lat="45.61811" lon="5.05203">
        <ele>340.73046875</ele>
        <time>2013-11-17T12:46:50Z</time>
      </trkpt>
      <trkpt lat="45.61814" lon="5.05206">
        <ele>340.6328125</ele>
        <time>2013-11-17T12:46:53Z</time>
      </trkpt>
      <trkpt lat="45.61838" lon="5.05219">
        <ele>339.78515625</ele>
        <time>2013-11-17T12:47:12Z</time>
      </trkpt>
      <trkpt lat="45.61859" lon="5.05231">
        <ele>339.00390625</ele>
        <time>2013-11-17T12:47:29Z</time>
      </trkpt>
      <trkpt lat="45.6188" lon="5.0524">
        <ele>339</ele>
        <time>2013-11-17T12:47:45Z</time>
      </trkpt>
      <trkpt lat="45.61901" lon="5.05249">
        <ele>338.55078125</ele>
        <time>2013-11-17T12:48:02Z</time>
      </trkpt>
      <trkpt lat="45.61924" lon="5.05254">
        <ele>338.4453125</ele>
        <time>2013-11-17T12:48:19Z</time>
      </trkpt>
      <trkpt lat="45.61946" lon="5.05257">
        <ele>338.640625</ele>
        <time>2013-11-17T12:48:36Z</time>
      </trkpt>
      <trkpt lat="45.61957" lon="5.05258">
        <ele>338.7265625</ele>
        <time>2013-11-17T12:48:45Z</time>
      </trkpt>
      <trkpt lat="45.61977" lon="5.05264">
        <ele>339.01953125</ele>
        <time>2013-11-17T12:49:02Z</time>
      </trkpt>
      <trkpt lat="45.61981" lon="5.05266">
        <ele>339.078125</ele>
        <time>2013-11-17T12:49:05Z</time>
      </trkpt>
      <trkpt lat="45.62002" lon="5.05274">
        <ele>338.953125</ele>
        <time>2013-11-17T12:49:22Z</time>
      </trkpt>
      <trkpt lat="45.62022" lon="5.05285">
        <ele>339.35546875</ele>
        <time>2013-11-17T12:49:37Z</time>
      </trkpt>
      <trkpt lat="45.62027" lon="5.05289">
        <ele>339.4453125</ele>
        <time>2013-11-17T12:49:41Z</time>
      </trkpt>
      <trkpt lat="45.62046" lon="5.05301">
        <ele>339.15625</ele>
        <time>2013-11-17T12:49:58Z</time>
      </trkpt>
      <trkpt lat="45.62067" lon="5.05317">
        <ele>338.0078125</ele>
        <time>2013-11-17T12:50:16Z</time>
      </trkpt>
      <trkpt lat="45.6208" lon="5.05329">
        <ele>337.0859375</ele>
        <time>2013-11-17T12:50:29Z</time>
      </trkpt>
      <trkpt lat="45.62088" lon="5.05341">
        <ele>336.77734375</ele>
        <time>2013-11-17T12:50:37Z</time>
      </trkpt>
      <trkpt lat="45.62089" lon="5.05356">
        <ele>336.72265625</ele>
        <time>2013-11-17T12:50:46Z</time>
      </trkpt>
      <trkpt lat="45.62085" lon="5.05384">
        <ele>336.79296875</ele>
        <time>2013-11-17T12:51:03Z</time>
      </trkpt>
      <trkpt lat="45.62087" lon="5.05399">
        <ele>336.5859375</ele>
        <time>2013-11-17T12:51:11Z</time>
      </trkpt>
      <trkpt lat="45.62101" lon="5.05423">
        <ele>335.47265625</ele>
        <time>2013-11-17T12:51:28Z</time>
      </trkpt>
      <trkpt lat="45.62114" lon="5.05443">
        <ele>334.81640625</ele>
        <time>2013-11-17T12:51:43Z</time>
      </trkpt>
      <trkpt lat="45.6213" lon="5.05465">
        <ele>334.25</ele>
        <time>2013-11-17T12:52:00Z</time>
      </trkpt>
      <trkpt lat="45.6215" lon="5.05489">
        <ele>332.37109375</ele>
        <time>2013-11-17T12:52:20Z</time>
      </trkpt>
      <trkpt lat="45.62166" lon="5.05498">
        <ele>330.953125</ele>
        <time>2013-11-17T12:52:35Z</time>
      </trkpt>
      <trkpt lat="45.62188" lon="5.05502">
        <ele>330.03515625</ele>
        <time>2013-11-17T12:52:54Z</time>
      </trkpt>
      <trkpt lat="45.62208" lon="5.05526">
        <ele>328.44140625</ele>
        <time>2013-11-17T12:53:13Z</time>
      </trkpt>
      <trkpt lat="45.6221" lon="5.0553">
        <ele>328.24609375</ele>
        <time>2013-11-17T12:53:16Z</time>
      </trkpt>
      <trkpt lat="45.6222" lon="5.05558">
        <ele>326.99609375</ele>
        <time>2013-11-17T12:53:33Z</time>
      </trkpt>
      <trkpt lat="45.62234" lon="5.05579">
        <ele>326.51171875</ele>
        <time>2013-11-17T12:53:49Z</time>
      </trkpt>
      <trkpt lat="45.62246" lon="5.056">
        <ele>325.3828125</ele>
        <time>2013-11-17T12:54:04Z</time>
      </trkpt>
      <trkpt lat="45.62248" lon="5.05603">
        <ele>325.1796875</ele>
        <time>2013-11-17T12:54:07Z</time>
      </trkpt>
      <trkpt lat="45.6226" lon="5.05623">
        <ele>324.58203125</ele>
        <time>2013-11-17T12:54:24Z</time>
      </trkpt>
      <trkpt lat="45.62261" lon="5.05626">
        <ele>324.54296875</ele>
        <time>2013-11-17T12:54:26Z</time>
      </trkpt>
      <trkpt lat="45.62263" lon="5.05634">
        <ele>324.46875</ele>
        <time>2013-11-17T12:54:30Z</time>
      </trkpt>
      <trkpt lat="45.62265" lon="5.05639">
        <ele>324.37890625</ele>
        <time>2013-11-17T12:54:35Z</time>
      </trkpt>
      <trkpt lat="45.62271" lon="5.05663">
        <ele>324.171875</ele>
        <time>2013-11-17T12:54:48Z</time>
      </trkpt>
      <trkpt lat="45.6228" lon="5.0569">
        <ele>324.78515625</ele>
        <time>2013-11-17T12:55:03Z</time>
      </trkpt>
      <trkpt lat="45.62292" lon="5.05711">
        <ele>325.08984375</ele>
        <time>2013-11-17T12:55:19Z</time>
      </trkpt>
      <trkpt lat="45.62309" lon="5.05741">
        <ele>325.39453125</ele>
        <time>2013-11-17T12:55:40Z</time>
      </trkpt>
      <trkpt lat="45.62321" lon="5.05767">
        <ele>325.18359375</ele>
        <time>2013-11-17T12:55:57Z</time>
      </trkpt>
      <trkpt lat="45.62339" lon="5.05796">
        <ele>325.40625</ele>
        <time>2013-11-17T12:56:18Z</time>
      </trkpt>
      <trkpt lat="45.6236" lon="5.0581">
        <ele>324.98828125</ele>
        <time>2013-11-17T12:56:36Z</time>
      </trkpt>
      <trkpt lat="45.62382" lon="5.05814">
        <ele>324.4921875</ele>
        <time>2013-11-17T12:56:54Z</time>
      </trkpt>
      <trkpt lat="45.62404" lon="5.05816">
        <ele>325.07421875</ele>
        <time>2013-11-17T12:57:12Z</time>
      </trkpt>
      <trkpt lat="45.62429" lon="5.05814">
        <ele>325.39453125</ele>
        <time>2013-11-17T12:57:32Z</time>
      </trkpt>
      <trkpt lat="45.62451" lon="5.05814">
        <ele>325.41015625</ele>
        <time>2013-11-17T12:57:48Z</time>
      </trkpt>
      <trkpt lat="45.62471" lon="5.05814">
        <ele>325.38671875</ele>
        <time>2013-11-17T12:58:05Z</time>
      </trkpt>
      <trkpt lat="45.62495" lon="5.05815">
        <ele>325.05078125</ele>
        <time>2013-11-17T12:58:24Z</time>
      </trkpt>
      <trkpt lat="45.62516" lon="5.05815">
        <ele>324.6328125</ele>
        <time>2013-11-17T12:58:41Z</time>
      </trkpt>
      <trkpt lat="45.62535" lon="5.05815">
        <ele>324.2890625</ele>
        <time>2013-11-17T12:58:57Z</time>
      </trkpt>
      <trkpt lat="45.62553" lon="5.05811">
        <ele>324.00390625</ele>
        <time>2013-11-17T12:59:12Z</time>
      </trkpt>
      <trkpt lat="45.62572" lon="5.05812">
        <ele>324</ele>
        <time>2013-11-17T12:59:29Z</time>
      </trkpt>
      <trkpt lat="45.62593" lon="5.05813">
        <ele>324</ele>
        <time>2013-11-17T12:59:47Z</time>
      </trkpt>
      <trkpt lat="45.6262" lon="5.05812">
        <ele>324</ele>
        <time>2013-11-17T13:00:07Z</time>
      </trkpt>
      <trkpt lat="45.62638" lon="5.05813">
        <ele>324.03515625</ele>
        <time>2013-11-17T13:00:22Z</time>
      </trkpt>
      <trkpt lat="45.6266" lon="5.05815">
        <ele>324.828125</ele>
        <time>2013-11-17T13:00:40Z</time>
      </trkpt>
      <trkpt lat="45.62681" lon="5.05816">
        <ele>324.3984375</ele>
        <time>2013-11-17T13:00:57Z</time>
      </trkpt>
      <trkpt lat="45.62696" lon="5.0582">
        <ele>323.625</ele>
        <time>2013-11-17T13:01:11Z</time>
      </trkpt>
      <trkpt lat="45.62706" lon="5.05835">
        <ele>322.5</ele>
        <time>2013-11-17T13:01:24Z</time>
      </trkpt>
      <trkpt lat="45.62716" lon="5.05854">
        <ele>321.4765625</ele>
        <time>2013-11-17T13:01:37Z</time>
      </trkpt>
      <trkpt lat="45.62718" lon="5.05867">
        <ele>320.87890625</ele>
        <time>2013-11-17T13:01:44Z</time>
      </trkpt>
      <trkpt lat="45.62722" lon="5.05895">
        <ele>319.34375</ele>
        <time>2013-11-17T13:01:59Z</time>
      </trkpt>
      <trkpt lat="45.62724" lon="5.0591">
        <ele>318.49609375</ele>
        <time>2013-11-17T13:02:09Z</time>
      </trkpt>
      <trkpt lat="45.62729" lon="5.05933">
        <ele>316.1953125</ele>
        <time>2013-11-17T13:02:25Z</time>
      </trkpt>
      <trkpt lat="45.6273" lon="5.05939">
        <ele>315.66015625</ele>
        <time>2013-11-17T13:02:29Z</time>
      </trkpt>
      <trkpt lat="45.62731" lon="5.05942">
        <ele>315.48046875</ele>
        <time>2013-11-17T13:02:31Z</time>
      </trkpt>
      <trkpt lat="45.62731" lon="5.05949">
        <ele>314.87109375</ele>
        <time>2013-11-17T13:02:35Z</time>
      </trkpt>
      <trkpt lat="45.62734" lon="5.05955">
        <ele>313.57421875</ele>
        <time>2013-11-17T13:02:40Z</time>
      </trkpt>
      <trkpt lat="45.62743" lon="5.05985">
        <ele>309.2421875</ele>
        <time>2013-11-17T13:02:59Z</time>
      </trkpt>
      <trkpt lat="45.62751" lon="5.06008">
        <ele>305.15625</ele>
        <time>2013-11-17T13:03:16Z</time>
      </trkpt>
      <trkpt lat="45.62758" lon="5.0603">
        <ele>301.7421875</ele>
        <time>2013-11-17T13:03:31Z</time>
      </trkpt>
      <trkpt lat="45.62759" lon="5.06033">
        <ele>301.3828125</ele>
        <time>2013-11-17T13:03:33Z</time>
      </trkpt>
      <trkpt lat="45.62774" lon="5.06047">
        <ele>296.546875</ele>
        <time>2013-11-17T13:03:50Z</time>
      </trkpt>
      <trkpt lat="45.62783" lon="5.06048">
        <ele>295.0546875</ele>
        <time>2013-11-17T13:03:58Z</time>
      </trkpt>
      <trkpt lat="45.62809" lon="5.06056">
        <ele>291.42578125</ele>
        <time>2013-11-17T13:04:18Z</time>
      </trkpt>
      <trkpt lat="45.62829" lon="5.06053">
        <ele>289.17578125</ele>
        <time>2013-11-17T13:04:35Z</time>
      </trkpt>
      <trkpt lat="45.62843" lon="5.06049">
        <ele>288.15625</ele>
        <time>2013-11-17T13:04:46Z</time>
      </trkpt>
      <trkpt lat="45.62844" lon="5.06042">
        <ele>288.0390625</ele>
        <time>2013-11-17T13:04:50Z</time>
      </trkpt>
      <trkpt lat="45.6285" lon="5.06013">
        <ele>287.625</ele>
        <time>2013-11-17T13:05:07Z</time>
      </trkpt>
      <trkpt lat="45.62854" lon="5.05987">
        <ele>287.0859375</ele>
        <time>2013-11-17T13:05:22Z</time>
      </trkpt>
      <trkpt lat="45.6286" lon="5.05958">
        <ele>285.8984375</ele>
        <time>2013-11-17T13:05:39Z</time>
      </trkpt>
      <trkpt lat="45.62864" lon="5.05928">
        <ele>285.625</ele>
        <time>2013-11-17T13:05:56Z</time>
      </trkpt>
      <trkpt lat="45.62867" lon="5.05903">
        <ele>285.33203125</ele>
        <time>2013-11-17T13:06:10Z</time>
      </trkpt>
      <trkpt lat="45.6287" lon="5.05883">
        <ele>284.82421875</ele>
        <time>2013-11-17T13:06:24Z</time>
      </trkpt>
      <trkpt lat="45.62873" lon="5.05857">
        <ele>284.41015625</ele>
        <time>2013-11-17T13:06:39Z</time>
      </trkpt>
      <trkpt lat="45.62875" lon="5.05827">
        <ele>283.71484375</ele>
        <time>2013-11-17T13:06:56Z</time>
      </trkpt>
      <trkpt lat="45.62878" lon="5.05798">
        <ele>282.671875</ele>
        <time>2013-11-17T13:07:13Z</time>
      </trkpt>
      <trkpt lat="45.6288" lon="5.0579">
        <ele>282.2890625</ele>
        <time>2013-11-17T13:07:17Z</time>
      </trkpt>
      <trkpt lat="45.62881" lon="5.05766">
        <ele>281.625</ele>
        <time>2013-11-17T13:07:31Z</time>
      </trkpt>
      <trkpt lat="45.62882" lon="5.05757">
        <ele>281.4375</ele>
        <time>2013-11-17T13:07:36Z</time>
      </trkpt>
      <trkpt lat="45.62895" lon="5.05749">
        <ele>280.7109375</ele>
        <time>2013-11-17T13:07:48Z</time>
      </trkpt>
      <trkpt lat="45.62906" lon="5.05744">
        <ele>280.28515625</ele>
        <time>2013-11-17T13:07:59Z</time>
      </trkpt>
      <trkpt lat="45.62914" lon="5.05738">
        <ele>280.015625</ele>
        <time>2013-11-17T13:08:08Z</time>
      </trkpt>
      <trkpt lat="45.62919" lon="5.05715">
        <ele>279.84375</ele>
        <time>2013-11-17T13:08:23Z</time>
      </trkpt>
      <trkpt lat="45.62924" lon="5.05688">
        <ele>279.6484375</ele>
        <time>2013-11-17T13:08:40Z</time>
      </trkpt>
      <trkpt lat="45.62929" lon="5.05659">
        <ele>279.30078125</ele>
        <time>2013-11-17T13:08:59Z</time>
      </trkpt>
      <trkpt lat="45.62931" lon="5.05646">
        <ele>278.76953125</ele>
        <time>2013-11-17T13:09:06Z</time>
      </trkpt>
      <trkpt lat="45.6293" lon="5.05618">
        <ele>278.42578125</ele>
        <time>2013-11-17T13:09:23Z</time>
      </trkpt>
      <trkpt lat="45.62933" lon="5.05604">
        <ele>278.328125</ele>
        <time>2013-11-17T13:09:40Z</time>
      </trkpt>
      <trkpt lat="45.62933" lon="5.05603">
        <ele>278.33203125</ele>
        <time>2013-11-17T13:09:42Z</time>
      </trkpt>
      <trkpt lat="45.62935" lon="5.0559">
        <ele>278.24609375</ele>
        <time>2013-11-17T13:09:55Z</time>
      </trkpt>
      <trkpt lat="45.62937" lon="5.05568">
        <ele>278.1953125</ele>
        <time>2013-11-17T13:10:08Z</time>
      </trkpt>
      <trkpt lat="45.62939" lon="5.05555">
        <ele>278.125</ele>
        <time>2013-11-17T13:10:16Z</time>
      </trkpt>
      <trkpt lat="45.62945" lon="5.05527">
        <ele>277.90234375</ele>
        <time>2013-11-17T13:10:32Z</time>
      </trkpt>
      <trkpt lat="45.6295" lon="5.05501">
        <ele>276.8671875</ele>
        <time>2013-11-17T13:10:47Z</time>
      </trkpt>
      <trkpt lat="45.62951" lon="5.05494">
        <ele>276.69140625</ele>
        <time>2013-11-17T13:10:52Z</time>
      </trkpt>
      <trkpt lat="45.62953" lon="5.05483">
        <ele>276.6171875</ele>
        <time>2013-11-17T13:10:58Z</time>
      </trkpt>
      <trkpt lat="45.62954" lon="5.05479">
        <ele>276.58203125</ele>
        <time>2013-11-17T13:11:01Z</time>
      </trkpt>
      <trkpt lat="45.62957" lon="5.05457">
        <ele>276.4765625</ele>
        <time>2013-11-17T13:11:16Z</time>
      </trkpt>
      <trkpt lat="45.62956" lon="5.05446">
        <ele>276.4921875</ele>
        <time>2013-11-17T13:11:23Z</time>
      </trkpt>
      <trkpt lat="45.62959" lon="5.05443">
        <ele>276.390625</ele>
        <time>2013-11-17T13:11:27Z</time>
      </trkpt>
      <trkpt lat="45.62974" lon="5.0545">
        <ele>275.8828125</ele>
        <time>2013-11-17T13:11:44Z</time>
      </trkpt>
      <trkpt lat="45.62991" lon="5.05455">
        <ele>275.58203125</ele>
        <time>2013-11-17T13:11:59Z</time>
      </trkpt>
      <trkpt lat="45.63009" lon="5.0546">
        <ele>275.38671875</ele>
        <time>2013-11-17T13:12:16Z</time>
      </trkpt>
      <trkpt lat="45.63027" lon="5.0547">
        <ele>275</ele>
        <time>2013-11-17T13:12:32Z</time>
      </trkpt>
      <trkpt lat="45.63051" lon="5.05479">
        <ele>275.02734375</ele>
        <time>2013-11-17T13:12:52Z</time>
      </trkpt>
      <trkpt lat="45.63069" lon="5.05485">
        <ele>275</ele>
        <time>2013-11-17T13:13:09Z</time>
      </trkpt>
      <trkpt lat="45.63089" lon="5.0549">
        <ele>275</ele>
        <time>2013-11-17T13:13:26Z</time>
      </trkpt>
      <trkpt lat="45.63105" lon="5.05493">
        <ele>275</ele>
        <time>2013-11-17T13:13:42Z</time>
      </trkpt>
      <trkpt lat="45.63113" lon="5.05478">
        <ele>274.88671875</ele>
        <time>2013-11-17T13:13:55Z</time>
      </trkpt>
      <trkpt lat="45.63114" lon="5.05475">
        <ele>274.83984375</ele>
        <time>2013-11-17T13:13:57Z</time>
      </trkpt>
      <trkpt lat="45.63125" lon="5.0546">
        <ele>274.0625</ele>
        <time>2013-11-17T13:14:13Z</time>
      </trkpt>
      <trkpt lat="45.63126" lon="5.0546">
        <ele>274.0078125</ele>
        <time>2013-11-17T13:14:16Z</time>
      </trkpt>
      <trkpt lat="45.63145" lon="5.05449">
        <ele>273.25</ele>
        <time>2013-11-17T13:14:32Z</time>
      </trkpt>
      <trkpt lat="45.63162" lon="5.05443">
        <ele>273.05078125</ele>
        <time>2013-11-17T13:14:49Z</time>
      </trkpt>
      <trkpt lat="45.63162" lon="5.05446">
        <ele>273.15625</ele>
        <time>2013-11-17T13:14:51Z</time>
      </trkpt>
      <trkpt lat="45.63152" lon="5.05466">
        <ele>273.859375</ele>
        <time>2013-11-17T13:15:05Z</time>
      </trkpt>
      <trkpt lat="45.63149" lon="5.05475">
        <ele>274.08984375</ele>
        <time>2013-11-17T13:15:15Z</time>
      </trkpt>
      <trkpt lat="45.63142" lon="5.0549">
        <ele>274.56640625</ele>
        <time>2013-11-17T13:15:27Z</time>
      </trkpt>
      <trkpt lat="45.63133" lon="5.05504">
        <ele>275</ele>
        <time>2013-11-17T13:15:39Z</time>
      </trkpt>
      <trkpt lat="45.63127" lon="5.05515">
        <ele>275</ele>
        <time>2013-11-17T13:15:48Z</time>
      </trkpt>
      <trkpt lat="45.63124" lon="5.0552">
        <ele>275</ele>
        <time>2013-11-17T13:15:52Z</time>
      </trkpt>
      <trkpt lat="45.6312" lon="5.05534">
        <ele>275</ele>
        <time>2013-11-17T13:16:04Z</time>
      </trkpt>
      <trkpt lat="45.63126" lon="5.05562">
        <ele>275</ele>
        <time>2013-11-17T13:16:21Z</time>
      </trkpt>
    </trkseg>
  </trk>
</gpx>